<?xml version='1.0' encoding='UTF-8'?><gpx version="1.1" creator="JPX - https://github.com/jenetics/jpx" xmlns="http://www.topografix.com/GPX/1/1"><trk><trkseg><trkpt lat="43.983027" lon="3.5890247"><ele>350.0</ele><time>2026-04-19T14:43:03.198Z</time></trkpt><trkpt lat="43.9831183" lon="3.5890154"><ele>350.0</ele><time>2026-04-19T14:43:05.198Z</time></trkpt><trkpt lat="43.9831932" lon="3.5890012"><ele>350.0</ele><time>2026-04-19T14:43:07.199Z</time></trkpt><trkpt lat="43.9832809" lon="3.5889771"><ele>350.0</ele><time>2026-04-19T14:43:40.198Z</time></trkpt><trkpt lat="43.9833719" lon="3.5888605"><ele>350.0</ele><time>2026-04-19T14:43:42.198Z</time></trkpt><trkpt lat="43.9834317" lon="3.5887926"><ele>353.0</ele><time>2026-04-19T14:43:43.198Z</time></trkpt><trkpt lat="43.9834828" lon="3.5887224"><ele>356.0</ele><time>2026-04-19T14:43:44.198Z</time></trkpt><trkpt lat="43.9835187" lon="3.5886409"><ele>359.0</ele><time>2026-04-19T14:43:45.199Z</time></trkpt><trkpt lat="43.9835566" lon="3.5885471"><ele>362.0</ele><time>2026-04-19T14:43:46.199Z</time></trkpt><trkpt lat="43.9836099" lon="3.5884487"><ele>365.0</ele><time>2026-04-19T14:43:47.198Z</time></trkpt><trkpt lat="43.9836844" lon="3.5883337"><ele>368.0</ele><time>2026-04-19T14:43:48.198Z</time></trkpt><trkpt lat="43.983774" lon="3.5881883"><ele>368.0</ele><time>2026-04-19T14:43:49.198Z</time></trkpt><trkpt lat="43.9838675" lon="3.5880343"><ele>368.0</ele><time>2026-04-19T14:43:50.199Z</time></trkpt><trkpt lat="43.9839739" lon="3.5878757"><ele>368.0</ele><time>2026-04-19T14:43:51.198Z</time></trkpt><trkpt lat="43.9840798" lon="3.5877147"><ele>365.25</ele><time>2026-04-19T14:43:52.198Z</time></trkpt><trkpt lat="43.9841869" lon="3.5875701"><ele>362.5</ele><time>2026-04-19T14:43:53.199Z</time></trkpt><trkpt lat="43.9843076" lon="3.5874701"><ele>359.75</ele><time>2026-04-19T14:43:54.198Z</time></trkpt><trkpt lat="43.9844365" lon="3.5874049"><ele>357.0</ele><time>2026-04-19T14:43:55.198Z</time></trkpt><trkpt lat="43.9845761" lon="3.5873688"><ele>357.0</ele><time>2026-04-19T14:43:56.199Z</time></trkpt><trkpt lat="43.9847224" lon="3.5873282"><ele>357.0</ele><time>2026-04-19T14:43:57.199Z</time></trkpt><trkpt lat="43.9849024" lon="3.5873209"><ele>357.0</ele><time>2026-04-19T14:43:58.198Z</time></trkpt><trkpt lat="43.9851064" lon="3.5873422"><ele>353.3333333333333</ele><time>2026-04-19T14:43:59.199Z</time></trkpt><trkpt lat="43.9852892" lon="3.5873809"><ele>349.66666666666663</ele><time>2026-04-19T14:44:00.199Z</time></trkpt><trkpt lat="43.9854671" lon="3.5874382"><ele>346.0</ele><time>2026-04-19T14:44:01.198Z</time></trkpt><trkpt lat="43.9856495" lon="3.5875072"><ele>346.0</ele><time>2026-04-19T14:44:02.198Z</time></trkpt><trkpt lat="43.9858151" lon="3.5875883"><ele>346.0</ele><time>2026-04-19T14:44:03.198Z</time></trkpt><trkpt lat="43.9859505" lon="3.5876759"><ele>346.0</ele><time>2026-04-19T14:44:04.198Z</time></trkpt><trkpt lat="43.98606" lon="3.5877799"><ele>343.75</ele><time>2026-04-19T14:44:05.199Z</time></trkpt><trkpt lat="43.9861462" lon="3.5879105"><ele>341.5</ele><time>2026-04-19T14:44:06.198Z</time></trkpt><trkpt lat="43.9861985" lon="3.5880658"><ele>339.25</ele><time>2026-04-19T14:44:07.198Z</time></trkpt><trkpt lat="43.986235" lon="3.5882679"><ele>337.0</ele><time>2026-04-19T14:44:08.199Z</time></trkpt><trkpt lat="43.9862416" lon="3.5885143"><ele>343.3333333333333</ele><time>2026-04-19T14:44:09.198Z</time></trkpt><trkpt lat="43.9862656" lon="3.5887481"><ele>349.6666666666667</ele><time>2026-04-19T14:44:10.198Z</time></trkpt><trkpt lat="43.9863202" lon="3.5889714"><ele>356.0</ele><time>2026-04-19T14:44:11.198Z</time></trkpt><trkpt lat="43.9863995" lon="3.5891531"><ele>356.0</ele><time>2026-04-19T14:44:12.198Z</time></trkpt><trkpt lat="43.9865104" lon="3.5893039"><ele>356.0</ele><time>2026-04-19T14:44:13.198Z</time></trkpt><trkpt lat="43.9866383" lon="3.5893889"><ele>356.0</ele><time>2026-04-19T14:44:14.198Z</time></trkpt><trkpt lat="43.9868074" lon="3.5894569"><ele>360.6666666666667</ele><time>2026-04-19T14:44:15.198Z</time></trkpt><trkpt lat="43.9869822" lon="3.5895189"><ele>365.3333333333333</ele><time>2026-04-19T14:44:16.199Z</time></trkpt><trkpt lat="43.9871299" lon="3.5895993"><ele>370.0</ele><time>2026-04-19T14:44:17.198Z</time></trkpt><trkpt lat="43.9872527" lon="3.5897316"><ele>370.0</ele><time>2026-04-19T14:44:18.198Z</time></trkpt><trkpt lat="43.9873863" lon="3.5899078"><ele>370.0</ele><time>2026-04-19T14:44:19.199Z</time></trkpt><trkpt lat="43.9875184" lon="3.5900748"><ele>370.0</ele><time>2026-04-19T14:44:20.199Z</time></trkpt><trkpt lat="43.9876847" lon="3.5901735"><ele>366.66666666666663</ele><time>2026-04-19T14:44:21.199Z</time></trkpt><trkpt lat="43.987851" lon="3.5902108"><ele>363.3333333333333</ele><time>2026-04-19T14:44:22.198Z</time></trkpt><trkpt lat="43.988049" lon="3.5902366"><ele>360.0</ele><time>2026-04-19T14:44:23.198Z</time></trkpt><trkpt lat="43.9882336" lon="3.5903276"><ele>364.6666666666667</ele><time>2026-04-19T14:44:24.198Z</time></trkpt><trkpt lat="43.9884078" lon="3.5904588"><ele>369.33333333333337</ele><time>2026-04-19T14:44:25.199Z</time></trkpt><trkpt lat="43.9885859" lon="3.5905964"><ele>374.0</ele><time>2026-04-19T14:44:26.198Z</time></trkpt><trkpt lat="43.9887746" lon="3.5907081"><ele>374.0</ele><time>2026-04-19T14:44:27.199Z</time></trkpt><trkpt lat="43.9889789" lon="3.5908091"><ele>374.0</ele><time>2026-04-19T14:44:28.199Z</time></trkpt><trkpt lat="43.9891605" lon="3.5909381"><ele>374.0</ele><time>2026-04-19T14:44:29.199Z</time></trkpt><trkpt lat="43.9893288" lon="3.591089"><ele>377.33333333333337</ele><time>2026-04-19T14:44:30.199Z</time></trkpt><trkpt lat="43.9894922" lon="3.5912467"><ele>380.6666666666667</ele><time>2026-04-19T14:44:31.198Z</time></trkpt><trkpt lat="43.9896521" lon="3.5913535"><ele>384.0</ele><time>2026-04-19T14:44:32.198Z</time></trkpt><trkpt lat="43.9898102" lon="3.5914238"><ele>384.0</ele><time>2026-04-19T14:44:33.198Z</time></trkpt><trkpt lat="43.9899717" lon="3.5914711"><ele>384.0</ele><time>2026-04-19T14:44:34.199Z</time></trkpt><trkpt lat="43.9901634" lon="3.591496"><ele>384.0</ele><time>2026-04-19T14:44:35.199Z</time></trkpt><trkpt lat="43.9903652" lon="3.5915179"><ele>387.5</ele><time>2026-04-19T14:44:36.199Z</time></trkpt><trkpt lat="43.9905899" lon="3.5915401"><ele>391.0</ele><time>2026-04-19T14:44:37.198Z</time></trkpt><trkpt lat="43.9908328" lon="3.5915568"><ele>394.0</ele><time>2026-04-19T14:44:38.199Z</time></trkpt><trkpt lat="43.9910743" lon="3.5915731"><ele>397.0</ele><time>2026-04-19T14:44:39.199Z</time></trkpt><trkpt lat="43.9913125" lon="3.5915925"><ele>397.0</ele><time>2026-04-19T14:44:40.198Z</time></trkpt><trkpt lat="43.991542" lon="3.591608"><ele>397.0</ele><time>2026-04-19T14:44:41.198Z</time></trkpt><trkpt lat="43.9917554" lon="3.5916266"><ele>397.0</ele><time>2026-04-19T14:44:42.198Z</time></trkpt><trkpt lat="43.9919611" lon="3.5916702"><ele>396.33333333333337</ele><time>2026-04-19T14:44:43.199Z</time></trkpt><trkpt lat="43.9921644" lon="3.5917457"><ele>395.66666666666663</ele><time>2026-04-19T14:44:44.199Z</time></trkpt><trkpt lat="43.9923799" lon="3.5918295"><ele>395.0</ele><time>2026-04-19T14:44:45.198Z</time></trkpt><trkpt lat="43.9926053" lon="3.5919095"><ele>394.5</ele><time>2026-04-19T14:44:46.198Z</time></trkpt><trkpt lat="43.992841" lon="3.5919447"><ele>394.0</ele><time>2026-04-19T14:44:47.198Z</time></trkpt><trkpt lat="43.9930898" lon="3.5919604"><ele>394.0</ele><time>2026-04-19T14:44:48.198Z</time></trkpt><trkpt lat="43.9933404" lon="3.5919789"><ele>394.0</ele><time>2026-04-19T14:44:49.198Z</time></trkpt><trkpt lat="43.9935776" lon="3.5919971"><ele>399.6666666666667</ele><time>2026-04-19T14:44:50.198Z</time></trkpt><trkpt lat="43.9937937" lon="3.5920089"><ele>405.33333333333337</ele><time>2026-04-19T14:44:51.198Z</time></trkpt><trkpt lat="43.9939938" lon="3.5920135"><ele>411.0</ele><time>2026-04-19T14:44:52.198Z</time></trkpt><trkpt lat="43.9941702" lon="3.5920193"><ele>411.25</ele><time>2026-04-19T14:44:53.197Z</time></trkpt><trkpt lat="43.9943333" lon="3.5920267"><ele>411.5</ele><time>2026-04-19T14:44:54.197Z</time></trkpt><trkpt lat="43.9944604" lon="3.592019"><ele>411.75</ele><time>2026-04-19T14:44:55.197Z</time></trkpt><trkpt lat="43.9945653" lon="3.5920664"><ele>412.0</ele><time>2026-04-19T14:44:56.197Z</time></trkpt><trkpt lat="43.994642" lon="3.5921241"><ele>412.0</ele><time>2026-04-19T14:44:57.197Z</time></trkpt><trkpt lat="43.9947019" lon="3.5921643"><ele>412.0</ele><time>2026-04-19T14:44:58.198Z</time></trkpt><trkpt lat="43.994819" lon="3.5921052"><ele>412.0</ele><time>2026-04-19T14:45:00.197Z</time></trkpt><trkpt lat="43.9948851" lon="3.5920277"><ele>412.0</ele><time>2026-04-19T14:45:01.198Z</time></trkpt><trkpt lat="43.9949735" lon="3.5919166"><ele>412.0</ele><time>2026-04-19T14:45:02.197Z</time></trkpt><trkpt lat="43.9950827" lon="3.5917936"><ele>412.0</ele><time>2026-04-19T14:45:03.198Z</time></trkpt><trkpt lat="43.9952147" lon="3.5916665"><ele>412.0</ele><time>2026-04-19T14:45:04.197Z</time></trkpt><trkpt lat="43.9953533" lon="3.5915395"><ele>412.0</ele><time>2026-04-19T14:45:05.198Z</time></trkpt><trkpt lat="43.9954906" lon="3.5914171"><ele>412.0</ele><time>2026-04-19T14:45:06.198Z</time></trkpt><trkpt lat="43.9956302" lon="3.5913091"><ele>412.0</ele><time>2026-04-19T14:45:07.198Z</time></trkpt><trkpt lat="43.9957705" lon="3.5912053"><ele>412.0</ele><time>2026-04-19T14:45:08.197Z</time></trkpt><trkpt lat="43.9959026" lon="3.5911037"><ele>409.25</ele><time>2026-04-19T14:45:09.198Z</time></trkpt><trkpt lat="43.9960374" lon="3.5910035"><ele>406.5</ele><time>2026-04-19T14:45:10.197Z</time></trkpt><trkpt lat="43.996159" lon="3.590903"><ele>403.75</ele><time>2026-04-19T14:45:11.197Z</time></trkpt><trkpt lat="43.996263" lon="3.5907853"><ele>401.0</ele><time>2026-04-19T14:45:12.198Z</time></trkpt><trkpt lat="43.9963588" lon="3.5906632"><ele>401.0</ele><time>2026-04-19T14:45:13.198Z</time></trkpt><trkpt lat="43.9964575" lon="3.5905511"><ele>401.0</ele><time>2026-04-19T14:45:14.197Z</time></trkpt><trkpt lat="43.996553" lon="3.5904562"><ele>401.0</ele><time>2026-04-19T14:45:15.197Z</time></trkpt><trkpt lat="43.9966548" lon="3.5903959"><ele>401.0</ele><time>2026-04-19T14:45:16.198Z</time></trkpt><trkpt lat="43.9967516" lon="3.5903467"><ele>397.0</ele><time>2026-04-19T14:45:17.197Z</time></trkpt><trkpt lat="43.9968501" lon="3.5902954"><ele>393.0</ele><time>2026-04-19T14:45:18.197Z</time></trkpt><trkpt lat="43.9969518" lon="3.5902456"><ele>389.0</ele><time>2026-04-19T14:45:19.198Z</time></trkpt><trkpt lat="43.9970628" lon="3.5901912"><ele>385.0</ele><time>2026-04-19T14:45:20.198Z</time></trkpt><trkpt lat="43.9971718" lon="3.5901404"><ele>381.0</ele><time>2026-04-19T14:45:21.198Z</time></trkpt><trkpt lat="43.997285" lon="3.5900975"><ele>381.0</ele><time>2026-04-19T14:45:22.197Z</time></trkpt><trkpt lat="43.9973879" lon="3.5900518"><ele>381.0</ele><time>2026-04-19T14:45:23.198Z</time></trkpt><trkpt lat="43.9974723" lon="3.5899705"><ele>381.0</ele><time>2026-04-19T14:45:24.197Z</time></trkpt><trkpt lat="43.9975584" lon="3.5898788"><ele>381.0</ele><time>2026-04-19T14:45:25.197Z</time></trkpt><trkpt lat="43.9976337" lon="3.5897753"><ele>381.0</ele><time>2026-04-19T14:45:26.197Z</time></trkpt><trkpt lat="43.9977054" lon="3.5896679"><ele>379.0</ele><time>2026-04-19T14:45:27.197Z</time></trkpt><trkpt lat="43.9977734" lon="3.5895806"><ele>377.0</ele><time>2026-04-19T14:45:28.197Z</time></trkpt><trkpt lat="43.9978445" lon="3.5894839"><ele>375.0</ele><time>2026-04-19T14:45:29.197Z</time></trkpt><trkpt lat="43.9979368" lon="3.5894081"><ele>373.0</ele><time>2026-04-19T14:45:30.197Z</time></trkpt><trkpt lat="43.9980389" lon="3.5893344"><ele>371.0</ele><time>2026-04-19T14:45:31.198Z</time></trkpt><trkpt lat="43.9981596" lon="3.5892701"><ele>371.0</ele><time>2026-04-19T14:45:32.197Z</time></trkpt><trkpt lat="43.9983309" lon="3.5892226"><ele>371.0</ele><time>2026-04-19T14:45:33.198Z</time></trkpt><trkpt lat="43.9985484" lon="3.5891425"><ele>371.0</ele><time>2026-04-19T14:45:34.197Z</time></trkpt><trkpt lat="43.9987745" lon="3.589063"><ele>373.0</ele><time>2026-04-19T14:45:35.198Z</time></trkpt><trkpt lat="43.9989874" lon="3.5890101"><ele>375.0</ele><time>2026-04-19T14:45:36.198Z</time></trkpt><trkpt lat="43.9991847" lon="3.5889777"><ele>377.0</ele><time>2026-04-19T14:45:37.197Z</time></trkpt><trkpt lat="43.9993662" lon="3.5889942"><ele>377.0</ele><time>2026-04-19T14:45:38.198Z</time></trkpt><trkpt lat="43.9995134" lon="3.5890682"><ele>377.0</ele><time>2026-04-19T14:45:39.197Z</time></trkpt><trkpt lat="43.9996626" lon="3.5891559"><ele>377.0</ele><time>2026-04-19T14:45:40.197Z</time></trkpt><trkpt lat="43.9998527" lon="3.5892443"><ele>377.0</ele><time>2026-04-19T14:45:41.198Z</time></trkpt><trkpt lat="44.0000485" lon="3.5893168"><ele>377.0</ele><time>2026-04-19T14:45:42.197Z</time></trkpt><trkpt lat="44.0002275" lon="3.5893562"><ele>377.0</ele><time>2026-04-19T14:45:43.197Z</time></trkpt><trkpt lat="44.0003856" lon="3.5894073"><ele>385.33333333333337</ele><time>2026-04-19T14:45:44.197Z</time></trkpt><trkpt lat="44.0005224" lon="3.5895135"><ele>393.6666666666667</ele><time>2026-04-19T14:45:45.197Z</time></trkpt><trkpt lat="44.0006294" lon="3.5896816"><ele>402.0</ele><time>2026-04-19T14:45:46.197Z</time></trkpt><trkpt lat="44.000747" lon="3.5898651"><ele>397.0</ele><time>2026-04-19T14:45:47.197Z</time></trkpt><trkpt lat="44.0008668" lon="3.5900435"><ele>392.0</ele><time>2026-04-19T14:45:48.198Z</time></trkpt><trkpt lat="44.000975" lon="3.5901873"><ele>387.0</ele><time>2026-04-19T14:45:49.198Z</time></trkpt><trkpt lat="44.0010832" lon="3.5902819"><ele>387.0</ele><time>2026-04-19T14:45:50.198Z</time></trkpt><trkpt lat="44.0012104" lon="3.5903024"><ele>387.0</ele><time>2026-04-19T14:45:51.197Z</time></trkpt><trkpt lat="44.0013537" lon="3.5902883"><ele>387.0</ele><time>2026-04-19T14:45:52.197Z</time></trkpt><trkpt lat="44.0015032" lon="3.5902684"><ele>387.0</ele><time>2026-04-19T14:45:53.198Z</time></trkpt><trkpt lat="44.0016513" lon="3.5903075"><ele>393.66666666666663</ele><time>2026-04-19T14:45:54.197Z</time></trkpt><trkpt lat="44.0018376" lon="3.5904049"><ele>400.3333333333333</ele><time>2026-04-19T14:45:55.197Z</time></trkpt><trkpt lat="44.0020279" lon="3.5905347"><ele>407.0</ele><time>2026-04-19T14:45:56.197Z</time></trkpt><trkpt lat="44.0022341" lon="3.5906495"><ele>407.0</ele><time>2026-04-19T14:45:57.197Z</time></trkpt><trkpt lat="44.0024531" lon="3.5907859"><ele>407.0</ele><time>2026-04-19T14:45:58.197Z</time></trkpt><trkpt lat="44.002673" lon="3.5909231"><ele>403.3333333333333</ele><time>2026-04-19T14:45:59.197Z</time></trkpt><trkpt lat="44.0028592" lon="3.5910403"><ele>399.66666666666663</ele><time>2026-04-19T14:46:00.198Z</time></trkpt><trkpt lat="44.0030084" lon="3.5911536"><ele>396.0</ele><time>2026-04-19T14:46:01.198Z</time></trkpt><trkpt lat="44.0031064" lon="3.59127"><ele>398.5</ele><time>2026-04-19T14:46:02.197Z</time></trkpt><trkpt lat="44.0031486" lon="3.5914217"><ele>401.0</ele><time>2026-04-19T14:46:03.198Z</time></trkpt><trkpt lat="44.0032017" lon="3.5915702"><ele>403.5</ele><time>2026-04-19T14:46:04.198Z</time></trkpt><trkpt lat="44.003261" lon="3.5916893"><ele>406.0</ele><time>2026-04-19T14:46:05.198Z</time></trkpt><trkpt lat="44.0033594" lon="3.5917597"><ele>406.0</ele><time>2026-04-19T14:46:06.197Z</time></trkpt><trkpt lat="44.0034798" lon="3.5917999"><ele>406.0</ele><time>2026-04-19T14:46:07.198Z</time></trkpt><trkpt lat="44.0036105" lon="3.5918146"><ele>406.0</ele><time>2026-04-19T14:46:08.198Z</time></trkpt><trkpt lat="44.0037736" lon="3.5918507"><ele>406.0</ele><time>2026-04-19T14:46:09.197Z</time></trkpt><trkpt lat="44.003918" lon="3.5919245"><ele>413.0</ele><time>2026-04-19T14:46:10.197Z</time></trkpt><trkpt lat="44.004059" lon="3.5920297"><ele>420.0</ele><time>2026-04-19T14:46:11.197Z</time></trkpt><trkpt lat="44.004184" lon="3.5921577"><ele>427.0</ele><time>2026-04-19T14:46:12.198Z</time></trkpt><trkpt lat="44.0043051" lon="3.5922685"><ele>427.0</ele><time>2026-04-19T14:46:13.197Z</time></trkpt><trkpt lat="44.0044225" lon="3.5923057"><ele>427.0</ele><time>2026-04-19T14:46:14.197Z</time></trkpt><trkpt lat="44.0045563" lon="3.5922332"><ele>427.0</ele><time>2026-04-19T14:46:15.197Z</time></trkpt><trkpt lat="44.0047077" lon="3.5921554"><ele>427.0</ele><time>2026-04-19T14:46:16.197Z</time></trkpt><trkpt lat="44.004866" lon="3.5921665"><ele>426.25</ele><time>2026-04-19T14:46:17.198Z</time></trkpt><trkpt lat="44.0050028" lon="3.5922414"><ele>425.5</ele><time>2026-04-19T14:46:18.197Z</time></trkpt><trkpt lat="44.0051533" lon="3.5922964"><ele>424.75</ele><time>2026-04-19T14:46:19.197Z</time></trkpt><trkpt lat="44.0052827" lon="3.5922517"><ele>424.0</ele><time>2026-04-19T14:46:20.197Z</time></trkpt><trkpt lat="44.0053987" lon="3.592122"><ele>424.0</ele><time>2026-04-19T14:46:21.197Z</time></trkpt><trkpt lat="44.0055316" lon="3.5920638"><ele>424.0</ele><time>2026-04-19T14:46:22.198Z</time></trkpt><trkpt lat="44.0056617" lon="3.5920637"><ele>424.0</ele><time>2026-04-19T14:46:23.197Z</time></trkpt><trkpt lat="44.0057859" lon="3.592153"><ele>424.0</ele><time>2026-04-19T14:46:24.197Z</time></trkpt><trkpt lat="44.0058781" lon="3.5923056"><ele>424.25</ele><time>2026-04-19T14:46:25.197Z</time></trkpt><trkpt lat="44.0059293" lon="3.5924935"><ele>424.5</ele><time>2026-04-19T14:46:26.197Z</time></trkpt><trkpt lat="44.0059478" lon="3.5926798"><ele>424.75</ele><time>2026-04-19T14:46:27.197Z</time></trkpt><trkpt lat="44.0059219" lon="3.5929031"><ele>425.0</ele><time>2026-04-19T14:46:28.197Z</time></trkpt><trkpt lat="44.0058667" lon="3.5931828"><ele>434.0</ele><time>2026-04-19T14:46:29.198Z</time></trkpt><trkpt lat="44.0058223" lon="3.5934848"><ele>443.0</ele><time>2026-04-19T14:46:30.198Z</time></trkpt><trkpt lat="44.0057782" lon="3.5937891"><ele>452.0</ele><time>2026-04-19T14:46:31.197Z</time></trkpt><trkpt lat="44.0057985" lon="3.5940975"><ele>448.0</ele><time>2026-04-19T14:46:32.198Z</time></trkpt><trkpt lat="44.0058642" lon="3.5943987"><ele>444.0</ele><time>2026-04-19T14:46:33.197Z</time></trkpt><trkpt lat="44.0059591" lon="3.594704"><ele>444.0</ele><time>2026-04-19T14:46:34.197Z</time></trkpt><trkpt lat="44.0060842" lon="3.5949922"><ele>444.0</ele><time>2026-04-19T14:46:35.197Z</time></trkpt><trkpt lat="44.006195" lon="3.5952574"><ele>450.33333333333337</ele><time>2026-04-19T14:46:36.198Z</time></trkpt><trkpt lat="44.0063126" lon="3.5954599"><ele>456.6666666666667</ele><time>2026-04-19T14:46:37.197Z</time></trkpt><trkpt lat="44.0064372" lon="3.5955852"><ele>463.0</ele><time>2026-04-19T14:46:38.198Z</time></trkpt><trkpt lat="44.0065897" lon="3.5956239"><ele>457.0</ele><time>2026-04-19T14:46:39.197Z</time></trkpt><trkpt lat="44.0067075" lon="3.5956133"><ele>451.0</ele><time>2026-04-19T14:46:40.198Z</time></trkpt><trkpt lat="44.0068254" lon="3.5955196"><ele>445.0</ele><time>2026-04-19T14:46:41.198Z</time></trkpt><trkpt lat="44.0069141" lon="3.5953595"><ele>439.0</ele><time>2026-04-19T14:46:42.197Z</time></trkpt><trkpt lat="44.0069892" lon="3.5951454"><ele>434.33333333333337</ele><time>2026-04-19T14:46:43.198Z</time></trkpt><trkpt lat="44.0070405" lon="3.5948821"><ele>429.66666666666663</ele><time>2026-04-19T14:46:44.197Z</time></trkpt><trkpt lat="44.007065" lon="3.5945765"><ele>425.0</ele><time>2026-04-19T14:46:45.198Z</time></trkpt><trkpt lat="44.0070823" lon="3.594299"><ele>421.66666666666663</ele><time>2026-04-19T14:46:46.198Z</time></trkpt><trkpt lat="44.0071221" lon="3.5940759"><ele>418.33333333333337</ele><time>2026-04-19T14:46:47.197Z</time></trkpt><trkpt lat="44.0071945" lon="3.5938927"><ele>415.0</ele><time>2026-04-19T14:46:48.197Z</time></trkpt><trkpt lat="44.0073037" lon="3.59377"><ele>415.0</ele><time>2026-04-19T14:46:49.197Z</time></trkpt><trkpt lat="44.0074361" lon="3.5937205"><ele>415.0</ele><time>2026-04-19T14:46:50.198Z</time></trkpt><trkpt lat="44.0076014" lon="3.5937233"><ele>415.0</ele><time>2026-04-19T14:46:51.198Z</time></trkpt><trkpt lat="44.0077782" lon="3.5938059"><ele>423.6666666666667</ele><time>2026-04-19T14:46:52.197Z</time></trkpt><trkpt lat="44.0079656" lon="3.5939063"><ele>432.33333333333337</ele><time>2026-04-19T14:46:53.197Z</time></trkpt><trkpt lat="44.00819" lon="3.5940221"><ele>441.0</ele><time>2026-04-19T14:46:54.197Z</time></trkpt><trkpt lat="44.0084589" lon="3.5941421"><ele>441.0</ele><time>2026-04-19T14:46:55.198Z</time></trkpt><trkpt lat="44.008729" lon="3.5942499"><ele>441.0</ele><time>2026-04-19T14:46:56.197Z</time></trkpt><trkpt lat="44.0089995" lon="3.5943471"><ele>439.0</ele><time>2026-04-19T14:46:57.198Z</time></trkpt><trkpt lat="44.0092417" lon="3.594418"><ele>437.0</ele><time>2026-04-19T14:46:58.197Z</time></trkpt><trkpt lat="44.009469" lon="3.5944596"><ele>437.0</ele><time>2026-04-19T14:46:59.198Z</time></trkpt><trkpt lat="44.0096639" lon="3.594471"><ele>437.0</ele><time>2026-04-19T14:47:00.197Z</time></trkpt><trkpt lat="44.0098408" lon="3.5945049"><ele>437.0</ele><time>2026-04-19T14:47:01.198Z</time></trkpt><trkpt lat="44.0099658" lon="3.5945968"><ele>445.0</ele><time>2026-04-19T14:47:02.197Z</time></trkpt><trkpt lat="44.0100761" lon="3.5947601"><ele>453.0</ele><time>2026-04-19T14:47:03.197Z</time></trkpt><trkpt lat="44.0101563" lon="3.5949953"><ele>461.0</ele><time>2026-04-19T14:47:04.198Z</time></trkpt><trkpt lat="44.0102473" lon="3.5952381"><ele>468.5</ele><time>2026-04-19T14:47:05.198Z</time></trkpt><trkpt lat="44.010351" lon="3.5954517"><ele>476.0</ele><time>2026-04-19T14:47:06.197Z</time></trkpt><trkpt lat="44.0104519" lon="3.5955858"><ele>483.5</ele><time>2026-04-19T14:47:07.198Z</time></trkpt><trkpt lat="44.0105763" lon="3.5955901"><ele>491.0</ele><time>2026-04-19T14:47:08.197Z</time></trkpt><trkpt lat="44.0106899" lon="3.5955482"><ele>491.0</ele><time>2026-04-19T14:47:09.198Z</time></trkpt><trkpt lat="44.0107808" lon="3.5954477"><ele>491.0</ele><time>2026-04-19T14:47:10.198Z</time></trkpt><trkpt lat="44.0108479" lon="3.595275"><ele>491.0</ele><time>2026-04-19T14:47:11.197Z</time></trkpt><trkpt lat="44.0108999" lon="3.5950911"><ele>491.0</ele><time>2026-04-19T14:47:12.197Z</time></trkpt><trkpt lat="44.0109684" lon="3.5948974"><ele>479.3333333333333</ele><time>2026-04-19T14:47:13.197Z</time></trkpt><trkpt lat="44.0110719" lon="3.5947176"><ele>467.66666666666663</ele><time>2026-04-19T14:47:14.198Z</time></trkpt><trkpt lat="44.0111953" lon="3.5945788"><ele>456.0</ele><time>2026-04-19T14:47:15.197Z</time></trkpt><trkpt lat="44.0113351" lon="3.5944981"><ele>449.0</ele><time>2026-04-19T14:47:16.197Z</time></trkpt><trkpt lat="44.0114857" lon="3.5944781"><ele>442.0</ele><time>2026-04-19T14:47:17.198Z</time></trkpt><trkpt lat="44.0116645" lon="3.5945348"><ele>435.0</ele><time>2026-04-19T14:47:18.198Z</time></trkpt><trkpt lat="44.0118678" lon="3.5946427"><ele>458.0</ele><time>2026-04-19T14:47:19.198Z</time></trkpt><trkpt lat="44.0120889" lon="3.5947419"><ele>481.0</ele><time>2026-04-19T14:47:20.197Z</time></trkpt><trkpt lat="44.0123186" lon="3.5948581"><ele>476.0</ele><time>2026-04-19T14:47:21.198Z</time></trkpt><trkpt lat="44.0125545" lon="3.5949987"><ele>471.0</ele><time>2026-04-19T14:47:22.198Z</time></trkpt><trkpt lat="44.0127682" lon="3.5951603"><ele>487.0</ele><time>2026-04-19T14:47:23.197Z</time></trkpt><trkpt lat="44.0129679" lon="3.5953756"><ele>503.0</ele><time>2026-04-19T14:47:24.198Z</time></trkpt><trkpt lat="44.0131428" lon="3.5956018"><ele>503.0</ele><time>2026-04-19T14:47:25.198Z</time></trkpt><trkpt lat="44.0132873" lon="3.5958079"><ele>503.0</ele><time>2026-04-19T14:47:26.197Z</time></trkpt><trkpt lat="44.0134339" lon="3.5959857"><ele>503.0</ele><time>2026-04-19T14:47:27.197Z</time></trkpt><trkpt lat="44.0135958" lon="3.5961452"><ele>505.0</ele><time>2026-04-19T14:47:28.197Z</time></trkpt><trkpt lat="44.0137747" lon="3.5962356"><ele>507.0</ele><time>2026-04-19T14:47:29.197Z</time></trkpt><trkpt lat="44.0138902" lon="3.5963632"><ele>509.0</ele><time>2026-04-19T14:47:30.197Z</time></trkpt><trkpt lat="44.0139808" lon="3.5965412"><ele>509.0</ele><time>2026-04-19T14:47:31.198Z</time></trkpt><trkpt lat="44.0140765" lon="3.5966808"><ele>509.0</ele><time>2026-04-19T14:47:32.198Z</time></trkpt><trkpt lat="44.0141901" lon="3.5967545"><ele>509.0</ele><time>2026-04-19T14:47:33.197Z</time></trkpt><trkpt lat="44.0143289" lon="3.5968031"><ele>509.0</ele><time>2026-04-19T14:47:34.198Z</time></trkpt><trkpt lat="44.0145101" lon="3.5968595"><ele>509.3333333333333</ele><time>2026-04-19T14:47:35.198Z</time></trkpt><trkpt lat="44.0146739" lon="3.59694"><ele>509.66666666666663</ele><time>2026-04-19T14:47:36.198Z</time></trkpt><trkpt lat="44.0147973" lon="3.5970607"><ele>510.0</ele><time>2026-04-19T14:47:37.198Z</time></trkpt><trkpt lat="44.0148945" lon="3.597186"><ele>510.0</ele><time>2026-04-19T14:47:38.197Z</time></trkpt><trkpt lat="44.0149608" lon="3.5973289"><ele>510.0</ele><time>2026-04-19T14:47:39.198Z</time></trkpt><trkpt lat="44.0149838" lon="3.5974967"><ele>510.0</ele><time>2026-04-19T14:47:40.197Z</time></trkpt><trkpt lat="44.0149679" lon="3.5976645"><ele>510.0</ele><time>2026-04-19T14:47:41.197Z</time></trkpt><trkpt lat="44.014933" lon="3.5978105"><ele>508.25</ele><time>2026-04-19T14:47:42.198Z</time></trkpt><trkpt lat="44.0149379" lon="3.597921"><ele>506.5</ele><time>2026-04-19T14:47:43.197Z</time></trkpt><trkpt lat="44.0149888" lon="3.5980204"><ele>504.75</ele><time>2026-04-19T14:47:44.198Z</time></trkpt><trkpt lat="44.01514" lon="3.5980738"><ele>503.0</ele><time>2026-04-19T14:47:45.197Z</time></trkpt><trkpt lat="44.0153372" lon="3.598082"><ele>503.0</ele><time>2026-04-19T14:47:46.198Z</time></trkpt><trkpt lat="44.0154994" lon="3.5981141"><ele>503.0</ele><time>2026-04-19T14:47:47.197Z</time></trkpt><trkpt lat="44.0156611" lon="3.5981757"><ele>503.0</ele><time>2026-04-19T14:47:48.197Z</time></trkpt><trkpt lat="44.0158083" lon="3.5982241"><ele>501.25</ele><time>2026-04-19T14:47:49.197Z</time></trkpt><trkpt lat="44.0159425" lon="3.5982059"><ele>499.5</ele><time>2026-04-19T14:47:50.197Z</time></trkpt><trkpt lat="44.0160661" lon="3.5981814"><ele>497.75</ele><time>2026-04-19T14:47:51.198Z</time></trkpt><trkpt lat="44.0161754" lon="3.5982033"><ele>496.0</ele><time>2026-04-19T14:47:52.197Z</time></trkpt><trkpt lat="44.0162711" lon="3.5982944"><ele>496.0</ele><time>2026-04-19T14:47:53.197Z</time></trkpt><trkpt lat="44.0163794" lon="3.5983817"><ele>496.0</ele><time>2026-04-19T14:47:54.197Z</time></trkpt><trkpt lat="44.0164921" lon="3.5983823"><ele>496.0</ele><time>2026-04-19T14:47:55.198Z</time></trkpt><trkpt lat="44.0166175" lon="3.5982949"><ele>496.0</ele><time>2026-04-19T14:47:56.197Z</time></trkpt><trkpt lat="44.0167822" lon="3.5981934"><ele>496.5</ele><time>2026-04-19T14:47:57.197Z</time></trkpt><trkpt lat="44.0169445" lon="3.5981121"><ele>497.0</ele><time>2026-04-19T14:47:58.197Z</time></trkpt><trkpt lat="44.0170864" lon="3.5980724"><ele>497.5</ele><time>2026-04-19T14:47:59.197Z</time></trkpt><trkpt lat="44.0171979" lon="3.5981638"><ele>498.0</ele><time>2026-04-19T14:48:00.197Z</time></trkpt><trkpt lat="44.0173165" lon="3.5983134"><ele>498.0</ele><time>2026-04-19T14:48:01.197Z</time></trkpt><trkpt lat="44.0174523" lon="3.5985364"><ele>498.0</ele><time>2026-04-19T14:48:02.198Z</time></trkpt><trkpt lat="44.0176033" lon="3.5987633"><ele>498.0</ele><time>2026-04-19T14:48:03.198Z</time></trkpt><trkpt lat="44.0177812" lon="3.5990113"><ele>510.5</ele><time>2026-04-19T14:48:04.198Z</time></trkpt><trkpt lat="44.0179846" lon="3.5992798"><ele>523.0</ele><time>2026-04-19T14:48:05.198Z</time></trkpt><trkpt lat="44.018182" lon="3.5995439"><ele>523.0</ele><time>2026-04-19T14:48:06.197Z</time></trkpt><trkpt lat="44.0183649" lon="3.5997784"><ele>523.0</ele><time>2026-04-19T14:48:07.197Z</time></trkpt><trkpt lat="44.0185419" lon="3.5999703"><ele>523.0</ele><time>2026-04-19T14:48:08.198Z</time></trkpt><trkpt lat="44.0187123" lon="3.6001567"><ele>523.0</ele><time>2026-04-19T14:48:09.198Z</time></trkpt><trkpt lat="44.018845" lon="3.6003326"><ele>523.0</ele><time>2026-04-19T14:48:10.197Z</time></trkpt><trkpt lat="44.0189305" lon="3.6005552"><ele>532.3333333333334</ele><time>2026-04-19T14:48:11.198Z</time></trkpt><trkpt lat="44.0189626" lon="3.6008085"><ele>541.6666666666666</ele><time>2026-04-19T14:48:12.197Z</time></trkpt><trkpt lat="44.0189707" lon="3.6010439"><ele>551.0</ele><time>2026-04-19T14:48:13.197Z</time></trkpt><trkpt lat="44.0189606" lon="3.6012532"><ele>546.5</ele><time>2026-04-19T14:48:14.197Z</time></trkpt><trkpt lat="44.0190116" lon="3.6014018"><ele>542.0</ele><time>2026-04-19T14:48:15.197Z</time></trkpt><trkpt lat="44.0191082" lon="3.601471"><ele>537.5</ele><time>2026-04-19T14:48:16.197Z</time></trkpt><trkpt lat="44.0192259" lon="3.6015042"><ele>533.0</ele><time>2026-04-19T14:48:17.197Z</time></trkpt><trkpt lat="44.0193426" lon="3.6014792"><ele>533.0</ele><time>2026-04-19T14:48:18.197Z</time></trkpt><trkpt lat="44.0194668" lon="3.601405"><ele>533.0</ele><time>2026-04-19T14:48:19.198Z</time></trkpt><trkpt lat="44.0196127" lon="3.6013013"><ele>533.0</ele><time>2026-04-19T14:48:20.197Z</time></trkpt><trkpt lat="44.0197363" lon="3.6011678"><ele>534.0</ele><time>2026-04-19T14:48:21.198Z</time></trkpt><trkpt lat="44.019839" lon="3.601145"><ele>535.0</ele><time>2026-04-19T14:48:22.197Z</time></trkpt><trkpt lat="44.0200021" lon="3.601224"><ele>536.0</ele><time>2026-04-19T14:48:23.198Z</time></trkpt><trkpt lat="44.0201796" lon="3.6013404"><ele>536.0</ele><time>2026-04-19T14:48:24.197Z</time></trkpt><trkpt lat="44.0203646" lon="3.601438"><ele>536.0</ele><time>2026-04-19T14:48:25.197Z</time></trkpt><trkpt lat="44.0205285" lon="3.6014848"><ele>536.0</ele><time>2026-04-19T14:48:26.197Z</time></trkpt><trkpt lat="44.020711" lon="3.6014843"><ele>536.3333333333333</ele><time>2026-04-19T14:48:27.197Z</time></trkpt><trkpt lat="44.020879" lon="3.601501"><ele>536.6666666666666</ele><time>2026-04-19T14:48:28.196Z</time></trkpt><trkpt lat="44.0210373" lon="3.6015965"><ele>537.0</ele><time>2026-04-19T14:48:29.197Z</time></trkpt><trkpt lat="44.0211894" lon="3.6017406"><ele>537.0</ele><time>2026-04-19T14:48:30.196Z</time></trkpt><trkpt lat="44.021349" lon="3.6019219"><ele>537.0</ele><time>2026-04-19T14:48:31.196Z</time></trkpt><trkpt lat="44.0214982" lon="3.6021045"><ele>537.0</ele><time>2026-04-19T14:48:32.196Z</time></trkpt><trkpt lat="44.0216384" lon="3.6022474"><ele>540.25</ele><time>2026-04-19T14:48:33.196Z</time></trkpt><trkpt lat="44.0217487" lon="3.6023158"><ele>543.5</ele><time>2026-04-19T14:48:34.197Z</time></trkpt><trkpt lat="44.0218647" lon="3.6023363"><ele>546.75</ele><time>2026-04-19T14:48:35.196Z</time></trkpt><trkpt lat="44.0219684" lon="3.6022779"><ele>550.0</ele><time>2026-04-19T14:48:36.197Z</time></trkpt><trkpt lat="44.0220375" lon="3.6021591"><ele>550.0</ele><time>2026-04-19T14:48:37.196Z</time></trkpt><trkpt lat="44.0220762" lon="3.6019997"><ele>550.0</ele><time>2026-04-19T14:48:38.196Z</time></trkpt><trkpt lat="44.0220523" lon="3.6018356"><ele>550.0</ele><time>2026-04-19T14:48:39.196Z</time></trkpt><trkpt lat="44.0219827" lon="3.6016499"><ele>550.0</ele><time>2026-04-19T14:48:40.196Z</time></trkpt><trkpt lat="44.0218799" lon="3.6014158"><ele>546.3333333333334</ele><time>2026-04-19T14:48:41.197Z</time></trkpt><trkpt lat="44.0217878" lon="3.6011384"><ele>542.6666666666666</ele><time>2026-04-19T14:48:42.197Z</time></trkpt><trkpt lat="44.0217436" lon="3.6008258"><ele>539.0</ele><time>2026-04-19T14:48:43.196Z</time></trkpt><trkpt lat="44.0216929" lon="3.6005119"><ele>525.0</ele><time>2026-04-19T14:48:44.197Z</time></trkpt><trkpt lat="44.0216065" lon="3.6001796"><ele>511.0</ele><time>2026-04-19T14:48:45.196Z</time></trkpt><trkpt lat="44.0214932" lon="3.5998456"><ele>511.0</ele><time>2026-04-19T14:48:46.196Z</time></trkpt><trkpt lat="44.0213637" lon="3.5995425"><ele>511.0</ele><time>2026-04-19T14:48:47.196Z</time></trkpt><trkpt lat="44.0212703" lon="3.5992794"><ele>515.6666666666667</ele><time>2026-04-19T14:48:48.197Z</time></trkpt><trkpt lat="44.021201" lon="3.5990348"><ele>520.3333333333334</ele><time>2026-04-19T14:48:49.196Z</time></trkpt><trkpt lat="44.021153" lon="3.5987985"><ele>525.0</ele><time>2026-04-19T14:48:50.197Z</time></trkpt><trkpt lat="44.0211199" lon="3.5985751"><ele>527.5</ele><time>2026-04-19T14:48:51.196Z</time></trkpt><trkpt lat="44.0211355" lon="3.5983669"><ele>530.0</ele><time>2026-04-19T14:48:52.196Z</time></trkpt><trkpt lat="44.0211806" lon="3.598175"><ele>532.5</ele><time>2026-04-19T14:48:53.196Z</time></trkpt><trkpt lat="44.0212438" lon="3.5980201"><ele>535.0</ele><time>2026-04-19T14:48:54.196Z</time></trkpt><trkpt lat="44.0213427" lon="3.5978919"><ele>534.6</ele><time>2026-04-19T14:48:55.196Z</time></trkpt><trkpt lat="44.0214587" lon="3.5978114"><ele>534.2</ele><time>2026-04-19T14:48:56.197Z</time></trkpt><trkpt lat="44.02156" lon="3.5977511"><ele>533.8</ele><time>2026-04-19T14:48:57.197Z</time></trkpt><trkpt lat="44.0216558" lon="3.5977055"><ele>533.4</ele><time>2026-04-19T14:48:58.197Z</time></trkpt><trkpt lat="44.0217436" lon="3.5976661"><ele>533.0</ele><time>2026-04-19T14:48:59.196Z</time></trkpt><trkpt lat="44.0218203" lon="3.5976301"><ele>536.8333333333333</ele><time>2026-04-19T14:49:00.196Z</time></trkpt><trkpt lat="44.0218996" lon="3.5975602"><ele>540.6666666666666</ele><time>2026-04-19T14:49:02.196Z</time></trkpt><trkpt lat="44.0219629" lon="3.5976054"><ele>544.5</ele><time>2026-04-19T14:49:06.197Z</time></trkpt><trkpt lat="44.0219292" lon="3.5977233"><ele>548.3333333333334</ele><time>2026-04-19T14:49:08.197Z</time></trkpt><trkpt lat="44.0218723" lon="3.597822"><ele>552.1666666666667</ele><time>2026-04-19T14:49:10.196Z</time></trkpt><trkpt lat="44.0217974" lon="3.5978915"><ele>556.0</ele><time>2026-04-19T14:49:12.196Z</time></trkpt><trkpt lat="44.021689" lon="3.5979364"><ele>552.5</ele><time>2026-04-19T14:49:14.197Z</time></trkpt><trkpt lat="44.0216263" lon="3.5979455"><ele>549.0</ele><time>2026-04-19T14:49:15.196Z</time></trkpt><trkpt lat="44.0215126" lon="3.5979822"><ele>545.5</ele><time>2026-04-19T14:49:17.197Z</time></trkpt><trkpt lat="44.0214621" lon="3.5980358"><ele>542.0</ele><time>2026-04-19T14:49:18.197Z</time></trkpt><trkpt lat="44.021419" lon="3.5981085"><ele>538.5</ele><time>2026-04-19T14:49:19.196Z</time></trkpt><trkpt lat="44.0213871" lon="3.5981919"><ele>535.0</ele><time>2026-04-19T14:49:20.196Z</time></trkpt><trkpt lat="44.0213569" lon="3.5982902"><ele>535.0</ele><time>2026-04-19T14:49:21.196Z</time></trkpt><trkpt lat="44.0213329" lon="3.598376"><ele>535.0</ele><time>2026-04-19T14:49:22.197Z</time></trkpt><trkpt lat="44.0213064" lon="3.5985164"><ele>535.0</ele><time>2026-04-19T14:49:24.197Z</time></trkpt><trkpt lat="44.0213259" lon="3.5986651"><ele>535.0</ele><time>2026-04-19T14:49:26.196Z</time></trkpt><trkpt lat="44.0213863" lon="3.5988377"><ele>535.0</ele><time>2026-04-19T14:49:28.197Z</time></trkpt><trkpt lat="44.0214331" lon="3.5989362"><ele>533.0</ele><time>2026-04-19T14:49:29.197Z</time></trkpt><trkpt lat="44.0214759" lon="3.5990411"><ele>531.0</ele><time>2026-04-19T14:49:30.196Z</time></trkpt><trkpt lat="44.0215239" lon="3.5991566"><ele>529.0</ele><time>2026-04-19T14:49:31.196Z</time></trkpt><trkpt lat="44.0215788" lon="3.5992771"><ele>527.0</ele><time>2026-04-19T14:49:32.196Z</time></trkpt><trkpt lat="44.021643" lon="3.599398"><ele>525.0</ele><time>2026-04-19T14:49:33.196Z</time></trkpt><trkpt lat="44.0216903" lon="3.5995064"><ele>529.8333333333334</ele><time>2026-04-19T14:49:34.197Z</time></trkpt><trkpt lat="44.0217229" lon="3.5995986"><ele>534.6666666666666</ele><time>2026-04-19T14:49:35.197Z</time></trkpt><trkpt lat="44.0217475" lon="3.599684"><ele>539.5</ele><time>2026-04-19T14:49:36.197Z</time></trkpt><trkpt lat="44.0218303" lon="3.599834"><ele>544.3333333333333</ele><time>2026-04-19T14:49:38.196Z</time></trkpt><trkpt lat="44.0218837" lon="3.5999139"><ele>549.1666666666666</ele><time>2026-04-19T14:49:39.197Z</time></trkpt><trkpt lat="44.0219458" lon="3.5999998"><ele>554.0</ele><time>2026-04-19T14:49:40.197Z</time></trkpt><trkpt lat="44.0220039" lon="3.6000801"><ele>554.0</ele><time>2026-04-19T14:49:41.196Z</time></trkpt><trkpt lat="44.0220514" lon="3.600166"><ele>554.0</ele><time>2026-04-19T14:49:42.196Z</time></trkpt><trkpt lat="44.0221016" lon="3.600259"><ele>554.0</ele><time>2026-04-19T14:49:43.196Z</time></trkpt><trkpt lat="44.0221525" lon="3.6003596"><ele>554.0</ele><time>2026-04-19T14:49:44.197Z</time></trkpt><trkpt lat="44.0221952" lon="3.6004642"><ele>554.0</ele><time>2026-04-19T14:49:45.196Z</time></trkpt><trkpt lat="44.0222343" lon="3.6005623"><ele>554.0</ele><time>2026-04-19T14:49:46.197Z</time></trkpt><trkpt lat="44.0222778" lon="3.6006633"><ele>556.3333333333333</ele><time>2026-04-19T14:49:47.196Z</time></trkpt><trkpt lat="44.0223176" lon="3.6007628"><ele>558.6666666666666</ele><time>2026-04-19T14:49:48.197Z</time></trkpt><trkpt lat="44.0223638" lon="3.6008527"><ele>561.0</ele><time>2026-04-19T14:49:49.196Z</time></trkpt><trkpt lat="44.0224074" lon="3.6009435"><ele>563.3333333333334</ele><time>2026-04-19T14:49:50.197Z</time></trkpt><trkpt lat="44.0224564" lon="3.6010303"><ele>565.6666666666667</ele><time>2026-04-19T14:49:51.196Z</time></trkpt><trkpt lat="44.0225026" lon="3.6011199"><ele>568.0</ele><time>2026-04-19T14:49:52.197Z</time></trkpt><trkpt lat="44.0225473" lon="3.6012051"><ele>568.0</ele><time>2026-04-19T14:49:53.197Z</time></trkpt><trkpt lat="44.0226044" lon="3.6012979"><ele>568.0</ele><time>2026-04-19T14:49:54.196Z</time></trkpt><trkpt lat="44.0226652" lon="3.6013987"><ele>568.0</ele><time>2026-04-19T14:49:55.197Z</time></trkpt><trkpt lat="44.0227243" lon="3.6014906"><ele>568.0</ele><time>2026-04-19T14:49:56.196Z</time></trkpt><trkpt lat="44.0227832" lon="3.6015965"><ele>568.0</ele><time>2026-04-19T14:49:57.197Z</time></trkpt><trkpt lat="44.0228447" lon="3.6017078"><ele>568.0</ele><time>2026-04-19T14:49:58.196Z</time></trkpt><trkpt lat="44.0229032" lon="3.6018104"><ele>568.0</ele><time>2026-04-19T14:49:59.196Z</time></trkpt><trkpt lat="44.0229525" lon="3.6019014"><ele>568.0</ele><time>2026-04-19T14:50:00.196Z</time></trkpt><trkpt lat="44.0229979" lon="3.6019827"><ele>568.0</ele><time>2026-04-19T14:50:01.197Z</time></trkpt><trkpt lat="44.023035" lon="3.6020684"><ele>568.0</ele><time>2026-04-19T14:50:02.196Z</time></trkpt><trkpt lat="44.0230703" lon="3.6021566"><ele>568.0</ele><time>2026-04-19T14:50:03.196Z</time></trkpt><trkpt lat="44.0231192" lon="3.6022501"><ele>566.1666666666667</ele><time>2026-04-19T14:50:04.196Z</time></trkpt><trkpt lat="44.0231747" lon="3.60236"><ele>564.3333333333334</ele><time>2026-04-19T14:50:05.197Z</time></trkpt><trkpt lat="44.0232291" lon="3.6024558"><ele>562.5</ele><time>2026-04-19T14:50:06.197Z</time></trkpt><trkpt lat="44.0232774" lon="3.6025337"><ele>560.6666666666666</ele><time>2026-04-19T14:50:07.197Z</time></trkpt><trkpt lat="44.0233095" lon="3.6026131"><ele>558.8333333333333</ele><time>2026-04-19T14:50:08.196Z</time></trkpt><trkpt lat="44.0233504" lon="3.6027012"><ele>557.0</ele><time>2026-04-19T14:50:09.196Z</time></trkpt><trkpt lat="44.023397" lon="3.6027982"><ele>561.8333333333333</ele><time>2026-04-19T14:50:10.196Z</time></trkpt><trkpt lat="44.0234429" lon="3.6029177"><ele>566.6666666666666</ele><time>2026-04-19T14:50:11.197Z</time></trkpt><trkpt lat="44.023484" lon="3.6030235"><ele>571.5</ele><time>2026-04-19T14:50:12.196Z</time></trkpt><trkpt lat="44.0235055" lon="3.603114"><ele>576.3333333333334</ele><time>2026-04-19T14:50:13.196Z</time></trkpt><trkpt lat="44.0235271" lon="3.6032147"><ele>581.1666666666667</ele><time>2026-04-19T14:50:14.196Z</time></trkpt><trkpt lat="44.023537" lon="3.6033185"><ele>586.0</ele><time>2026-04-19T14:50:15.196Z</time></trkpt><trkpt lat="44.0235536" lon="3.6034457"><ele>586.0</ele><time>2026-04-19T14:50:17.197Z</time></trkpt><trkpt lat="44.0235605" lon="3.6036041"><ele>586.0</ele><time>2026-04-19T14:50:19.196Z</time></trkpt><trkpt lat="44.0235815" lon="3.6037158"><ele>586.0</ele><time>2026-04-19T14:50:20.196Z</time></trkpt><trkpt lat="44.023603" lon="3.6038262"><ele>586.0</ele><time>2026-04-19T14:50:21.196Z</time></trkpt><trkpt lat="44.0236269" lon="3.603947"><ele>586.0</ele><time>2026-04-19T14:50:22.197Z</time></trkpt><trkpt lat="44.0236567" lon="3.604068"><ele>586.3333333333334</ele><time>2026-04-19T14:50:23.197Z</time></trkpt><trkpt lat="44.0236795" lon="3.6041717"><ele>586.6666666666667</ele><time>2026-04-19T14:50:24.196Z</time></trkpt><trkpt lat="44.0237045" lon="3.6042649"><ele>587.0</ele><time>2026-04-19T14:50:25.196Z</time></trkpt><trkpt lat="44.0237314" lon="3.604357"><ele>587.3333333333334</ele><time>2026-04-19T14:50:26.196Z</time></trkpt><trkpt lat="44.023755" lon="3.6044393"><ele>587.6666666666666</ele><time>2026-04-19T14:50:27.197Z</time></trkpt><trkpt lat="44.0237459" lon="3.6045779"><ele>588.0</ele><time>2026-04-19T14:50:29.197Z</time></trkpt><trkpt lat="44.0236735" lon="3.6046611"><ele>591.8333333333334</ele><time>2026-04-19T14:50:31.196Z</time></trkpt><trkpt lat="44.0235944" lon="3.6046388"><ele>595.6666666666666</ele><time>2026-04-19T14:50:33.196Z</time></trkpt><trkpt lat="44.0235224" lon="3.6045967"><ele>599.5</ele><time>2026-04-19T14:50:34.196Z</time></trkpt><trkpt lat="44.0234331" lon="3.6045645"><ele>603.3333333333333</ele><time>2026-04-19T14:50:35.196Z</time></trkpt><trkpt lat="44.0233421" lon="3.6045544"><ele>607.1666666666666</ele><time>2026-04-19T14:50:36.196Z</time></trkpt><trkpt lat="44.0232512" lon="3.6045558"><ele>611.0</ele><time>2026-04-19T14:50:37.196Z</time></trkpt><trkpt lat="44.02317" lon="3.6045517"><ele>611.8</ele><time>2026-04-19T14:50:38.196Z</time></trkpt><trkpt lat="44.0230953" lon="3.6045653"><ele>612.6</ele><time>2026-04-19T14:50:39.196Z</time></trkpt><trkpt lat="44.022991" lon="3.6046239"><ele>613.4</ele><time>2026-04-19T14:50:41.196Z</time></trkpt><trkpt lat="44.0229415" lon="3.6047465"><ele>614.2</ele><time>2026-04-19T14:50:43.196Z</time></trkpt><trkpt lat="44.0228782" lon="3.6048796"><ele>615.0</ele><time>2026-04-19T14:50:45.196Z</time></trkpt><trkpt lat="44.0227679" lon="3.6049389"><ele>615.0</ele><time>2026-04-19T14:50:47.196Z</time></trkpt><trkpt lat="44.0226765" lon="3.6049063"><ele>615.0</ele><time>2026-04-19T14:50:49.196Z</time></trkpt><trkpt lat="44.0225676" lon="3.6048597"><ele>615.0</ele><time>2026-04-19T14:50:51.196Z</time></trkpt><trkpt lat="44.0224917" lon="3.604813"><ele>615.0</ele><time>2026-04-19T14:50:52.197Z</time></trkpt><trkpt lat="44.0224302" lon="3.6047566"><ele>615.0</ele><time>2026-04-19T14:50:53.197Z</time></trkpt><trkpt lat="44.0223682" lon="3.6046699"><ele>614.0</ele><time>2026-04-19T14:50:54.197Z</time></trkpt><trkpt lat="44.0223038" lon="3.6045857"><ele>613.0</ele><time>2026-04-19T14:50:55.196Z</time></trkpt><trkpt lat="44.0222264" lon="3.6044975"><ele>612.0</ele><time>2026-04-19T14:50:56.197Z</time></trkpt><trkpt lat="44.0221484" lon="3.6044206"><ele>611.0</ele><time>2026-04-19T14:50:57.197Z</time></trkpt><trkpt lat="44.0220715" lon="3.6043514"><ele>610.0</ele><time>2026-04-19T14:50:58.196Z</time></trkpt><trkpt lat="44.0219998" lon="3.6043058"><ele>610.0</ele><time>2026-04-19T14:50:59.196Z</time></trkpt><trkpt lat="44.021921" lon="3.6042819"><ele>610.0</ele><time>2026-04-19T14:51:00.196Z</time></trkpt><trkpt lat="44.0218326" lon="3.6042607"><ele>610.0</ele><time>2026-04-19T14:51:01.196Z</time></trkpt><trkpt lat="44.0217497" lon="3.6042482"><ele>610.0</ele><time>2026-04-19T14:51:02.196Z</time></trkpt><trkpt lat="44.0216506" lon="3.6042363"><ele>610.0</ele><time>2026-04-19T14:51:03.196Z</time></trkpt><trkpt lat="44.0215602" lon="3.6041963"><ele>610.0</ele><time>2026-04-19T14:51:04.197Z</time></trkpt><trkpt lat="44.0214726" lon="3.6041526"><ele>612.8</ele><time>2026-04-19T14:51:05.196Z</time></trkpt><trkpt lat="44.0213771" lon="3.6041041"><ele>615.6</ele><time>2026-04-19T14:51:06.196Z</time></trkpt><trkpt lat="44.0212767" lon="3.6040508"><ele>618.4</ele><time>2026-04-19T14:51:07.196Z</time></trkpt><trkpt lat="44.0211613" lon="3.6039937"><ele>621.2</ele><time>2026-04-19T14:51:08.196Z</time></trkpt><trkpt lat="44.0210582" lon="3.6039315"><ele>624.0</ele><time>2026-04-19T14:51:09.196Z</time></trkpt><trkpt lat="44.0209707" lon="3.6038745"><ele>624.0</ele><time>2026-04-19T14:51:10.196Z</time></trkpt><trkpt lat="44.0208833" lon="3.6038211"><ele>624.0</ele><time>2026-04-19T14:51:11.197Z</time></trkpt><trkpt lat="44.020805" lon="3.6037671"><ele>624.0</ele><time>2026-04-19T14:51:12.197Z</time></trkpt><trkpt lat="44.0207225" lon="3.6037382"><ele>624.0</ele><time>2026-04-19T14:51:13.196Z</time></trkpt><trkpt lat="44.0206359" lon="3.6037291"><ele>624.0</ele><time>2026-04-19T14:51:14.196Z</time></trkpt><trkpt lat="44.0205523" lon="3.6037361"><ele>624.0</ele><time>2026-04-19T14:51:15.196Z</time></trkpt><trkpt lat="44.0204682" lon="3.6037662"><ele>622.2857142857143</ele><time>2026-04-19T14:51:16.196Z</time></trkpt><trkpt lat="44.0203922" lon="3.6037869"><ele>620.5714285714286</ele><time>2026-04-19T14:51:17.197Z</time></trkpt><trkpt lat="44.0203249" lon="3.6038211"><ele>618.8571428571429</ele><time>2026-04-19T14:51:19.196Z</time></trkpt><trkpt lat="44.0202902" lon="3.6039022"><ele>617.1428571428571</ele><time>2026-04-19T14:51:21.196Z</time></trkpt><trkpt lat="44.0203183" lon="3.6039966"><ele>615.4285714285714</ele><time>2026-04-19T14:51:24.196Z</time></trkpt><trkpt lat="44.020395" lon="3.6039887"><ele>613.7142857142857</ele><time>2026-04-19T14:51:27.196Z</time></trkpt><trkpt lat="44.020455" lon="3.6039485"><ele>612.0</ele><time>2026-04-19T14:51:29.197Z</time></trkpt><trkpt lat="44.0205434" lon="3.603944"><ele>612.0</ele><time>2026-04-19T14:51:31.197Z</time></trkpt><trkpt lat="44.0206465" lon="3.6039807"><ele>612.0</ele><time>2026-04-19T14:51:33.196Z</time></trkpt><trkpt lat="44.0207234" lon="3.6040047"><ele>612.0</ele><time>2026-04-19T14:51:35.196Z</time></trkpt><trkpt lat="44.0207892" lon="3.6040283"><ele>612.0</ele><time>2026-04-19T14:52:03.197Z</time></trkpt><trkpt lat="44.0208614" lon="3.6041054"><ele>612.0</ele><time>2026-04-19T14:52:05.196Z</time></trkpt><trkpt lat="44.0209149" lon="3.6041823"><ele>612.0</ele><time>2026-04-19T14:52:07.196Z</time></trkpt><trkpt lat="44.0210144" lon="3.6042562"><ele>614.4</ele><time>2026-04-19T14:52:09.196Z</time></trkpt><trkpt lat="44.0210739" lon="3.604299"><ele>616.8000000000001</ele><time>2026-04-19T14:52:10.196Z</time></trkpt><trkpt lat="44.0211821" lon="3.6043969"><ele>619.2</ele><time>2026-04-19T14:52:12.196Z</time></trkpt><trkpt lat="44.0212342" lon="3.6044489"><ele>621.6</ele><time>2026-04-19T14:52:13.196Z</time></trkpt><trkpt lat="44.0213212" lon="3.6045382"><ele>624.0</ele><time>2026-04-19T14:52:15.197Z</time></trkpt><trkpt lat="44.0214103" lon="3.6046388"><ele>626.4</ele><time>2026-04-19T14:52:17.197Z</time></trkpt><trkpt lat="44.0214692" lon="3.6046972"><ele>628.8</ele><time>2026-04-19T14:52:18.197Z</time></trkpt><trkpt lat="44.0215159" lon="3.6047567"><ele>631.2</ele><time>2026-04-19T14:52:19.196Z</time></trkpt><trkpt lat="44.0216141" lon="3.604872"><ele>633.6</ele><time>2026-04-19T14:52:21.196Z</time></trkpt><trkpt lat="44.0216941" lon="3.6049849"><ele>636.0</ele><time>2026-04-19T14:52:23.196Z</time></trkpt><trkpt lat="44.0217507" lon="3.6050983"><ele>636.0</ele><time>2026-04-19T14:52:25.197Z</time></trkpt><trkpt lat="44.0218054" lon="3.605227"><ele>636.0</ele><time>2026-04-19T14:52:27.196Z</time></trkpt><trkpt lat="44.0218695" lon="3.6053654"><ele>636.0</ele><time>2026-04-19T14:52:29.197Z</time></trkpt><trkpt lat="44.0219228" lon="3.6055168"><ele>636.0</ele><time>2026-04-19T14:52:31.197Z</time></trkpt><trkpt lat="44.0219512" lon="3.6056894"><ele>639.6</ele><time>2026-04-19T14:52:33.196Z</time></trkpt><trkpt lat="44.0219553" lon="3.6058382"><ele>643.2</ele><time>2026-04-19T14:52:35.197Z</time></trkpt><trkpt lat="44.022008" lon="3.605944"><ele>646.8000000000001</ele><time>2026-04-19T14:52:39.196Z</time></trkpt><trkpt lat="44.0220991" lon="3.6060014"><ele>650.4000000000001</ele><time>2026-04-19T14:52:41.195Z</time></trkpt><trkpt lat="44.0222012" lon="3.6061043"><ele>654.0</ele><time>2026-04-19T14:52:43.195Z</time></trkpt><trkpt lat="44.0222867" lon="3.6062392"><ele>657.0</ele><time>2026-04-19T14:52:45.196Z</time></trkpt><trkpt lat="44.022337" lon="3.6063259"><ele>660.0</ele><time>2026-04-19T14:52:46.195Z</time></trkpt><trkpt lat="44.022392" lon="3.6064132"><ele>663.0</ele><time>2026-04-19T14:52:47.195Z</time></trkpt><trkpt lat="44.0224345" lon="3.6064949"><ele>666.0</ele><time>2026-04-19T14:52:48.195Z</time></trkpt><trkpt lat="44.0224797" lon="3.6066067"><ele>669.0</ele><time>2026-04-19T14:52:50.195Z</time></trkpt><trkpt lat="44.0224618" lon="3.6067182"><ele>672.0</ele><time>2026-04-19T14:52:53.195Z</time></trkpt><trkpt lat="44.0223823" lon="3.6066972"><ele>672.0</ele><time>2026-04-19T14:52:56.196Z</time></trkpt><trkpt lat="44.0223401" lon="3.6066003"><ele>672.0</ele><time>2026-04-19T14:52:58.196Z</time></trkpt><trkpt lat="44.0222608" lon="3.6064757"><ele>672.0</ele><time>2026-04-19T14:53:00.196Z</time></trkpt><trkpt lat="44.0221961" lon="3.6064439"><ele>672.0</ele><time>2026-04-19T14:53:01.195Z</time></trkpt><trkpt lat="44.0221319" lon="3.6064178"><ele>672.0</ele><time>2026-04-19T14:53:02.195Z</time></trkpt><trkpt lat="44.0220133" lon="3.6064011"><ele>672.0</ele><time>2026-04-19T14:53:04.195Z</time></trkpt><trkpt lat="44.0218927" lon="3.6064103"><ele>672.0</ele><time>2026-04-19T14:53:06.195Z</time></trkpt><trkpt lat="44.0217775" lon="3.6064189"><ele>672.0</ele><time>2026-04-19T14:53:08.195Z</time></trkpt><trkpt lat="44.021676" lon="3.6063635"><ele>672.0</ele><time>2026-04-19T14:53:10.195Z</time></trkpt><trkpt lat="44.0216192" lon="3.6062538"><ele>672.0</ele><time>2026-04-19T14:53:12.195Z</time></trkpt><trkpt lat="44.0215709" lon="3.6061245"><ele>672.6</ele><time>2026-04-19T14:53:14.196Z</time></trkpt><trkpt lat="44.0214927" lon="3.6060359"><ele>673.2</ele><time>2026-04-19T14:53:16.195Z</time></trkpt><trkpt lat="44.0214134" lon="3.6059597"><ele>673.8</ele><time>2026-04-19T14:53:18.195Z</time></trkpt><trkpt lat="44.0213257" lon="3.6058936"><ele>674.4</ele><time>2026-04-19T14:53:20.195Z</time></trkpt><trkpt lat="44.021211" lon="3.6058115"><ele>675.0</ele><time>2026-04-19T14:53:22.195Z</time></trkpt><trkpt lat="44.0211407" lon="3.605787"><ele>675.0</ele><time>2026-04-19T14:53:23.195Z</time></trkpt><trkpt lat="44.021027" lon="3.605736"><ele>675.0</ele><time>2026-04-19T14:53:25.196Z</time></trkpt><trkpt lat="44.0209014" lon="3.605703"><ele>675.0</ele><time>2026-04-19T14:53:27.196Z</time></trkpt><trkpt lat="44.0208408" lon="3.6056787"><ele>675.0</ele><time>2026-04-19T14:53:28.195Z</time></trkpt><trkpt lat="44.0207501" lon="3.6056578"><ele>675.0</ele><time>2026-04-19T14:53:30.196Z</time></trkpt><trkpt lat="44.020634" lon="3.6056252"><ele>673.6666666666666</ele><time>2026-04-19T14:53:32.195Z</time></trkpt><trkpt lat="44.0205497" lon="3.6056258"><ele>672.3333333333334</ele><time>2026-04-19T14:53:34.195Z</time></trkpt><trkpt lat="44.0204773" lon="3.6056875"><ele>671.0</ele><time>2026-04-19T14:53:36.195Z</time></trkpt><trkpt lat="44.0204776" lon="3.6057766"><ele>669.6666666666667</ele><time>2026-04-19T14:53:38.195Z</time></trkpt><trkpt lat="44.0205341" lon="3.6058352"><ele>668.3333333333334</ele><time>2026-04-19T14:53:41.195Z</time></trkpt><trkpt lat="44.0206189" lon="3.6058454"><ele>667.0</ele><time>2026-04-19T14:53:44.195Z</time></trkpt><trkpt lat="44.0206875" lon="3.6058926"><ele>667.0</ele><time>2026-04-19T14:53:46.196Z</time></trkpt><trkpt lat="44.0207568" lon="3.6059462"><ele>667.0</ele><time>2026-04-19T14:53:48.195Z</time></trkpt><trkpt lat="44.0208441" lon="3.6060501"><ele>667.0</ele><time>2026-04-19T14:53:50.195Z</time></trkpt><trkpt lat="44.0209297" lon="3.6061703"><ele>667.0</ele><time>2026-04-19T14:53:52.195Z</time></trkpt><trkpt lat="44.0210314" lon="3.606265"><ele>667.0</ele><time>2026-04-19T14:53:54.195Z</time></trkpt><trkpt lat="44.0211295" lon="3.6063597"><ele>671.6666666666667</ele><time>2026-04-19T14:53:56.196Z</time></trkpt><trkpt lat="44.0211533" lon="3.6064699"><ele>676.3333333333334</ele><time>2026-04-19T14:53:58.196Z</time></trkpt><trkpt lat="44.0211025" lon="3.6065276"><ele>681.0</ele><time>2026-04-19T14:54:00.195Z</time></trkpt><trkpt lat="44.021046" lon="3.6064267"><ele>685.6666666666666</ele><time>2026-04-19T14:54:03.195Z</time></trkpt><trkpt lat="44.0209663" lon="3.606303"><ele>690.3333333333333</ele><time>2026-04-19T14:54:05.195Z</time></trkpt><trkpt lat="44.0209104" lon="3.6062344"><ele>695.0</ele><time>2026-04-19T14:54:06.195Z</time></trkpt><trkpt lat="44.0208254" lon="3.6061853"><ele>693.8333333333333</ele><time>2026-04-19T14:54:08.196Z</time></trkpt><trkpt lat="44.0207612" lon="3.6061688"><ele>692.6666666666666</ele><time>2026-04-19T14:54:09.195Z</time></trkpt><trkpt lat="44.0206985" lon="3.6061801"><ele>691.5</ele><time>2026-04-19T14:54:10.195Z</time></trkpt><trkpt lat="44.0205879" lon="3.6062474"><ele>690.3333333333334</ele><time>2026-04-19T14:54:12.196Z</time></trkpt><trkpt lat="44.0205443" lon="3.6063651"><ele>689.1666666666667</ele><time>2026-04-19T14:54:14.196Z</time></trkpt><trkpt lat="44.020537" lon="3.6064964"><ele>688.0</ele><time>2026-04-19T14:54:16.195Z</time></trkpt><trkpt lat="44.0205235" lon="3.6065841"><ele>688.0</ele><time>2026-04-19T14:54:17.196Z</time></trkpt><trkpt lat="44.0204861" lon="3.6067253"><ele>688.0</ele><time>2026-04-19T14:54:19.196Z</time></trkpt><trkpt lat="44.0204252" lon="3.6068512"><ele>688.0</ele><time>2026-04-19T14:54:21.196Z</time></trkpt><trkpt lat="44.0203037" lon="3.6069583"><ele>688.0</ele><time>2026-04-19T14:54:23.196Z</time></trkpt><trkpt lat="44.0202289" lon="3.6069812"><ele>688.0</ele><time>2026-04-19T14:54:24.195Z</time></trkpt><trkpt lat="44.0201621" lon="3.6069888"><ele>688.0</ele><time>2026-04-19T14:54:25.195Z</time></trkpt><trkpt lat="44.0200929" lon="3.6069785"><ele>688.0</ele><time>2026-04-19T14:54:26.195Z</time></trkpt><trkpt lat="44.0199898" lon="3.606937"><ele>688.0</ele><time>2026-04-19T14:54:28.196Z</time></trkpt><trkpt lat="44.0199269" lon="3.6068957"><ele>688.0</ele><time>2026-04-19T14:54:30.196Z</time></trkpt><trkpt lat="44.0197937" lon="3.6068823"><ele>688.0</ele><time>2026-04-19T14:54:32.196Z</time></trkpt><trkpt lat="44.0197671" lon="3.6069944"><ele>689.4</ele><time>2026-04-19T14:54:34.196Z</time></trkpt><trkpt lat="44.0197679" lon="3.6070835"><ele>690.8</ele><time>2026-04-19T14:54:35.195Z</time></trkpt><trkpt lat="44.0197899" lon="3.6072356"><ele>692.2</ele><time>2026-04-19T14:54:37.196Z</time></trkpt><trkpt lat="44.0198009" lon="3.6073875"><ele>693.6</ele><time>2026-04-19T14:54:39.195Z</time></trkpt><trkpt lat="44.019741" lon="3.6075203"><ele>695.0</ele><time>2026-04-19T14:54:41.195Z</time></trkpt><trkpt lat="44.0196855" lon="3.6075847"><ele>695.0</ele><time>2026-04-19T14:54:42.196Z</time></trkpt><trkpt lat="44.0196254" lon="3.6076333"><ele>695.0</ele><time>2026-04-19T14:54:43.195Z</time></trkpt><trkpt lat="44.0195548" lon="3.6076736"><ele>695.0</ele><time>2026-04-19T14:54:44.196Z</time></trkpt><trkpt lat="44.0194853" lon="3.6077171"><ele>695.0</ele><time>2026-04-19T14:54:45.196Z</time></trkpt><trkpt lat="44.019407" lon="3.607754"><ele>695.0</ele><time>2026-04-19T14:54:46.195Z</time></trkpt><trkpt lat="44.0193373" lon="3.607795"><ele>695.0</ele><time>2026-04-19T14:54:47.196Z</time></trkpt><trkpt lat="44.0192656" lon="3.607832"><ele>699.0</ele><time>2026-04-19T14:54:48.195Z</time></trkpt><trkpt lat="44.0191888" lon="3.60787"><ele>703.0</ele><time>2026-04-19T14:54:49.196Z</time></trkpt><trkpt lat="44.0191146" lon="3.6079121"><ele>707.0</ele><time>2026-04-19T14:54:50.195Z</time></trkpt><trkpt lat="44.0190249" lon="3.6079435"><ele>711.0</ele><time>2026-04-19T14:54:51.195Z</time></trkpt><trkpt lat="44.0189629" lon="3.6079715"><ele>715.0</ele><time>2026-04-19T14:54:52.195Z</time></trkpt><trkpt lat="44.0188906" lon="3.6079826"><ele>719.0</ele><time>2026-04-19T14:54:53.195Z</time></trkpt><trkpt lat="44.0188045" lon="3.6079848"><ele>719.2</ele><time>2026-04-19T14:54:54.195Z</time></trkpt><trkpt lat="44.0187324" lon="3.6080087"><ele>719.4000000000001</ele><time>2026-04-19T14:54:55.196Z</time></trkpt><trkpt lat="44.0186094" lon="3.6080382"><ele>719.6</ele><time>2026-04-19T14:54:57.195Z</time></trkpt><trkpt lat="44.0185382" lon="3.6079711"><ele>719.8</ele><time>2026-04-19T14:54:59.195Z</time></trkpt><trkpt lat="44.0184938" lon="3.6078643"><ele>720.0</ele><time>2026-04-19T14:55:01.195Z</time></trkpt><trkpt lat="44.0184309" lon="3.6077335"><ele>721.6666666666666</ele><time>2026-04-19T14:55:03.195Z</time></trkpt><trkpt lat="44.0183879" lon="3.6076243"><ele>723.3333333333334</ele><time>2026-04-19T14:55:04.195Z</time></trkpt><trkpt lat="44.018356" lon="3.6075345"><ele>725.0</ele><time>2026-04-19T14:55:05.195Z</time></trkpt><trkpt lat="44.0183202" lon="3.6074267"><ele>726.6666666666667</ele><time>2026-04-19T14:55:06.196Z</time></trkpt><trkpt lat="44.0182781" lon="3.6073101"><ele>728.3333333333334</ele><time>2026-04-19T14:55:07.195Z</time></trkpt><trkpt lat="44.0182214" lon="3.6072031"><ele>730.0</ele><time>2026-04-19T14:55:08.195Z</time></trkpt><trkpt lat="44.0181678" lon="3.6070909"><ele>728.3333333333334</ele><time>2026-04-19T14:55:09.195Z</time></trkpt><trkpt lat="44.018128" lon="3.6069794"><ele>726.6666666666667</ele><time>2026-04-19T14:55:10.195Z</time></trkpt><trkpt lat="44.0180954" lon="3.6068832"><ele>725.0</ele><time>2026-04-19T14:55:11.195Z</time></trkpt><trkpt lat="44.0180486" lon="3.6067793"><ele>723.3333333333334</ele><time>2026-04-19T14:55:12.196Z</time></trkpt><trkpt lat="44.0179992" lon="3.6066731"><ele>721.6666666666666</ele><time>2026-04-19T14:55:13.196Z</time></trkpt><trkpt lat="44.0179549" lon="3.6065825"><ele>720.0</ele><time>2026-04-19T14:55:14.195Z</time></trkpt><trkpt lat="44.0179015" lon="3.6064782"><ele>720.0</ele><time>2026-04-19T14:55:15.195Z</time></trkpt><trkpt lat="44.0178393" lon="3.6063884"><ele>720.0</ele><time>2026-04-19T14:55:16.195Z</time></trkpt><trkpt lat="44.0177601" lon="3.6063014"><ele>720.0</ele><time>2026-04-19T14:55:17.195Z</time></trkpt><trkpt lat="44.0176869" lon="3.6062154"><ele>720.0</ele><time>2026-04-19T14:55:18.195Z</time></trkpt><trkpt lat="44.0176042" lon="3.6061487"><ele>720.0</ele><time>2026-04-19T14:55:19.196Z</time></trkpt><trkpt lat="44.0175099" lon="3.606067"><ele>720.6</ele><time>2026-04-19T14:55:20.195Z</time></trkpt><trkpt lat="44.01742" lon="3.6060186"><ele>721.2</ele><time>2026-04-19T14:55:21.196Z</time></trkpt><trkpt lat="44.0173374" lon="3.6059662"><ele>721.8</ele><time>2026-04-19T14:55:22.195Z</time></trkpt><trkpt lat="44.0172588" lon="3.6059051"><ele>722.4</ele><time>2026-04-19T14:55:23.195Z</time></trkpt><trkpt lat="44.0171894" lon="3.6058354"><ele>723.0</ele><time>2026-04-19T14:55:24.195Z</time></trkpt><trkpt lat="44.0171304" lon="3.605745"><ele>723.0</ele><time>2026-04-19T14:55:25.196Z</time></trkpt><trkpt lat="44.0170618" lon="3.6056584"><ele>723.0</ele><time>2026-04-19T14:55:26.195Z</time></trkpt><trkpt lat="44.0169952" lon="3.6055726"><ele>723.0</ele><time>2026-04-19T14:55:27.195Z</time></trkpt><trkpt lat="44.016937" lon="3.6054971"><ele>723.0</ele><time>2026-04-19T14:55:28.195Z</time></trkpt><trkpt lat="44.0168735" lon="3.6054284"><ele>723.0</ele><time>2026-04-19T14:55:29.195Z</time></trkpt><trkpt lat="44.0167934" lon="3.6053653"><ele>723.0</ele><time>2026-04-19T14:55:30.195Z</time></trkpt><trkpt lat="44.0167227" lon="3.6053378"><ele>724.1666666666666</ele><time>2026-04-19T14:55:31.196Z</time></trkpt><trkpt lat="44.0166155" lon="3.6052941"><ele>725.3333333333334</ele><time>2026-04-19T14:55:33.196Z</time></trkpt><trkpt lat="44.0165243" lon="3.6051946"><ele>726.5</ele><time>2026-04-19T14:55:35.195Z</time></trkpt><trkpt lat="44.0164969" lon="3.6051111"><ele>727.6666666666667</ele><time>2026-04-19T14:55:36.196Z</time></trkpt><trkpt lat="44.0165" lon="3.6050093"><ele>728.8333333333334</ele><time>2026-04-19T14:55:37.195Z</time></trkpt><trkpt lat="44.016519" lon="3.6049032"><ele>730.0</ele><time>2026-04-19T14:55:38.195Z</time></trkpt><trkpt lat="44.0165505" lon="3.6047877"><ele>730.0</ele><time>2026-04-19T14:55:39.196Z</time></trkpt><trkpt lat="44.0165749" lon="3.6046915"><ele>730.0</ele><time>2026-04-19T14:55:40.196Z</time></trkpt><trkpt lat="44.0165803" lon="3.6045779"><ele>730.0</ele><time>2026-04-19T14:55:41.196Z</time></trkpt><trkpt lat="44.0165754" lon="3.604464"><ele>730.0</ele><time>2026-04-19T14:55:42.195Z</time></trkpt><trkpt lat="44.016552" lon="3.6043567"><ele>730.0</ele><time>2026-04-19T14:55:43.195Z</time></trkpt><trkpt lat="44.0164959" lon="3.6042252"><ele>730.0</ele><time>2026-04-19T14:55:45.195Z</time></trkpt><trkpt lat="44.0164042" lon="3.6041128"><ele>727.0</ele><time>2026-04-19T14:55:47.195Z</time></trkpt><trkpt lat="44.0162884" lon="3.6040336"><ele>724.0</ele><time>2026-04-19T14:55:49.195Z</time></trkpt><trkpt lat="44.0162255" lon="3.6040075"><ele>721.0</ele><time>2026-04-19T14:55:50.195Z</time></trkpt><trkpt lat="44.0161369" lon="3.6039819"><ele>718.0</ele><time>2026-04-19T14:55:51.195Z</time></trkpt><trkpt lat="44.016021" lon="3.6039498"><ele>715.0</ele><time>2026-04-19T14:55:52.195Z</time></trkpt><trkpt lat="44.0158808" lon="3.6039124"><ele>715.5</ele><time>2026-04-19T14:55:53.195Z</time></trkpt><trkpt lat="44.0157492" lon="3.6038912"><ele>716.0</ele><time>2026-04-19T14:55:54.195Z</time></trkpt><trkpt lat="44.0156325" lon="3.6038625"><ele>716.5</ele><time>2026-04-19T14:55:55.195Z</time></trkpt><trkpt lat="44.0155222" lon="3.603818"><ele>717.0</ele><time>2026-04-19T14:55:56.196Z</time></trkpt><trkpt lat="44.0154177" lon="3.6037416"><ele>717.0</ele><time>2026-04-19T14:55:57.196Z</time></trkpt><trkpt lat="44.015573" lon="3.6037521"><ele>717.0</ele><time>2026-04-19T14:55:58.196Z</time></trkpt><trkpt lat="44.0154764" lon="3.6036812"><ele>717.0</ele><time>2026-04-19T14:55:59.195Z</time></trkpt><trkpt lat="44.015393" lon="3.6036193"><ele>717.0</ele><time>2026-04-19T14:56:00.195Z</time></trkpt><trkpt lat="44.0153129" lon="3.6035629"><ele>717.0</ele><time>2026-04-19T14:56:01.196Z</time></trkpt><trkpt lat="44.0152305" lon="3.603537"><ele>712.5</ele><time>2026-04-19T14:56:02.196Z</time></trkpt><trkpt lat="44.0151617" lon="3.6035173"><ele>708.0</ele><time>2026-04-19T14:56:03.196Z</time></trkpt><trkpt lat="44.0150812" lon="3.6034853"><ele>703.5</ele><time>2026-04-19T14:56:04.195Z</time></trkpt><trkpt lat="44.015008" lon="3.6034554"><ele>699.0</ele><time>2026-04-19T14:56:05.195Z</time></trkpt><trkpt lat="44.0149295" lon="3.6034197"><ele>694.5</ele><time>2026-04-19T14:56:06.195Z</time></trkpt><trkpt lat="44.0148476" lon="3.6033963"><ele>690.0</ele><time>2026-04-19T14:56:07.195Z</time></trkpt><trkpt lat="44.0147662" lon="3.6033741"><ele>690.0</ele><time>2026-04-19T14:56:08.195Z</time></trkpt><trkpt lat="44.0146886" lon="3.6033549"><ele>690.0</ele><time>2026-04-19T14:56:09.195Z</time></trkpt><trkpt lat="44.0146073" lon="3.603332"><ele>690.0</ele><time>2026-04-19T14:56:10.195Z</time></trkpt><trkpt lat="44.0145342" lon="3.6033254"><ele>690.0</ele><time>2026-04-19T14:56:11.196Z</time></trkpt><trkpt lat="44.0144592" lon="3.6033439"><ele>690.0</ele><time>2026-04-19T14:56:12.195Z</time></trkpt><trkpt lat="44.0143774" lon="3.6033477"><ele>690.0</ele><time>2026-04-19T14:56:13.196Z</time></trkpt><trkpt lat="44.0142995" lon="3.6033632"><ele>690.0</ele><time>2026-04-19T14:56:14.195Z</time></trkpt><trkpt lat="44.0142249" lon="3.6033881"><ele>690.0</ele><time>2026-04-19T14:56:15.196Z</time></trkpt><trkpt lat="44.014147" lon="3.6034287"><ele>690.0</ele><time>2026-04-19T14:56:16.195Z</time></trkpt><trkpt lat="44.014069" lon="3.6034784"><ele>690.0</ele><time>2026-04-19T14:56:17.195Z</time></trkpt><trkpt lat="44.013991" lon="3.6035264"><ele>690.0</ele><time>2026-04-19T14:56:18.195Z</time></trkpt><trkpt lat="44.0139226" lon="3.6035728"><ele>690.0</ele><time>2026-04-19T14:56:19.196Z</time></trkpt><trkpt lat="44.0138489" lon="3.6035963"><ele>689.5714285714286</ele><time>2026-04-19T14:56:20.195Z</time></trkpt><trkpt lat="44.0137786" lon="3.6036022"><ele>689.1428571428571</ele><time>2026-04-19T14:56:21.196Z</time></trkpt><trkpt lat="44.0137069" lon="3.6035896"><ele>688.7142857142858</ele><time>2026-04-19T14:56:22.195Z</time></trkpt><trkpt lat="44.0136343" lon="3.6035666"><ele>688.2857142857142</ele><time>2026-04-19T14:56:23.195Z</time></trkpt><trkpt lat="44.0135676" lon="3.6035358"><ele>687.8571428571428</ele><time>2026-04-19T14:56:24.195Z</time></trkpt><trkpt lat="44.0135074" lon="3.6034947"><ele>687.4285714285714</ele><time>2026-04-19T14:56:25.195Z</time></trkpt><trkpt lat="44.0134504" lon="3.6034276"><ele>687.0</ele><time>2026-04-19T14:56:26.195Z</time></trkpt><trkpt lat="44.0133982" lon="3.6033564"><ele>687.0</ele><time>2026-04-19T14:56:27.195Z</time></trkpt><trkpt lat="44.0133639" lon="3.6032669"><ele>687.0</ele><time>2026-04-19T14:56:28.196Z</time></trkpt><trkpt lat="44.0133188" lon="3.6031762"><ele>687.0</ele><time>2026-04-19T14:56:29.195Z</time></trkpt><trkpt lat="44.0132697" lon="3.6030901"><ele>687.0</ele><time>2026-04-19T14:56:30.195Z</time></trkpt><trkpt lat="44.0132118" lon="3.6030208"><ele>687.0</ele><time>2026-04-19T14:56:31.195Z</time></trkpt><trkpt lat="44.0130919" lon="3.6029389"><ele>687.0</ele><time>2026-04-19T14:56:33.195Z</time></trkpt><trkpt lat="44.0130262" lon="3.6029294"><ele>686.1666666666666</ele><time>2026-04-19T14:56:34.196Z</time></trkpt><trkpt lat="44.0129554" lon="3.6029281"><ele>685.3333333333334</ele><time>2026-04-19T14:56:35.196Z</time></trkpt><trkpt lat="44.0128836" lon="3.6029637"><ele>684.5</ele><time>2026-04-19T14:56:36.196Z</time></trkpt><trkpt lat="44.0128082" lon="3.6029964"><ele>683.6666666666667</ele><time>2026-04-19T14:56:37.195Z</time></trkpt><trkpt lat="44.0127403" lon="3.6030327"><ele>682.8333333333334</ele><time>2026-04-19T14:56:38.195Z</time></trkpt><trkpt lat="44.0126353" lon="3.603112"><ele>682.0</ele><time>2026-04-19T14:56:40.196Z</time></trkpt><trkpt lat="44.0126256" lon="3.6032144"><ele>682.0</ele><time>2026-04-19T14:56:42.195Z</time></trkpt><trkpt lat="44.012656" lon="3.6033213"><ele>682.0</ele><time>2026-04-19T14:56:44.195Z</time></trkpt><trkpt lat="44.012721" lon="3.6034212"><ele>682.0</ele><time>2026-04-19T14:56:46.195Z</time></trkpt><trkpt lat="44.0128026" lon="3.6034793"><ele>682.0</ele><time>2026-04-19T14:56:48.195Z</time></trkpt><trkpt lat="44.0128672" lon="3.6034982"><ele>682.0</ele><time>2026-04-19T14:56:49.195Z</time></trkpt><trkpt lat="44.0129394" lon="3.6035212"><ele>682.0</ele><time>2026-04-19T14:56:50.195Z</time></trkpt><trkpt lat="44.0130118" lon="3.6035367"><ele>682.0</ele><time>2026-04-19T14:56:51.195Z</time></trkpt><trkpt lat="44.0131393" lon="3.6036041"><ele>682.0</ele><time>2026-04-19T14:56:53.196Z</time></trkpt><trkpt lat="44.0132081" lon="3.6036617"><ele>682.0</ele><time>2026-04-19T14:56:54.196Z</time></trkpt><trkpt lat="44.0132565" lon="3.6037409"><ele>682.0</ele><time>2026-04-19T14:56:55.195Z</time></trkpt><trkpt lat="44.0133065" lon="3.6038222"><ele>682.0</ele><time>2026-04-19T14:56:56.195Z</time></trkpt><trkpt lat="44.0133404" lon="3.6039108"><ele>682.0</ele><time>2026-04-19T14:56:57.195Z</time></trkpt><trkpt lat="44.0133694" lon="3.6040008"><ele>683.5</ele><time>2026-04-19T14:56:58.195Z</time></trkpt><trkpt lat="44.0133898" lon="3.6040913"><ele>685.0</ele><time>2026-04-19T14:56:59.195Z</time></trkpt><trkpt lat="44.0133961" lon="3.6041848"><ele>686.5</ele><time>2026-04-19T14:57:00.196Z</time></trkpt><trkpt lat="44.0133957" lon="3.6042744"><ele>688.0</ele><time>2026-04-19T14:57:01.195Z</time></trkpt><trkpt lat="44.0133903" lon="3.6043624"><ele>689.5</ele><time>2026-04-19T14:57:02.195Z</time></trkpt><trkpt lat="44.0133775" lon="3.6045479"><ele>691.0</ele><time>2026-04-19T14:57:04.194Z</time></trkpt><trkpt lat="44.0133697" lon="3.6046427"><ele>692.3333333333334</ele><time>2026-04-19T14:57:05.194Z</time></trkpt><trkpt lat="44.0133599" lon="3.6047547"><ele>693.6666666666667</ele><time>2026-04-19T14:57:06.194Z</time></trkpt><trkpt lat="44.0133475" lon="3.6048626"><ele>695.0</ele><time>2026-04-19T14:57:07.194Z</time></trkpt><trkpt lat="44.013338" lon="3.6049628"><ele>696.3333333333334</ele><time>2026-04-19T14:57:08.195Z</time></trkpt><trkpt lat="44.0133426" lon="3.6050726"><ele>697.6666666666666</ele><time>2026-04-19T14:57:09.195Z</time></trkpt><trkpt lat="44.0133475" lon="3.6051638"><ele>699.0</ele><time>2026-04-19T14:57:10.195Z</time></trkpt><trkpt lat="44.0133511" lon="3.6052677"><ele>698.6666666666666</ele><time>2026-04-19T14:57:11.194Z</time></trkpt><trkpt lat="44.0133557" lon="3.6053814"><ele>698.3333333333334</ele><time>2026-04-19T14:57:12.195Z</time></trkpt><trkpt lat="44.0133635" lon="3.6054938"><ele>698.0</ele><time>2026-04-19T14:57:13.194Z</time></trkpt><trkpt lat="44.0133659" lon="3.6056072"><ele>697.6666666666667</ele><time>2026-04-19T14:57:14.195Z</time></trkpt><trkpt lat="44.0133818" lon="3.6057056"><ele>697.3333333333334</ele><time>2026-04-19T14:57:15.194Z</time></trkpt><trkpt lat="44.0133958" lon="3.6057979"><ele>697.0</ele><time>2026-04-19T14:57:16.195Z</time></trkpt><trkpt lat="44.0134278" lon="3.605888"><ele>697.0</ele><time>2026-04-19T14:57:17.195Z</time></trkpt><trkpt lat="44.0134829" lon="3.6060434"><ele>697.0</ele><time>2026-04-19T14:57:19.194Z</time></trkpt><trkpt lat="44.0135165" lon="3.6061247"><ele>697.0</ele><time>2026-04-19T14:57:20.194Z</time></trkpt><trkpt lat="44.0135601" lon="3.6062095"><ele>697.0</ele><time>2026-04-19T14:57:21.195Z</time></trkpt><trkpt lat="44.0136151" lon="3.6062988"><ele>697.0</ele><time>2026-04-19T14:57:22.194Z</time></trkpt><trkpt lat="44.0136729" lon="3.6063799"><ele>697.0</ele><time>2026-04-19T14:57:23.194Z</time></trkpt><trkpt lat="44.0137386" lon="3.6064583"><ele>695.0</ele><time>2026-04-19T14:57:24.195Z</time></trkpt><trkpt lat="44.013801" lon="3.606545"><ele>693.0</ele><time>2026-04-19T14:57:25.195Z</time></trkpt><trkpt lat="44.0138742" lon="3.606621"><ele>691.0</ele><time>2026-04-19T14:57:26.195Z</time></trkpt><trkpt lat="44.0139383" lon="3.6066925"><ele>689.0</ele><time>2026-04-19T14:57:27.195Z</time></trkpt><trkpt lat="44.0139942" lon="3.6067492"><ele>687.0</ele><time>2026-04-19T14:57:28.194Z</time></trkpt><trkpt lat="44.0140553" lon="3.6067898"><ele>685.0</ele><time>2026-04-19T14:57:29.194Z</time></trkpt><trkpt lat="44.014165" lon="3.6068536"><ele>690.8</ele><time>2026-04-19T14:57:31.194Z</time></trkpt><trkpt lat="44.0142732" lon="3.6068876"><ele>696.6</ele><time>2026-04-19T14:57:33.195Z</time></trkpt><trkpt lat="44.0143858" lon="3.606908"><ele>702.4000000000001</ele><time>2026-04-19T14:57:35.195Z</time></trkpt><trkpt lat="44.01446" lon="3.6068987"><ele>708.2</ele><time>2026-04-19T14:57:36.195Z</time></trkpt><trkpt lat="44.0145816" lon="3.606872"><ele>714.0</ele><time>2026-04-19T14:57:38.194Z</time></trkpt><trkpt lat="44.0146505" lon="3.6068508"><ele>714.0</ele><time>2026-04-19T14:57:39.194Z</time></trkpt><trkpt lat="44.0147151" lon="3.6068373"><ele>714.0</ele><time>2026-04-19T14:57:40.194Z</time></trkpt><trkpt lat="44.0147857" lon="3.6068274"><ele>714.0</ele><time>2026-04-19T14:57:41.195Z</time></trkpt><trkpt lat="44.0148605" lon="3.606815"><ele>714.0</ele><time>2026-04-19T14:57:42.194Z</time></trkpt><trkpt lat="44.0149311" lon="3.6068091"><ele>714.0</ele><time>2026-04-19T14:57:43.194Z</time></trkpt><trkpt lat="44.0150049" lon="3.6068157"><ele>714.0</ele><time>2026-04-19T14:57:44.194Z</time></trkpt><trkpt lat="44.01508" lon="3.6068183"><ele>714.0</ele><time>2026-04-19T14:57:45.194Z</time></trkpt><trkpt lat="44.0151528" lon="3.6068252"><ele>715.5</ele><time>2026-04-19T14:57:46.195Z</time></trkpt><trkpt lat="44.0152359" lon="3.6068327"><ele>717.0</ele><time>2026-04-19T14:57:47.194Z</time></trkpt><trkpt lat="44.0153227" lon="3.6068398"><ele>718.5</ele><time>2026-04-19T14:57:48.194Z</time></trkpt><trkpt lat="44.0154005" lon="3.6068473"><ele>720.0</ele><time>2026-04-19T14:57:49.195Z</time></trkpt><trkpt lat="44.0154818" lon="3.6068487"><ele>721.5</ele><time>2026-04-19T14:57:50.194Z</time></trkpt><trkpt lat="44.0155583" lon="3.6068549"><ele>723.0</ele><time>2026-04-19T14:57:51.194Z</time></trkpt><trkpt lat="44.0156298" lon="3.6068557"><ele>723.0000000000001</ele><time>2026-04-19T14:57:52.194Z</time></trkpt><trkpt lat="44.0156958" lon="3.6068633"><ele>723.0</ele><time>2026-04-19T14:57:53.194Z</time></trkpt><trkpt lat="44.0158073" lon="3.6068364"><ele>723.0</ele><time>2026-04-19T14:57:55.195Z</time></trkpt><trkpt lat="44.015874" lon="3.6068363"><ele>723.0</ele><time>2026-04-19T14:57:56.195Z</time></trkpt><trkpt lat="44.0159391" lon="3.6068453"><ele>723.0</ele><time>2026-04-19T14:57:57.194Z</time></trkpt><trkpt lat="44.016004" lon="3.6068787"><ele>723.0000000000001</ele><time>2026-04-19T14:57:58.194Z</time></trkpt><trkpt lat="44.016065" lon="3.6069084"><ele>723.0</ele><time>2026-04-19T14:57:59.194Z</time></trkpt><trkpt lat="44.0161211" lon="3.6069524"><ele>723.5</ele><time>2026-04-19T14:58:00.194Z</time></trkpt><trkpt lat="44.0162184" lon="3.6070609"><ele>724.0</ele><time>2026-04-19T14:58:02.194Z</time></trkpt><trkpt lat="44.0162793" lon="3.6071449"><ele>724.5</ele><time>2026-04-19T14:58:03.194Z</time></trkpt><trkpt lat="44.0163334" lon="3.6072099"><ele>725.0</ele><time>2026-04-19T14:58:04.195Z</time></trkpt><trkpt lat="44.0163903" lon="3.607289"><ele>725.5</ele><time>2026-04-19T14:58:05.194Z</time></trkpt><trkpt lat="44.0164595" lon="3.607362"><ele>726.0</ele><time>2026-04-19T14:58:06.194Z</time></trkpt><trkpt lat="44.0165225" lon="3.6074416"><ele>726.0</ele><time>2026-04-19T14:58:07.194Z</time></trkpt><trkpt lat="44.0165811" lon="3.607514"><ele>726.0</ele><time>2026-04-19T14:58:08.195Z</time></trkpt><trkpt lat="44.0166394" lon="3.6075793"><ele>726.0</ele><time>2026-04-19T14:58:09.194Z</time></trkpt><trkpt lat="44.0166891" lon="3.6076368"><ele>726.0</ele><time>2026-04-19T14:58:10.194Z</time></trkpt><trkpt lat="44.0167397" lon="3.6077076"><ele>726.0</ele><time>2026-04-19T14:58:11.195Z</time></trkpt><trkpt lat="44.0167997" lon="3.6077844"><ele>726.0</ele><time>2026-04-19T14:58:12.194Z</time></trkpt><trkpt lat="44.016864" lon="3.6078743"><ele>728.1999999999999</ele><time>2026-04-19T14:58:13.195Z</time></trkpt><trkpt lat="44.0169293" lon="3.6079518"><ele>730.4</ele><time>2026-04-19T14:58:14.195Z</time></trkpt><trkpt lat="44.0169983" lon="3.6080491"><ele>732.6</ele><time>2026-04-19T14:58:15.195Z</time></trkpt><trkpt lat="44.017064" lon="3.6081447"><ele>734.8</ele><time>2026-04-19T14:58:16.194Z</time></trkpt><trkpt lat="44.0171266" lon="3.608243"><ele>737.0</ele><time>2026-04-19T14:58:17.195Z</time></trkpt><trkpt lat="44.0171835" lon="3.6083389"><ele>737.0</ele><time>2026-04-19T14:58:18.195Z</time></trkpt><trkpt lat="44.0172477" lon="3.6084532"><ele>737.0</ele><time>2026-04-19T14:58:19.194Z</time></trkpt><trkpt lat="44.0173023" lon="3.6085505"><ele>737.0</ele><time>2026-04-19T14:58:20.194Z</time></trkpt><trkpt lat="44.0173561" lon="3.608618"><ele>737.0</ele><time>2026-04-19T14:58:21.194Z</time></trkpt><trkpt lat="44.0174166" lon="3.608692"><ele>737.0</ele><time>2026-04-19T14:58:22.195Z</time></trkpt><trkpt lat="44.0174776" lon="3.6087837"><ele>737.0</ele><time>2026-04-19T14:58:23.194Z</time></trkpt><trkpt lat="44.0175523" lon="3.6088765"><ele>737.2</ele><time>2026-04-19T14:58:24.194Z</time></trkpt><trkpt lat="44.0176115" lon="3.608983"><ele>737.4000000000001</ele><time>2026-04-19T14:58:25.194Z</time></trkpt><trkpt lat="44.0176868" lon="3.6090804"><ele>737.5999999999999</ele><time>2026-04-19T14:58:26.195Z</time></trkpt><trkpt lat="44.0177549" lon="3.6091717"><ele>737.8</ele><time>2026-04-19T14:58:27.194Z</time></trkpt><trkpt lat="44.0178182" lon="3.6092741"><ele>738.0</ele><time>2026-04-19T14:58:28.194Z</time></trkpt><trkpt lat="44.0178817" lon="3.6093449"><ele>738.0</ele><time>2026-04-19T14:58:29.194Z</time></trkpt><trkpt lat="44.0179635" lon="3.6094087"><ele>738.0</ele><time>2026-04-19T14:58:30.194Z</time></trkpt><trkpt lat="44.0180545" lon="3.6094641"><ele>738.0</ele><time>2026-04-19T14:58:31.194Z</time></trkpt><trkpt lat="44.0181303" lon="3.6095086"><ele>738.0</ele><time>2026-04-19T14:58:32.195Z</time></trkpt><trkpt lat="44.0181945" lon="3.6095539"><ele>738.0</ele><time>2026-04-19T14:58:33.195Z</time></trkpt><trkpt lat="44.0182775" lon="3.6096179"><ele>738.0</ele><time>2026-04-19T14:58:35.194Z</time></trkpt><trkpt lat="44.018327" lon="3.6096947"><ele>737.75</ele><time>2026-04-19T14:59:02.194Z</time></trkpt><trkpt lat="44.018433" lon="3.6097773"><ele>737.5</ele><time>2026-04-19T14:59:04.195Z</time></trkpt><trkpt lat="44.0184394" lon="3.6099495"><ele>737.25</ele><time>2026-04-19T14:59:08.194Z</time></trkpt><trkpt lat="44.0184372" lon="3.6101191"><ele>737.0</ele><time>2026-04-19T14:59:10.194Z</time></trkpt><trkpt lat="44.018446" lon="3.6102648"><ele>735.6</ele><time>2026-04-19T14:59:12.195Z</time></trkpt><trkpt lat="44.0184654" lon="3.6104113"><ele>734.2</ele><time>2026-04-19T14:59:14.194Z</time></trkpt><trkpt lat="44.0184918" lon="3.6105397"><ele>732.8</ele><time>2026-04-19T14:59:16.195Z</time></trkpt><trkpt lat="44.0185353" lon="3.6106634"><ele>731.4</ele><time>2026-04-19T14:59:18.194Z</time></trkpt><trkpt lat="44.0185774" lon="3.6107971"><ele>730.0</ele><time>2026-04-19T14:59:20.194Z</time></trkpt><trkpt lat="44.0186153" lon="3.6109099"><ele>730.0</ele><time>2026-04-19T14:59:22.195Z</time></trkpt><trkpt lat="44.0186596" lon="3.6110261"><ele>730.0</ele><time>2026-04-19T14:59:24.194Z</time></trkpt><trkpt lat="44.0187262" lon="3.6111558"><ele>730.0</ele><time>2026-04-19T14:59:26.194Z</time></trkpt><trkpt lat="44.0187954" lon="3.6112878"><ele>730.0</ele><time>2026-04-19T14:59:28.194Z</time></trkpt><trkpt lat="44.0188722" lon="3.6114333"><ele>728.0</ele><time>2026-04-19T14:59:30.195Z</time></trkpt><trkpt lat="44.0189452" lon="3.611568"><ele>726.0</ele><time>2026-04-19T14:59:32.194Z</time></trkpt><trkpt lat="44.019001" lon="3.6116871"><ele>724.0</ele><time>2026-04-19T14:59:34.195Z</time></trkpt><trkpt lat="44.0190433" lon="3.6117919"><ele>722.0</ele><time>2026-04-19T14:59:36.194Z</time></trkpt><trkpt lat="44.019071" lon="3.6118869"><ele>720.0</ele><time>2026-04-19T14:59:38.194Z</time></trkpt><trkpt lat="44.0190351" lon="3.6119772"><ele>720.0</ele><time>2026-04-19T14:59:41.195Z</time></trkpt><trkpt lat="44.0189768" lon="3.6120337"><ele>720.0</ele><time>2026-04-19T14:59:46.195Z</time></trkpt><trkpt lat="44.0189375" lon="3.6121033"><ele>720.0</ele><time>2026-04-19T14:59:54.194Z</time></trkpt><trkpt lat="44.0189684" lon="3.6119549"><ele>720.0</ele><time>2026-04-19T15:00:16.194Z</time></trkpt><trkpt lat="44.0189524" lon="3.6118294"><ele>720.0</ele><time>2026-04-19T15:00:18.195Z</time></trkpt><trkpt lat="44.0188866" lon="3.6116766"><ele>720.0</ele><time>2026-04-19T15:00:20.195Z</time></trkpt><trkpt lat="44.0188351" lon="3.6116001"><ele>720.0</ele><time>2026-04-19T15:00:21.195Z</time></trkpt><trkpt lat="44.0187816" lon="3.6115144"><ele>720.0</ele><time>2026-04-19T15:00:22.194Z</time></trkpt><trkpt lat="44.0187388" lon="3.6114394"><ele>720.0</ele><time>2026-04-19T15:00:23.194Z</time></trkpt><trkpt lat="44.0186857" lon="3.6113564"><ele>720.0</ele><time>2026-04-19T15:00:24.195Z</time></trkpt><trkpt lat="44.0186508" lon="3.6112689"><ele>720.0</ele><time>2026-04-19T15:00:25.194Z</time></trkpt><trkpt lat="44.0186094" lon="3.6111669"><ele>721.4285714285714</ele><time>2026-04-19T15:00:26.195Z</time></trkpt><trkpt lat="44.0185891" lon="3.611071"><ele>722.8571428571429</ele><time>2026-04-19T15:00:27.194Z</time></trkpt><trkpt lat="44.0185501" lon="3.6109671"><ele>724.2857142857143</ele><time>2026-04-19T15:00:28.194Z</time></trkpt><trkpt lat="44.0185446" lon="3.610864"><ele>725.7142857142858</ele><time>2026-04-19T15:00:29.195Z</time></trkpt><trkpt lat="44.0185267" lon="3.6107612"><ele>727.1428571428571</ele><time>2026-04-19T15:00:30.194Z</time></trkpt><trkpt lat="44.0185142" lon="3.6106579"><ele>728.5714285714287</ele><time>2026-04-19T15:00:31.195Z</time></trkpt><trkpt lat="44.0184982" lon="3.6105723"><ele>730.0</ele><time>2026-04-19T15:00:32.195Z</time></trkpt><trkpt lat="44.018475" lon="3.6104785"><ele>730.0</ele><time>2026-04-19T15:00:33.194Z</time></trkpt><trkpt lat="44.0184595" lon="3.6103932"><ele>730.0</ele><time>2026-04-19T15:00:34.194Z</time></trkpt><trkpt lat="44.0184342" lon="3.6103126"><ele>730.0</ele><time>2026-04-19T15:00:35.195Z</time></trkpt><trkpt lat="44.0184054" lon="3.6101443"><ele>730.0</ele><time>2026-04-19T15:00:37.194Z</time></trkpt><trkpt lat="44.018379" lon="3.6100085"><ele>730.0</ele><time>2026-04-19T15:00:39.195Z</time></trkpt><trkpt lat="44.0183595" lon="3.6098903"><ele>730.0</ele><time>2026-04-19T15:00:41.195Z</time></trkpt><trkpt lat="44.0183552" lon="3.6097793"><ele>731.1666666666667</ele><time>2026-04-19T15:00:44.194Z</time></trkpt><trkpt lat="44.0183738" lon="3.609695"><ele>732.3333333333334</ele><time>2026-04-19T15:00:48.194Z</time></trkpt><trkpt lat="44.0184079" lon="3.6097962"><ele>733.5</ele><time>2026-04-19T15:02:43.193Z</time></trkpt><trkpt lat="44.0183958" lon="3.609902"><ele>734.6666666666666</ele><time>2026-04-19T15:02:45.193Z</time></trkpt><trkpt lat="44.0184025" lon="3.6099893"><ele>735.8333333333333</ele><time>2026-04-19T15:02:46.193Z</time></trkpt><trkpt lat="44.018404" lon="3.6100791"><ele>737.0</ele><time>2026-04-19T15:02:47.193Z</time></trkpt><trkpt lat="44.0184109" lon="3.6102414"><ele>736.0000000000001</ele><time>2026-04-19T15:02:49.194Z</time></trkpt><trkpt lat="44.0184246" lon="3.6103321"><ele>735.0</ele><time>2026-04-19T15:02:50.193Z</time></trkpt><trkpt lat="44.0184493" lon="3.6104365"><ele>734.0</ele><time>2026-04-19T15:02:51.194Z</time></trkpt><trkpt lat="44.0184629" lon="3.6105329"><ele>733.0</ele><time>2026-04-19T15:02:52.193Z</time></trkpt><trkpt lat="44.0184852" lon="3.6106373"><ele>732.0</ele><time>2026-04-19T15:02:53.193Z</time></trkpt><trkpt lat="44.0185052" lon="3.6107272"><ele>731.0000000000001</ele><time>2026-04-19T15:02:54.194Z</time></trkpt><trkpt lat="44.0185231" lon="3.6108215"><ele>730.0</ele><time>2026-04-19T15:02:55.193Z</time></trkpt><trkpt lat="44.0185571" lon="3.6110039"><ele>730.0</ele><time>2026-04-19T15:02:57.193Z</time></trkpt><trkpt lat="44.0185774" lon="3.6110976"><ele>730.0</ele><time>2026-04-19T15:02:58.194Z</time></trkpt><trkpt lat="44.0186066" lon="3.6112013"><ele>730.0</ele><time>2026-04-19T15:02:59.194Z</time></trkpt><trkpt lat="44.018649" lon="3.6113006"><ele>730.0</ele><time>2026-04-19T15:03:00.193Z</time></trkpt><trkpt lat="44.0186916" lon="3.6113928"><ele>730.0</ele><time>2026-04-19T15:03:01.194Z</time></trkpt><trkpt lat="44.0187385" lon="3.6114877"><ele>730.0</ele><time>2026-04-19T15:03:02.193Z</time></trkpt><trkpt lat="44.0187886" lon="3.6115715"><ele>728.3333333333334</ele><time>2026-04-19T15:03:03.194Z</time></trkpt><trkpt lat="44.0188325" lon="3.6116451"><ele>726.6666666666667</ele><time>2026-04-19T15:03:04.193Z</time></trkpt><trkpt lat="44.0188949" lon="3.6117724"><ele>725.0</ele><time>2026-04-19T15:03:06.194Z</time></trkpt><trkpt lat="44.0189384" lon="3.6118839"><ele>723.3333333333334</ele><time>2026-04-19T15:03:08.194Z</time></trkpt><trkpt lat="44.0189467" lon="3.6119912"><ele>721.6666666666666</ele><time>2026-04-19T15:03:10.194Z</time></trkpt><trkpt lat="44.0188899" lon="3.6120761"><ele>720.0</ele><time>2026-04-19T15:03:13.194Z</time></trkpt><trkpt lat="44.0188199" lon="3.6120036"><ele>720.0</ele><time>2026-04-19T15:03:16.194Z</time></trkpt><trkpt lat="44.0187953" lon="3.6119026"><ele>720.0</ele><time>2026-04-19T15:03:18.194Z</time></trkpt><trkpt lat="44.0187274" lon="3.6117954"><ele>720.0</ele><time>2026-04-19T15:03:20.194Z</time></trkpt><trkpt lat="44.0186257" lon="3.6117157"><ele>720.0</ele><time>2026-04-19T15:03:22.193Z</time></trkpt><trkpt lat="44.0185661" lon="3.6116735"><ele>720.0</ele><time>2026-04-19T15:03:23.193Z</time></trkpt><trkpt lat="44.0185089" lon="3.6116229"><ele>720.0</ele><time>2026-04-19T15:03:24.193Z</time></trkpt><trkpt lat="44.0184562" lon="3.6115614"><ele>720.0</ele><time>2026-04-19T15:03:25.194Z</time></trkpt><trkpt lat="44.018409" lon="3.6114889"><ele>720.0</ele><time>2026-04-19T15:03:26.193Z</time></trkpt><trkpt lat="44.0183747" lon="3.611411"><ele>720.0</ele><time>2026-04-19T15:03:27.193Z</time></trkpt><trkpt lat="44.0183351" lon="3.6113261"><ele>720.0</ele><time>2026-04-19T15:03:28.194Z</time></trkpt><trkpt lat="44.018291" lon="3.6112485"><ele>720.0</ele><time>2026-04-19T15:03:29.193Z</time></trkpt><trkpt lat="44.0182434" lon="3.6111788"><ele>720.0</ele><time>2026-04-19T15:03:30.193Z</time></trkpt><trkpt lat="44.0181479" lon="3.6111164"><ele>720.6</ele><time>2026-04-19T15:03:32.193Z</time></trkpt><trkpt lat="44.0180536" lon="3.6111452"><ele>721.2</ele><time>2026-04-19T15:03:34.194Z</time></trkpt><trkpt lat="44.0179774" lon="3.611267"><ele>721.8</ele><time>2026-04-19T15:03:36.194Z</time></trkpt><trkpt lat="44.0179152" lon="3.6114118"><ele>722.4</ele><time>2026-04-19T15:03:38.194Z</time></trkpt><trkpt lat="44.0178265" lon="3.6115122"><ele>723.0</ele><time>2026-04-19T15:03:40.194Z</time></trkpt><trkpt lat="44.0177458" lon="3.6116115"><ele>723.0</ele><time>2026-04-19T15:03:42.194Z</time></trkpt><trkpt lat="44.0177247" lon="3.6117731"><ele>723.0</ele><time>2026-04-19T15:03:44.194Z</time></trkpt><trkpt lat="44.0177211" lon="3.6119496"><ele>723.0</ele><time>2026-04-19T15:03:46.193Z</time></trkpt><trkpt lat="44.0176877" lon="3.6120391"><ele>723.0</ele><time>2026-04-19T15:03:47.194Z</time></trkpt><trkpt lat="44.0176435" lon="3.612117"><ele>723.0</ele><time>2026-04-19T15:03:48.193Z</time></trkpt><trkpt lat="44.0176031" lon="3.6121969"><ele>721.0</ele><time>2026-04-19T15:03:49.194Z</time></trkpt><trkpt lat="44.0175461" lon="3.612271"><ele>719.0</ele><time>2026-04-19T15:03:50.193Z</time></trkpt><trkpt lat="44.0174821" lon="3.6123401"><ele>717.0</ele><time>2026-04-19T15:03:51.193Z</time></trkpt><trkpt lat="44.0174149" lon="3.6123928"><ele>715.0</ele><time>2026-04-19T15:03:52.194Z</time></trkpt><trkpt lat="44.0173601" lon="3.6124481"><ele>713.0</ele><time>2026-04-19T15:03:53.193Z</time></trkpt><trkpt lat="44.017248" lon="3.6125487"><ele>711.0</ele><time>2026-04-19T15:03:55.194Z</time></trkpt><trkpt lat="44.0171878" lon="3.6126076"><ele>709.8333333333334</ele><time>2026-04-19T15:03:56.193Z</time></trkpt><trkpt lat="44.0171226" lon="3.6126546"><ele>708.6666666666666</ele><time>2026-04-19T15:03:57.194Z</time></trkpt><trkpt lat="44.0170193" lon="3.6127017"><ele>707.5</ele><time>2026-04-19T15:03:59.194Z</time></trkpt><trkpt lat="44.0169404" lon="3.6127416"><ele>706.3333333333333</ele><time>2026-04-19T15:04:01.193Z</time></trkpt><trkpt lat="44.01689" lon="3.6128457"><ele>705.1666666666666</ele><time>2026-04-19T15:04:04.194Z</time></trkpt><trkpt lat="44.0169124" lon="3.612964"><ele>704.0</ele><time>2026-04-19T15:04:07.194Z</time></trkpt><trkpt lat="44.0169862" lon="3.6129963"><ele>700.6666666666666</ele><time>2026-04-19T15:04:09.193Z</time></trkpt><trkpt lat="44.0170711" lon="3.613037"><ele>697.3333333333333</ele><time>2026-04-19T15:04:11.194Z</time></trkpt><trkpt lat="44.0171343" lon="3.6130506"><ele>694.0</ele><time>2026-04-19T15:04:12.193Z</time></trkpt><trkpt lat="44.0172436" lon="3.6130629"><ele>690.6666666666666</ele><time>2026-04-19T15:04:14.194Z</time></trkpt><trkpt lat="44.0173084" lon="3.6130704"><ele>687.3333333333334</ele><time>2026-04-19T15:04:15.193Z</time></trkpt><trkpt lat="44.017378" lon="3.6130789"><ele>684.0</ele><time>2026-04-19T15:04:16.194Z</time></trkpt><trkpt lat="44.0174441" lon="3.6130881"><ele>686.4000000000001</ele><time>2026-04-19T15:04:17.193Z</time></trkpt><trkpt lat="44.0175683" lon="3.6130908"><ele>688.8</ele><time>2026-04-19T15:04:19.194Z</time></trkpt><trkpt lat="44.0176742" lon="3.6130862"><ele>691.2</ele><time>2026-04-19T15:04:21.193Z</time></trkpt><trkpt lat="44.0177769" lon="3.613081"><ele>693.5999999999999</ele><time>2026-04-19T15:04:23.193Z</time></trkpt><trkpt lat="44.0178403" lon="3.6130932"><ele>696.0</ele><time>2026-04-19T15:04:25.194Z</time></trkpt><trkpt lat="44.0178834" lon="3.6131611"><ele>696.0</ele><time>2026-04-19T15:04:27.193Z</time></trkpt><trkpt lat="44.0179358" lon="3.6133234"><ele>696.0</ele><time>2026-04-19T15:04:29.194Z</time></trkpt><trkpt lat="44.0179421" lon="3.6134109"><ele>696.0</ele><time>2026-04-19T15:04:30.193Z</time></trkpt><trkpt lat="44.0179233" lon="3.6135488"><ele>696.0</ele><time>2026-04-19T15:04:32.193Z</time></trkpt><trkpt lat="44.0178729" lon="3.6136457"><ele>696.0</ele><time>2026-04-19T15:04:34.194Z</time></trkpt><trkpt lat="44.0177848" lon="3.6136535"><ele>696.0</ele><time>2026-04-19T15:04:36.193Z</time></trkpt><trkpt lat="44.0176909" lon="3.6136443"><ele>696.0</ele><time>2026-04-19T15:04:37.193Z</time></trkpt><trkpt lat="44.0175998" lon="3.6136182"><ele>696.0</ele><time>2026-04-19T15:04:38.194Z</time></trkpt><trkpt lat="44.0174982" lon="3.6136022"><ele>696.0</ele><time>2026-04-19T15:04:39.194Z</time></trkpt><trkpt lat="44.0173986" lon="3.6136074"><ele>696.0</ele><time>2026-04-19T15:04:40.193Z</time></trkpt><trkpt lat="44.017294" lon="3.6135999"><ele>694.0</ele><time>2026-04-19T15:04:41.194Z</time></trkpt><trkpt lat="44.0172027" lon="3.6136018"><ele>692.0</ele><time>2026-04-19T15:04:42.194Z</time></trkpt><trkpt lat="44.0171224" lon="3.6136006"><ele>690.0</ele><time>2026-04-19T15:04:43.194Z</time></trkpt><trkpt lat="44.0170499" lon="3.613634"><ele>688.0</ele><time>2026-04-19T15:04:44.194Z</time></trkpt><trkpt lat="44.0169629" lon="3.6136315"><ele>686.0</ele><time>2026-04-19T15:04:45.194Z</time></trkpt><trkpt lat="44.01685" lon="3.6136071"><ele>684.0</ele><time>2026-04-19T15:04:47.194Z</time></trkpt><trkpt lat="44.0167134" lon="3.6135034"><ele>677.2</ele><time>2026-04-19T15:04:49.194Z</time></trkpt><trkpt lat="44.0165921" lon="3.613396"><ele>670.4000000000001</ele><time>2026-04-19T15:04:51.193Z</time></trkpt><trkpt lat="44.0165398" lon="3.613316"><ele>663.6</ele><time>2026-04-19T15:04:52.193Z</time></trkpt><trkpt lat="44.0164816" lon="3.613224"><ele>656.8</ele><time>2026-04-19T15:04:53.193Z</time></trkpt><trkpt lat="44.0164319" lon="3.613126"><ele>650.0</ele><time>2026-04-19T15:04:54.201Z</time></trkpt><trkpt lat="44.0163833" lon="3.6130549"><ele>650.0</ele><time>2026-04-19T15:04:55.201Z</time></trkpt><trkpt lat="44.0163377" lon="3.6129687"><ele>650.0</ele><time>2026-04-19T15:04:56.201Z</time></trkpt><trkpt lat="44.0162819" lon="3.6129071"><ele>650.0</ele><time>2026-04-19T15:04:57.201Z</time></trkpt><trkpt lat="44.0161491" lon="3.6127875"><ele>650.0</ele><time>2026-04-19T15:04:59.201Z</time></trkpt><trkpt lat="44.0160727" lon="3.6127323"><ele>650.0</ele><time>2026-04-19T15:05:00.202Z</time></trkpt><trkpt lat="44.0159941" lon="3.612677"><ele>648.0</ele><time>2026-04-19T15:05:01.201Z</time></trkpt><trkpt lat="44.0159195" lon="3.6125915"><ele>646.0</ele><time>2026-04-19T15:05:02.201Z</time></trkpt><trkpt lat="44.015815" lon="3.6125346"><ele>644.0</ele><time>2026-04-19T15:05:03.202Z</time></trkpt><trkpt lat="44.015715" lon="3.6124695"><ele>642.0</ele><time>2026-04-19T15:05:04.201Z</time></trkpt><trkpt lat="44.0156325" lon="3.6123847"><ele>640.0</ele><time>2026-04-19T15:05:05.201Z</time></trkpt><trkpt lat="44.0155531" lon="3.6123118"><ele>640.0</ele><time>2026-04-19T15:05:06.201Z</time></trkpt><trkpt lat="44.0154711" lon="3.6122209"><ele>640.0</ele><time>2026-04-19T15:05:07.201Z</time></trkpt><trkpt lat="44.0154379" lon="3.6121314"><ele>640.0</ele><time>2026-04-19T15:05:08.201Z</time></trkpt><trkpt lat="44.0153764" lon="3.6120109"><ele>640.0</ele><time>2026-04-19T15:05:09.201Z</time></trkpt><trkpt lat="44.0153161" lon="3.6118913"><ele>640.0</ele><time>2026-04-19T15:05:10.202Z</time></trkpt><trkpt lat="44.015262" lon="3.6117797"><ele>641.8333333333334</ele><time>2026-04-19T15:05:11.201Z</time></trkpt><trkpt lat="44.0152101" lon="3.6116975"><ele>643.6666666666667</ele><time>2026-04-19T15:05:12.201Z</time></trkpt><trkpt lat="44.0151755" lon="3.6116162"><ele>645.5</ele><time>2026-04-19T15:05:13.201Z</time></trkpt><trkpt lat="44.0151175" lon="3.6115321"><ele>647.3333333333334</ele><time>2026-04-19T15:05:14.201Z</time></trkpt><trkpt lat="44.0150574" lon="3.6114385"><ele>649.1666666666666</ele><time>2026-04-19T15:05:16.202Z</time></trkpt><trkpt lat="44.014977" lon="3.6113871"><ele>651.0</ele><time>2026-04-19T15:05:18.202Z</time></trkpt><trkpt lat="44.0148574" lon="3.6113288"><ele>651.0</ele><time>2026-04-19T15:05:20.202Z</time></trkpt><trkpt lat="44.0147906" lon="3.6113161"><ele>651.0</ele><time>2026-04-19T15:05:21.201Z</time></trkpt><trkpt lat="44.0146865" lon="3.6112777"><ele>651.0</ele><time>2026-04-19T15:05:22.202Z</time></trkpt><trkpt lat="44.0146297" lon="3.6111678"><ele>651.0</ele><time>2026-04-19T15:05:23.201Z</time></trkpt><trkpt lat="44.0145601" lon="3.6111256"><ele>651.0</ele><time>2026-04-19T15:05:24.201Z</time></trkpt><trkpt lat="44.0144892" lon="3.6110924"><ele>651.0</ele><time>2026-04-19T15:05:25.201Z</time></trkpt><trkpt lat="44.0144304" lon="3.6110517"><ele>653.4</ele><time>2026-04-19T15:05:26.202Z</time></trkpt><trkpt lat="44.0143456" lon="3.610952"><ele>655.8</ele><time>2026-04-19T15:05:28.201Z</time></trkpt><trkpt lat="44.0143178" lon="3.6107618"><ele>658.1999999999999</ele><time>2026-04-19T15:05:30.202Z</time></trkpt><trkpt lat="44.0143134" lon="3.6106375"><ele>660.5999999999999</ele><time>2026-04-19T15:05:31.201Z</time></trkpt><trkpt lat="44.0143092" lon="3.6105087"><ele>663.0</ele><time>2026-04-19T15:05:32.202Z</time></trkpt><trkpt lat="44.0142972" lon="3.6103866"><ele>663.1666666666666</ele><time>2026-04-19T15:05:33.202Z</time></trkpt><trkpt lat="44.0142809" lon="3.6102724"><ele>663.3333333333334</ele><time>2026-04-19T15:05:34.201Z</time></trkpt><trkpt lat="44.0142679" lon="3.6101502"><ele>663.5</ele><time>2026-04-19T15:05:35.201Z</time></trkpt><trkpt lat="44.0142295" lon="3.6100347"><ele>663.6666666666667</ele><time>2026-04-19T15:05:36.201Z</time></trkpt><trkpt lat="44.0141941" lon="3.6099279"><ele>663.8333333333334</ele><time>2026-04-19T15:05:37.202Z</time></trkpt><trkpt lat="44.0141545" lon="3.6098208"><ele>664.0</ele><time>2026-04-19T15:05:38.202Z</time></trkpt><trkpt lat="44.0141146" lon="3.6097099"><ele>657.0</ele><time>2026-04-19T15:05:39.201Z</time></trkpt><trkpt lat="44.0140842" lon="3.6096014"><ele>650.0</ele><time>2026-04-19T15:05:40.201Z</time></trkpt><trkpt lat="44.0140558" lon="3.6094863"><ele>643.0</ele><time>2026-04-19T15:05:41.201Z</time></trkpt><trkpt lat="44.0140465" lon="3.6093563"><ele>636.0</ele><time>2026-04-19T15:05:42.201Z</time></trkpt><trkpt lat="44.0140396" lon="3.6092215"><ele>629.0</ele><time>2026-04-19T15:05:43.201Z</time></trkpt><trkpt lat="44.0140258" lon="3.6090857"><ele>629.0</ele><time>2026-04-19T15:05:44.202Z</time></trkpt><trkpt lat="44.0140051" lon="3.6089495"><ele>629.0</ele><time>2026-04-19T15:05:45.201Z</time></trkpt><trkpt lat="44.0139599" lon="3.6088278"><ele>629.0</ele><time>2026-04-19T15:05:46.201Z</time></trkpt><trkpt lat="44.0139258" lon="3.6087199"><ele>629.0</ele><time>2026-04-19T15:05:47.201Z</time></trkpt><trkpt lat="44.0138958" lon="3.6086102"><ele>629.0</ele><time>2026-04-19T15:05:48.201Z</time></trkpt><trkpt lat="44.0138766" lon="3.6085081"><ele>629.0</ele><time>2026-04-19T15:05:49.201Z</time></trkpt><trkpt lat="44.013852" lon="3.6084182"><ele>631.6</ele><time>2026-04-19T15:05:50.202Z</time></trkpt><trkpt lat="44.0137853" lon="3.6082952"><ele>634.2</ele><time>2026-04-19T15:05:52.202Z</time></trkpt><trkpt lat="44.0136965" lon="3.608223"><ele>636.8000000000001</ele><time>2026-04-19T15:05:54.201Z</time></trkpt><trkpt lat="44.0136032" lon="3.6082119"><ele>639.4</ele><time>2026-04-19T15:05:55.202Z</time></trkpt><trkpt lat="44.0135086" lon="3.6081963"><ele>642.0</ele><time>2026-04-19T15:05:56.201Z</time></trkpt><trkpt lat="44.0133922" lon="3.6081785"><ele>635.25</ele><time>2026-04-19T15:05:57.201Z</time></trkpt><trkpt lat="44.0132845" lon="3.6081382"><ele>628.5</ele><time>2026-04-19T15:05:58.201Z</time></trkpt><trkpt lat="44.0131638" lon="3.6080885"><ele>621.75</ele><time>2026-04-19T15:05:59.201Z</time></trkpt><trkpt lat="44.013026" lon="3.6080261"><ele>615.0</ele><time>2026-04-19T15:06:00.201Z</time></trkpt><trkpt lat="44.0129172" lon="3.6079554"><ele>615.0</ele><time>2026-04-19T15:06:01.201Z</time></trkpt><trkpt lat="44.0128418" lon="3.6078595"><ele>615.0</ele><time>2026-04-19T15:06:02.202Z</time></trkpt><trkpt lat="44.0128644" lon="3.6077333"><ele>615.0</ele><time>2026-04-19T15:06:03.202Z</time></trkpt><trkpt lat="44.0128513" lon="3.6075938"><ele>615.0</ele><time>2026-04-19T15:06:05.202Z</time></trkpt><trkpt lat="44.012775" lon="3.6075102"><ele>615.0</ele><time>2026-04-19T15:06:06.202Z</time></trkpt><trkpt lat="44.0127266" lon="3.6074483"><ele>613.8333333333334</ele><time>2026-04-19T15:06:07.201Z</time></trkpt><trkpt lat="44.0126732" lon="3.6073902"><ele>612.6666666666666</ele><time>2026-04-19T15:06:08.201Z</time></trkpt><trkpt lat="44.0126038" lon="3.607341"><ele>611.5</ele><time>2026-04-19T15:06:09.201Z</time></trkpt><trkpt lat="44.0125522" lon="3.6072724"><ele>610.3333333333333</ele><time>2026-04-19T15:06:10.201Z</time></trkpt><trkpt lat="44.0124888" lon="3.607209"><ele>609.1666666666666</ele><time>2026-04-19T15:06:11.201Z</time></trkpt><trkpt lat="44.0124251" lon="3.6071431"><ele>608.0</ele><time>2026-04-19T15:06:12.201Z</time></trkpt><trkpt lat="44.0123725" lon="3.6070533"><ele>608.6</ele><time>2026-04-19T15:06:13.201Z</time></trkpt><trkpt lat="44.0123388" lon="3.6069663"><ele>609.1999999999999</ele><time>2026-04-19T15:06:14.201Z</time></trkpt><trkpt lat="44.0122864" lon="3.6068183"><ele>609.8</ele><time>2026-04-19T15:06:15.201Z</time></trkpt><trkpt lat="44.0122481" lon="3.6067"><ele>610.4</ele><time>2026-04-19T15:06:16.201Z</time></trkpt><trkpt lat="44.0122213" lon="3.6065723"><ele>611.0</ele><time>2026-04-19T15:06:17.201Z</time></trkpt><trkpt lat="44.0122057" lon="3.6064362"><ele>611.0</ele><time>2026-04-19T15:06:18.201Z</time></trkpt><trkpt lat="44.0122138" lon="3.6063433"><ele>611.0</ele><time>2026-04-19T15:06:19.201Z</time></trkpt><trkpt lat="44.0122448" lon="3.6062143"><ele>611.0</ele><time>2026-04-19T15:06:21.202Z</time></trkpt><trkpt lat="44.0122405" lon="3.6060528"><ele>611.0</ele><time>2026-04-19T15:06:23.202Z</time></trkpt><trkpt lat="44.012225" lon="3.6059336"><ele>611.0</ele><time>2026-04-19T15:06:24.201Z</time></trkpt><trkpt lat="44.01214" lon="3.6057916"><ele>613.0</ele><time>2026-04-19T15:06:25.201Z</time></trkpt><trkpt lat="44.0120849" lon="3.6057326"><ele>615.0</ele><time>2026-04-19T15:06:26.201Z</time></trkpt><trkpt lat="44.0120027" lon="3.6056968"><ele>617.0</ele><time>2026-04-19T15:06:27.201Z</time></trkpt><trkpt lat="44.0119336" lon="3.6056676"><ele>619.0</ele><time>2026-04-19T15:06:28.202Z</time></trkpt><trkpt lat="44.0118622" lon="3.6056162"><ele>621.0</ele><time>2026-04-19T15:06:29.201Z</time></trkpt><trkpt lat="44.0118025" lon="3.6055497"><ele>623.0</ele><time>2026-04-19T15:06:30.202Z</time></trkpt><trkpt lat="44.0117437" lon="3.6054698"><ele>623.0</ele><time>2026-04-19T15:06:31.202Z</time></trkpt><trkpt lat="44.0116908" lon="3.6053926"><ele>623.0</ele><time>2026-04-19T15:06:32.201Z</time></trkpt><trkpt lat="44.0116382" lon="3.6052959"><ele>623.0</ele><time>2026-04-19T15:06:33.202Z</time></trkpt><trkpt lat="44.0115989" lon="3.6051929"><ele>623.0</ele><time>2026-04-19T15:06:34.201Z</time></trkpt><trkpt lat="44.0115729" lon="3.6050732"><ele>623.0</ele><time>2026-04-19T15:06:35.202Z</time></trkpt><trkpt lat="44.011553" lon="3.6049648"><ele>623.0</ele><time>2026-04-19T15:06:36.201Z</time></trkpt><trkpt lat="44.0115454" lon="3.6048476"><ele>620.0</ele><time>2026-04-19T15:06:37.201Z</time></trkpt><trkpt lat="44.011559" lon="3.6047313"><ele>617.0</ele><time>2026-04-19T15:06:38.202Z</time></trkpt><trkpt lat="44.011581" lon="3.604623"><ele>614.0</ele><time>2026-04-19T15:06:39.202Z</time></trkpt><trkpt lat="44.0116059" lon="3.6045425"><ele>611.0</ele><time>2026-04-19T15:06:40.202Z</time></trkpt><trkpt lat="44.0115802" lon="3.6044075"><ele>608.0</ele><time>2026-04-19T15:06:42.201Z</time></trkpt><trkpt lat="44.0114957" lon="3.6043294"><ele>605.0</ele><time>2026-04-19T15:06:44.201Z</time></trkpt><trkpt lat="44.0113761" lon="3.6042732"><ele>605.0</ele><time>2026-04-19T15:06:46.202Z</time></trkpt><trkpt lat="44.0113197" lon="3.6042318"><ele>605.0</ele><time>2026-04-19T15:06:47.201Z</time></trkpt><trkpt lat="44.0112588" lon="3.6041914"><ele>605.0</ele><time>2026-04-19T15:06:48.201Z</time></trkpt><trkpt lat="44.0111972" lon="3.6041355"><ele>605.0</ele><time>2026-04-19T15:06:49.202Z</time></trkpt><trkpt lat="44.0111408" lon="3.6040522"><ele>605.0</ele><time>2026-04-19T15:06:50.202Z</time></trkpt><trkpt lat="44.0110824" lon="3.6039621"><ele>605.0</ele><time>2026-04-19T15:06:51.202Z</time></trkpt><trkpt lat="44.0110247" lon="3.6038576"><ele>605.0</ele><time>2026-04-19T15:06:52.201Z</time></trkpt><trkpt lat="44.0109742" lon="3.6037548"><ele>605.0</ele><time>2026-04-19T15:06:53.201Z</time></trkpt><trkpt lat="44.0109327" lon="3.6036408"><ele>605.0</ele><time>2026-04-19T15:06:54.2Z</time></trkpt><trkpt lat="44.0108924" lon="3.6035409"><ele>605.0</ele><time>2026-04-19T15:06:55.2Z</time></trkpt><trkpt lat="44.0108672" lon="3.6034355"><ele>605.0</ele><time>2026-04-19T15:06:56.201Z</time></trkpt><trkpt lat="44.0108555" lon="3.60334"><ele>605.0</ele><time>2026-04-19T15:06:57.2Z</time></trkpt><trkpt lat="44.0108657" lon="3.6032336"><ele>607.5</ele><time>2026-04-19T15:06:58.2Z</time></trkpt><trkpt lat="44.0108667" lon="3.6031379"><ele>610.0</ele><time>2026-04-19T15:06:59.2Z</time></trkpt><trkpt lat="44.0108108" lon="3.6029861"><ele>612.5</ele><time>2026-04-19T15:07:01.201Z</time></trkpt><trkpt lat="44.0107637" lon="3.6029115"><ele>615.0</ele><time>2026-04-19T15:07:02.2Z</time></trkpt><trkpt lat="44.0107145" lon="3.6028396"><ele>617.5</ele><time>2026-04-19T15:07:03.2Z</time></trkpt><trkpt lat="44.0106593" lon="3.6027761"><ele>620.0</ele><time>2026-04-19T15:07:04.2Z</time></trkpt><trkpt lat="44.0105512" lon="3.6027759"><ele>620.0</ele><time>2026-04-19T15:07:06.2Z</time></trkpt><trkpt lat="44.0104532" lon="3.6028826"><ele>620.0</ele><time>2026-04-19T15:07:08.2Z</time></trkpt><trkpt lat="44.0104092" lon="3.6029509"><ele>620.0</ele><time>2026-04-19T15:07:09.2Z</time></trkpt><trkpt lat="44.0103568" lon="3.6030394"><ele>620.0</ele><time>2026-04-19T15:07:10.201Z</time></trkpt><trkpt lat="44.010284" lon="3.6031517"><ele>620.0</ele><time>2026-04-19T15:07:11.2Z</time></trkpt><trkpt lat="44.0102099" lon="3.6032674"><ele>620.0</ele><time>2026-04-19T15:07:12.2Z</time></trkpt><trkpt lat="44.0101335" lon="3.6033681"><ele>620.0</ele><time>2026-04-19T15:07:13.201Z</time></trkpt><trkpt lat="44.010065" lon="3.603463"><ele>620.0</ele><time>2026-04-19T15:07:14.2Z</time></trkpt><trkpt lat="44.0099928" lon="3.6035631"><ele>620.0</ele><time>2026-04-19T15:07:15.2Z</time></trkpt><trkpt lat="44.0099285" lon="3.6036397"><ele>620.0</ele><time>2026-04-19T15:07:16.2Z</time></trkpt><trkpt lat="44.0098519" lon="3.6036961"><ele>619.5</ele><time>2026-04-19T15:07:17.2Z</time></trkpt><trkpt lat="44.0097773" lon="3.6037543"><ele>619.0</ele><time>2026-04-19T15:07:18.201Z</time></trkpt><trkpt lat="44.0097007" lon="3.6038039"><ele>618.5</ele><time>2026-04-19T15:07:19.2Z</time></trkpt><trkpt lat="44.0096276" lon="3.6038719"><ele>618.0</ele><time>2026-04-19T15:07:20.2Z</time></trkpt><trkpt lat="44.0095665" lon="3.6039555"><ele>617.5</ele><time>2026-04-19T15:07:21.2Z</time></trkpt><trkpt lat="44.0095059" lon="3.6040497"><ele>617.0</ele><time>2026-04-19T15:07:22.2Z</time></trkpt><trkpt lat="44.0094556" lon="3.6041612"><ele>617.0</ele><time>2026-04-19T15:07:23.2Z</time></trkpt><trkpt lat="44.0093998" lon="3.60428"><ele>617.0</ele><time>2026-04-19T15:07:24.201Z</time></trkpt><trkpt lat="44.0093521" lon="3.6044049"><ele>617.0</ele><time>2026-04-19T15:07:25.2Z</time></trkpt><trkpt lat="44.0093099" lon="3.6045269"><ele>617.0</ele><time>2026-04-19T15:07:26.2Z</time></trkpt><trkpt lat="44.0092742" lon="3.6046388"><ele>617.0</ele><time>2026-04-19T15:07:27.2Z</time></trkpt><trkpt lat="44.0092424" lon="3.6047468"><ele>619.1666666666666</ele><time>2026-04-19T15:07:28.201Z</time></trkpt><trkpt lat="44.009196" lon="3.6048384"><ele>621.3333333333333</ele><time>2026-04-19T15:07:29.201Z</time></trkpt><trkpt lat="44.0091527" lon="3.6049146"><ele>623.5</ele><time>2026-04-19T15:07:30.2Z</time></trkpt><trkpt lat="44.0091047" lon="3.6049851"><ele>625.6666666666666</ele><time>2026-04-19T15:07:31.201Z</time></trkpt><trkpt lat="44.0090465" lon="3.6050527"><ele>627.8333333333334</ele><time>2026-04-19T15:07:32.2Z</time></trkpt><trkpt lat="44.0089856" lon="3.6051229"><ele>630.0</ele><time>2026-04-19T15:07:33.2Z</time></trkpt><trkpt lat="44.0089395" lon="3.6052322"><ele>626.4</ele><time>2026-04-19T15:07:34.201Z</time></trkpt><trkpt lat="44.008912" lon="3.6053578"><ele>622.8</ele><time>2026-04-19T15:07:35.201Z</time></trkpt><trkpt lat="44.0088853" lon="3.6054855"><ele>619.2</ele><time>2026-04-19T15:07:36.2Z</time></trkpt><trkpt lat="44.0088513" lon="3.6056144"><ele>615.6</ele><time>2026-04-19T15:07:37.2Z</time></trkpt><trkpt lat="44.0087956" lon="3.6057523"><ele>612.0</ele><time>2026-04-19T15:07:38.2Z</time></trkpt><trkpt lat="44.0087549" lon="3.6058825"><ele>612.0</ele><time>2026-04-19T15:07:39.201Z</time></trkpt><trkpt lat="44.0087193" lon="3.606006"><ele>612.0</ele><time>2026-04-19T15:07:40.2Z</time></trkpt><trkpt lat="44.0086758" lon="3.6061172"><ele>612.0</ele><time>2026-04-19T15:07:41.2Z</time></trkpt><trkpt lat="44.0086305" lon="3.606216"><ele>612.0</ele><time>2026-04-19T15:07:42.2Z</time></trkpt><trkpt lat="44.0085735" lon="3.6063344"><ele>612.0</ele><time>2026-04-19T15:07:43.201Z</time></trkpt><trkpt lat="44.0085076" lon="3.6064256"><ele>609.5</ele><time>2026-04-19T15:07:44.201Z</time></trkpt><trkpt lat="44.0084471" lon="3.6064927"><ele>607.0</ele><time>2026-04-19T15:07:45.2Z</time></trkpt><trkpt lat="44.0083738" lon="3.6066099"><ele>604.5</ele><time>2026-04-19T15:07:47.2Z</time></trkpt><trkpt lat="44.0083724" lon="3.6067284"><ele>602.0</ele><time>2026-04-19T15:07:49.2Z</time></trkpt><trkpt lat="44.0084444" lon="3.6067848"><ele>599.5</ele><time>2026-04-19T15:07:51.2Z</time></trkpt><trkpt lat="44.0084986" lon="3.606728"><ele>597.0</ele><time>2026-04-19T15:07:53.201Z</time></trkpt><trkpt lat="44.0085388" lon="3.6065856"><ele>597.0</ele><time>2026-04-19T15:07:55.2Z</time></trkpt><trkpt lat="44.0085757" lon="3.6064996"><ele>597.0</ele><time>2026-04-19T15:07:56.201Z</time></trkpt><trkpt lat="44.0086208" lon="3.6064259"><ele>597.0</ele><time>2026-04-19T15:07:57.2Z</time></trkpt><trkpt lat="44.0086863" lon="3.6063273"><ele>597.0</ele><time>2026-04-19T15:07:58.201Z</time></trkpt><trkpt lat="44.0087451" lon="3.6062166"><ele>597.0</ele><time>2026-04-19T15:07:59.201Z</time></trkpt><trkpt lat="44.0088003" lon="3.6061125"><ele>597.0</ele><time>2026-04-19T15:08:00.2Z</time></trkpt><trkpt lat="44.0088348" lon="3.6060068"><ele>599.5</ele><time>2026-04-19T15:08:01.2Z</time></trkpt><trkpt lat="44.0088812" lon="3.6059059"><ele>602.0</ele><time>2026-04-19T15:08:02.201Z</time></trkpt><trkpt lat="44.0089242" lon="3.6058193"><ele>604.5</ele><time>2026-04-19T15:08:03.201Z</time></trkpt><trkpt lat="44.0089591" lon="3.605736"><ele>607.0</ele><time>2026-04-19T15:08:04.2Z</time></trkpt><trkpt lat="44.0089805" lon="3.605643"><ele>609.5</ele><time>2026-04-19T15:08:05.201Z</time></trkpt><trkpt lat="44.0089902" lon="3.6055074"><ele>612.0</ele><time>2026-04-19T15:08:07.201Z</time></trkpt><trkpt lat="44.0090804" lon="3.605575"><ele>612.0</ele><time>2026-04-19T15:08:11.2Z</time></trkpt><trkpt lat="44.0090887" lon="3.6057097"><ele>612.0</ele><time>2026-04-19T15:08:13.2Z</time></trkpt><trkpt lat="44.0090499" lon="3.6058978"><ele>612.0</ele><time>2026-04-19T15:08:15.201Z</time></trkpt><trkpt lat="44.0089954" lon="3.6060281"><ele>612.0</ele><time>2026-04-19T15:08:16.2Z</time></trkpt><trkpt lat="44.0089601" lon="3.606132"><ele>612.0</ele><time>2026-04-19T15:08:17.2Z</time></trkpt><trkpt lat="44.0089385" lon="3.606247"><ele>609.0</ele><time>2026-04-19T15:08:18.2Z</time></trkpt><trkpt lat="44.0089092" lon="3.6063602"><ele>606.0</ele><time>2026-04-19T15:08:19.2Z</time></trkpt><trkpt lat="44.0088812" lon="3.6064883"><ele>603.0</ele><time>2026-04-19T15:08:20.2Z</time></trkpt><trkpt lat="44.0088564" lon="3.6066563"><ele>600.0</ele><time>2026-04-19T15:08:21.2Z</time></trkpt><trkpt lat="44.0088398" lon="3.6067966"><ele>597.0</ele><time>2026-04-19T15:08:22.2Z</time></trkpt><trkpt lat="44.0088322" lon="3.6069414"><ele>593.6</ele><time>2026-04-19T15:08:23.2Z</time></trkpt><trkpt lat="44.0088267" lon="3.6070758"><ele>590.2</ele><time>2026-04-19T15:08:24.201Z</time></trkpt><trkpt lat="44.0088217" lon="3.6072102"><ele>586.8</ele><time>2026-04-19T15:08:25.2Z</time></trkpt><trkpt lat="44.0088081" lon="3.6073457"><ele>583.4</ele><time>2026-04-19T15:08:26.2Z</time></trkpt><trkpt lat="44.008786" lon="3.6074751"><ele>580.0</ele><time>2026-04-19T15:08:27.201Z</time></trkpt><trkpt lat="44.0087736" lon="3.6076057"><ele>580.0</ele><time>2026-04-19T15:08:28.2Z</time></trkpt><trkpt lat="44.0087815" lon="3.6077257"><ele>580.0</ele><time>2026-04-19T15:08:29.2Z</time></trkpt><trkpt lat="44.0087778" lon="3.6078608"><ele>580.0</ele><time>2026-04-19T15:08:30.201Z</time></trkpt><trkpt lat="44.0087764" lon="3.6079833"><ele>580.0</ele><time>2026-04-19T15:08:31.2Z</time></trkpt><trkpt lat="44.0087785" lon="3.6080998"><ele>580.0</ele><time>2026-04-19T15:08:32.201Z</time></trkpt><trkpt lat="44.0087586" lon="3.6082195"><ele>580.0</ele><time>2026-04-19T15:08:33.201Z</time></trkpt><trkpt lat="44.0087273" lon="3.6082998"><ele>577.6666666666667</ele><time>2026-04-19T15:08:34.2Z</time></trkpt><trkpt lat="44.0086909" lon="3.6083936"><ele>575.3333333333334</ele><time>2026-04-19T15:08:35.2Z</time></trkpt><trkpt lat="44.0086486" lon="3.6084883"><ele>573.0</ele><time>2026-04-19T15:08:36.2Z</time></trkpt><trkpt lat="44.008606" lon="3.6085868"><ele>570.6666666666666</ele><time>2026-04-19T15:08:37.2Z</time></trkpt><trkpt lat="44.0085643" lon="3.6086891"><ele>568.3333333333333</ele><time>2026-04-19T15:08:38.201Z</time></trkpt><trkpt lat="44.0085298" lon="3.608775"><ele>566.0</ele><time>2026-04-19T15:08:39.2Z</time></trkpt><trkpt lat="44.0084963" lon="3.6088669"><ele>564.1666666666666</ele><time>2026-04-19T15:08:40.2Z</time></trkpt><trkpt lat="44.0084588" lon="3.6089408"><ele>562.3333333333333</ele><time>2026-04-19T15:08:41.201Z</time></trkpt><trkpt lat="44.0084197" lon="3.609027"><ele>560.5</ele><time>2026-04-19T15:08:43.201Z</time></trkpt><trkpt lat="44.0083981" lon="3.6091342"><ele>558.6666666666666</ele><time>2026-04-19T15:08:46.2Z</time></trkpt><trkpt lat="44.0083726" lon="3.6092561"><ele>556.8333333333334</ele><time>2026-04-19T15:08:49.2Z</time></trkpt><trkpt lat="44.0083154" lon="3.609371"><ele>555.0</ele><time>2026-04-19T15:08:51.201Z</time></trkpt><trkpt lat="44.0082625" lon="3.6094482"><ele>551.8333333333334</ele><time>2026-04-19T15:08:52.201Z</time></trkpt><trkpt lat="44.00821" lon="3.6095442"><ele>548.6666666666666</ele><time>2026-04-19T15:08:53.201Z</time></trkpt><trkpt lat="44.0081646" lon="3.6096356"><ele>545.5</ele><time>2026-04-19T15:08:54.201Z</time></trkpt><trkpt lat="44.0081222" lon="3.6097425"><ele>542.3333333333333</ele><time>2026-04-19T15:08:55.2Z</time></trkpt><trkpt lat="44.0080738" lon="3.6098293"><ele>539.1666666666666</ele><time>2026-04-19T15:08:56.2Z</time></trkpt><trkpt lat="44.0080295" lon="3.609914"><ele>536.0</ele><time>2026-04-19T15:08:57.201Z</time></trkpt><trkpt lat="44.0079847" lon="3.6099974"><ele>536.0</ele><time>2026-04-19T15:08:58.201Z</time></trkpt><trkpt lat="44.0079391" lon="3.6100907"><ele>536.0</ele><time>2026-04-19T15:08:59.2Z</time></trkpt><trkpt lat="44.0078908" lon="3.6101761"><ele>536.0</ele><time>2026-04-19T15:09:00.2Z</time></trkpt><trkpt lat="44.007842" lon="3.6102586"><ele>536.0</ele><time>2026-04-19T15:09:01.201Z</time></trkpt><trkpt lat="44.0077962" lon="3.6103318"><ele>536.0</ele><time>2026-04-19T15:09:02.2Z</time></trkpt><trkpt lat="44.0077207" lon="3.6104494"><ele>536.0</ele><time>2026-04-19T15:09:04.2Z</time></trkpt><trkpt lat="44.0076572" lon="3.6105252"><ele>534.8</ele><time>2026-04-19T15:09:19.201Z</time></trkpt><trkpt lat="44.0075689" lon="3.6106556"><ele>533.6</ele><time>2026-04-19T15:09:21.2Z</time></trkpt><trkpt lat="44.0074871" lon="3.6107257"><ele>532.4</ele><time>2026-04-19T15:09:22.201Z</time></trkpt><trkpt lat="44.0073966" lon="3.6107701"><ele>531.2</ele><time>2026-04-19T15:09:23.201Z</time></trkpt><trkpt lat="44.007295" lon="3.6108177"><ele>530.0</ele><time>2026-04-19T15:09:24.2Z</time></trkpt><trkpt lat="44.007189" lon="3.6109393"><ele>530.0</ele><time>2026-04-19T15:09:25.2Z</time></trkpt><trkpt lat="44.0071146" lon="3.611078"><ele>530.0</ele><time>2026-04-19T15:09:26.201Z</time></trkpt><trkpt lat="44.0070595" lon="3.6112144"><ele>530.0</ele><time>2026-04-19T15:09:27.201Z</time></trkpt><trkpt lat="44.0070119" lon="3.611332"><ele>530.0</ele><time>2026-04-19T15:09:28.2Z</time></trkpt><trkpt lat="44.0069328" lon="3.6113836"><ele>530.0</ele><time>2026-04-19T15:09:29.2Z</time></trkpt><trkpt lat="44.0068638" lon="3.6113985"><ele>530.0</ele><time>2026-04-19T15:09:30.2Z</time></trkpt><trkpt lat="44.0067946" lon="3.6113457"><ele>530.0</ele><time>2026-04-19T15:09:31.2Z</time></trkpt><trkpt lat="44.0067573" lon="3.6112407"><ele>530.0</ele><time>2026-04-19T15:09:32.2Z</time></trkpt><trkpt lat="44.0067758" lon="3.6111303"><ele>530.0</ele><time>2026-04-19T15:09:33.2Z</time></trkpt><trkpt lat="44.0068175" lon="3.6110028"><ele>530.0</ele><time>2026-04-19T15:09:34.2Z</time></trkpt><trkpt lat="44.0068986" lon="3.6108996"><ele>530.0</ele><time>2026-04-19T15:09:35.201Z</time></trkpt><trkpt lat="44.0070093" lon="3.6107884"><ele>530.0</ele><time>2026-04-19T15:09:36.2Z</time></trkpt><trkpt lat="44.0071161" lon="3.6106622"><ele>530.0</ele><time>2026-04-19T15:09:37.2Z</time></trkpt><trkpt lat="44.0072312" lon="3.6105304"><ele>530.0</ele><time>2026-04-19T15:09:38.2Z</time></trkpt><trkpt lat="44.0073502" lon="3.6104231"><ele>531.5</ele><time>2026-04-19T15:09:39.2Z</time></trkpt><trkpt lat="44.0074734" lon="3.6102874"><ele>533.0</ele><time>2026-04-19T15:09:40.201Z</time></trkpt><trkpt lat="44.0075759" lon="3.6101369"><ele>534.5</ele><time>2026-04-19T15:09:41.201Z</time></trkpt><trkpt lat="44.0076518" lon="3.609985"><ele>536.0</ele><time>2026-04-19T15:09:42.201Z</time></trkpt><trkpt lat="44.0077047" lon="3.6098497"><ele>536.0</ele><time>2026-04-19T15:09:43.2Z</time></trkpt><trkpt lat="44.0077164" lon="3.6097103"><ele>536.0</ele><time>2026-04-19T15:09:44.2Z</time></trkpt><trkpt lat="44.0076885" lon="3.6095614"><ele>536.0</ele><time>2026-04-19T15:09:45.2Z</time></trkpt><trkpt lat="44.0076329" lon="3.6094525"><ele>536.0</ele><time>2026-04-19T15:09:46.201Z</time></trkpt><trkpt lat="44.0075524" lon="3.6094077"><ele>536.0</ele><time>2026-04-19T15:09:47.201Z</time></trkpt><trkpt lat="44.0074372" lon="3.6093864"><ele>533.25</ele><time>2026-04-19T15:09:48.201Z</time></trkpt><trkpt lat="44.0073114" lon="3.6093851"><ele>530.5</ele><time>2026-04-19T15:09:49.2Z</time></trkpt><trkpt lat="44.0071917" lon="3.6093632"><ele>527.75</ele><time>2026-04-19T15:09:50.2Z</time></trkpt><trkpt lat="44.0070751" lon="3.6093271"><ele>525.0</ele><time>2026-04-19T15:09:51.201Z</time></trkpt><trkpt lat="44.006952" lon="3.6092836"><ele>525.0</ele><time>2026-04-19T15:09:52.201Z</time></trkpt><trkpt lat="44.0068359" lon="3.6091986"><ele>525.0</ele><time>2026-04-19T15:09:53.201Z</time></trkpt><trkpt lat="44.0067467" lon="3.6090807"><ele>525.0</ele><time>2026-04-19T15:09:54.2Z</time></trkpt><trkpt lat="44.006672" lon="3.6089365"><ele>525.0</ele><time>2026-04-19T15:09:55.201Z</time></trkpt><trkpt lat="44.0065982" lon="3.6087908"><ele>521.25</ele><time>2026-04-19T15:09:56.2Z</time></trkpt><trkpt lat="44.0065281" lon="3.6086624"><ele>517.5</ele><time>2026-04-19T15:09:57.2Z</time></trkpt><trkpt lat="44.0064426" lon="3.6085494"><ele>513.75</ele><time>2026-04-19T15:09:58.2Z</time></trkpt><trkpt lat="44.0063403" lon="3.6084674"><ele>510.0</ele><time>2026-04-19T15:09:59.2Z</time></trkpt><trkpt lat="44.0062419" lon="3.6083917"><ele>510.0</ele><time>2026-04-19T15:10:00.201Z</time></trkpt><trkpt lat="44.0061388" lon="3.6083015"><ele>510.0</ele><time>2026-04-19T15:10:01.2Z</time></trkpt><trkpt lat="44.0060326" lon="3.6081795"><ele>510.0</ele><time>2026-04-19T15:10:02.2Z</time></trkpt><trkpt lat="44.0059338" lon="3.6080365"><ele>510.0</ele><time>2026-04-19T15:10:03.2Z</time></trkpt><trkpt lat="44.0058395" lon="3.6078753"><ele>502.5</ele><time>2026-04-19T15:10:04.2Z</time></trkpt><trkpt lat="44.0057639" lon="3.6076818"><ele>495.0</ele><time>2026-04-19T15:10:05.201Z</time></trkpt><trkpt lat="44.0057095" lon="3.6074841"><ele>487.5</ele><time>2026-04-19T15:10:06.201Z</time></trkpt><trkpt lat="44.0056821" lon="3.607299"><ele>480.0</ele><time>2026-04-19T15:10:07.201Z</time></trkpt><trkpt lat="44.0056754" lon="3.6070994"><ele>483.33333333333337</ele><time>2026-04-19T15:10:08.201Z</time></trkpt><trkpt lat="44.0056755" lon="3.6068898"><ele>486.6666666666667</ele><time>2026-04-19T15:10:09.2Z</time></trkpt><trkpt lat="44.0056561" lon="3.6066872"><ele>490.0</ele><time>2026-04-19T15:10:10.2Z</time></trkpt><trkpt lat="44.005603" lon="3.6064869"><ele>490.0</ele><time>2026-04-19T15:10:11.201Z</time></trkpt><trkpt lat="44.0055142" lon="3.6063259"><ele>490.0</ele><time>2026-04-19T15:10:12.201Z</time></trkpt><trkpt lat="44.0054141" lon="3.6061618"><ele>490.0</ele><time>2026-04-19T15:10:13.2Z</time></trkpt><trkpt lat="44.0053079" lon="3.6059961"><ele>487.0</ele><time>2026-04-19T15:10:14.201Z</time></trkpt><trkpt lat="44.005204" lon="3.6058375"><ele>484.0</ele><time>2026-04-19T15:10:15.2Z</time></trkpt><trkpt lat="44.0050948" lon="3.6056808"><ele>481.0</ele><time>2026-04-19T15:10:16.201Z</time></trkpt><trkpt lat="44.0049742" lon="3.6055297"><ele>481.0</ele><time>2026-04-19T15:10:17.2Z</time></trkpt><trkpt lat="44.0048286" lon="3.6053845"><ele>481.0</ele><time>2026-04-19T15:10:18.201Z</time></trkpt><trkpt lat="44.0046467" lon="3.6052341"><ele>481.0</ele><time>2026-04-19T15:10:19.201Z</time></trkpt><trkpt lat="44.0044525" lon="3.6050854"><ele>481.6666666666667</ele><time>2026-04-19T15:10:20.2Z</time></trkpt><trkpt lat="44.0042691" lon="3.6049543"><ele>482.33333333333337</ele><time>2026-04-19T15:10:21.2Z</time></trkpt><trkpt lat="44.0041188" lon="3.604849"><ele>483.0</ele><time>2026-04-19T15:10:22.2Z</time></trkpt><trkpt lat="44.0039991" lon="3.6047552"><ele>483.0</ele><time>2026-04-19T15:10:23.2Z</time></trkpt><trkpt lat="44.0038812" lon="3.6046532"><ele>483.0</ele><time>2026-04-19T15:10:24.2Z</time></trkpt><trkpt lat="44.0037468" lon="3.6045845"><ele>483.0</ele><time>2026-04-19T15:10:25.201Z</time></trkpt><trkpt lat="44.0035765" lon="3.6045723"><ele>483.0</ele><time>2026-04-19T15:10:26.201Z</time></trkpt><trkpt lat="44.0033689" lon="3.6046129"><ele>483.0</ele><time>2026-04-19T15:10:27.2Z</time></trkpt><trkpt lat="44.003169" lon="3.6046018"><ele>483.0</ele><time>2026-04-19T15:10:28.2Z</time></trkpt><trkpt lat="44.0029833" lon="3.6045747"><ele>480.33333333333337</ele><time>2026-04-19T15:10:29.201Z</time></trkpt><trkpt lat="44.0028238" lon="3.6045157"><ele>477.6666666666667</ele><time>2026-04-19T15:10:30.201Z</time></trkpt><trkpt lat="44.0026809" lon="3.6044537"><ele>475.0</ele><time>2026-04-19T15:10:31.201Z</time></trkpt><trkpt lat="44.0025516" lon="3.6043644"><ele>475.25</ele><time>2026-04-19T15:10:32.201Z</time></trkpt><trkpt lat="44.0024591" lon="3.6042296"><ele>475.5</ele><time>2026-04-19T15:10:33.201Z</time></trkpt><trkpt lat="44.0023576" lon="3.6040822"><ele>475.75</ele><time>2026-04-19T15:10:34.2Z</time></trkpt><trkpt lat="44.0022698" lon="3.6039135"><ele>476.0</ele><time>2026-04-19T15:10:35.2Z</time></trkpt><trkpt lat="44.0021967" lon="3.603744"><ele>478.6</ele><time>2026-04-19T15:10:36.2Z</time></trkpt><trkpt lat="44.0021454" lon="3.6035854"><ele>481.20000000000005</ele><time>2026-04-19T15:10:37.2Z</time></trkpt><trkpt lat="44.0020862" lon="3.6034726"><ele>483.79999999999995</ele><time>2026-04-19T15:10:38.201Z</time></trkpt><trkpt lat="44.0020065" lon="3.6033959"><ele>486.4</ele><time>2026-04-19T15:10:39.2Z</time></trkpt><trkpt lat="44.0018889" lon="3.6033466"><ele>489.0</ele><time>2026-04-19T15:10:40.2Z</time></trkpt><trkpt lat="44.0017588" lon="3.6033101"><ele>485.5</ele><time>2026-04-19T15:10:41.2Z</time></trkpt><trkpt lat="44.0016259" lon="3.603287"><ele>482.0</ele><time>2026-04-19T15:10:42.2Z</time></trkpt><trkpt lat="44.0015058" lon="3.6032607"><ele>478.5</ele><time>2026-04-19T15:10:43.2Z</time></trkpt><trkpt lat="44.0014033" lon="3.6032145"><ele>475.0</ele><time>2026-04-19T15:10:44.201Z</time></trkpt><trkpt lat="44.0013085" lon="3.603137"><ele>475.0</ele><time>2026-04-19T15:10:45.201Z</time></trkpt><trkpt lat="44.0012062" lon="3.6030367"><ele>475.0</ele><time>2026-04-19T15:10:46.2Z</time></trkpt><trkpt lat="44.0010946" lon="3.6029177"><ele>475.0</ele><time>2026-04-19T15:10:47.201Z</time></trkpt><trkpt lat="44.0009889" lon="3.602783"><ele>475.0</ele><time>2026-04-19T15:10:48.201Z</time></trkpt><trkpt lat="44.0008844" lon="3.6026389"><ele>468.25</ele><time>2026-04-19T15:10:49.2Z</time></trkpt><trkpt lat="44.0008047" lon="3.6024881"><ele>461.5</ele><time>2026-04-19T15:10:50.201Z</time></trkpt><trkpt lat="44.000749" lon="3.6023382"><ele>454.75</ele><time>2026-04-19T15:10:51.201Z</time></trkpt><trkpt lat="44.0007358" lon="3.6021763"><ele>448.0</ele><time>2026-04-19T15:10:52.2Z</time></trkpt><trkpt lat="44.0007378" lon="3.6019885"><ele>446.0</ele><time>2026-04-19T15:10:53.201Z</time></trkpt><trkpt lat="44.0007311" lon="3.6017689"><ele>444.0</ele><time>2026-04-19T15:10:54.2Z</time></trkpt><trkpt lat="44.0007266" lon="3.6015227"><ele>442.0</ele><time>2026-04-19T15:10:55.2Z</time></trkpt><trkpt lat="44.0007221" lon="3.6012772"><ele>443.6666666666667</ele><time>2026-04-19T15:10:56.2Z</time></trkpt><trkpt lat="44.0007017" lon="3.6010298"><ele>445.33333333333337</ele><time>2026-04-19T15:10:57.2Z</time></trkpt><trkpt lat="44.0006881" lon="3.6007832"><ele>447.0</ele><time>2026-04-19T15:10:58.2Z</time></trkpt><trkpt lat="44.0006718" lon="3.6005574"><ele>447.0</ele><time>2026-04-19T15:10:59.2Z</time></trkpt><trkpt lat="44.000662" lon="3.6003724"><ele>447.0</ele><time>2026-04-19T15:11:00.201Z</time></trkpt><trkpt lat="44.0006383" lon="3.600215"><ele>447.0</ele><time>2026-04-19T15:11:01.2Z</time></trkpt><trkpt lat="44.0005854" lon="3.6000836"><ele>447.0</ele><time>2026-04-19T15:11:02.2Z</time></trkpt><trkpt lat="44.0004969" lon="3.5999925"><ele>452.0</ele><time>2026-04-19T15:11:03.201Z</time></trkpt><trkpt lat="44.0003861" lon="3.5999464"><ele>457.0</ele><time>2026-04-19T15:11:04.2Z</time></trkpt><trkpt lat="44.0002438" lon="3.5999134"><ele>462.0</ele><time>2026-04-19T15:11:05.2Z</time></trkpt><trkpt lat="44.0000902" lon="3.5998711"><ele>467.0</ele><time>2026-04-19T15:11:06.201Z</time></trkpt><trkpt lat="43.9999369" lon="3.5998391"><ele>467.0</ele><time>2026-04-19T15:11:07.201Z</time></trkpt><trkpt lat="43.9997944" lon="3.5998099"><ele>467.0</ele><time>2026-04-19T15:11:08.2Z</time></trkpt><trkpt lat="43.9996549" lon="3.5997942"><ele>467.0</ele><time>2026-04-19T15:11:09.2Z</time></trkpt><trkpt lat="43.9995277" lon="3.5997813"><ele>467.0</ele><time>2026-04-19T15:11:10.2Z</time></trkpt><trkpt lat="43.9993969" lon="3.599783"><ele>467.0</ele><time>2026-04-19T15:11:11.2Z</time></trkpt><trkpt lat="43.9992823" lon="3.5997925"><ele>467.00000000000006</ele><time>2026-04-19T15:11:12.2Z</time></trkpt><trkpt lat="43.999176" lon="3.5998032"><ele>467.00000000000006</ele><time>2026-04-19T15:11:13.2Z</time></trkpt><trkpt lat="43.9991061" lon="3.5998456"><ele>467.0</ele><time>2026-04-19T15:11:14.2Z</time></trkpt><trkpt lat="43.9990081" lon="3.5998792"><ele>467.0</ele><time>2026-04-19T15:11:16.201Z</time></trkpt><trkpt lat="43.9989322" lon="3.5999236"><ele>465.8</ele><time>2026-04-19T15:11:35.2Z</time></trkpt><trkpt lat="43.9988345" lon="3.5999526"><ele>464.6</ele><time>2026-04-19T15:11:37.2Z</time></trkpt><trkpt lat="43.9987716" lon="3.5999426"><ele>463.40000000000003</ele><time>2026-04-19T15:11:38.2Z</time></trkpt><trkpt lat="43.9986634" lon="3.5999489"><ele>462.20000000000005</ele><time>2026-04-19T15:11:40.201Z</time></trkpt><trkpt lat="43.9985942" lon="3.5999531"><ele>461.0</ele><time>2026-04-19T15:11:44.201Z</time></trkpt><trkpt lat="43.9987023" lon="3.5999144"><ele>461.0</ele><time>2026-04-19T15:11:57.201Z</time></trkpt><trkpt lat="43.9988348" lon="3.5999181"><ele>461.0</ele><time>2026-04-19T15:11:58.2Z</time></trkpt><trkpt lat="43.9989759" lon="3.5999061"><ele>461.0</ele><time>2026-04-19T15:11:59.201Z</time></trkpt><trkpt lat="43.9991166" lon="3.5998461"><ele>461.0</ele><time>2026-04-19T15:12:00.201Z</time></trkpt><trkpt lat="43.9992426" lon="3.5998154"><ele>462.5</ele><time>2026-04-19T15:12:01.2Z</time></trkpt><trkpt lat="43.9993916" lon="3.5998011"><ele>464.0</ele><time>2026-04-19T15:12:02.2Z</time></trkpt><trkpt lat="43.999544" lon="3.5997803"><ele>465.5</ele><time>2026-04-19T15:12:03.2Z</time></trkpt><trkpt lat="43.9996903" lon="3.5997615"><ele>467.0</ele><time>2026-04-19T15:12:04.2Z</time></trkpt><trkpt lat="43.9998101" lon="3.5997636"><ele>467.0</ele><time>2026-04-19T15:12:05.2Z</time></trkpt><trkpt lat="43.9999413" lon="3.5997739"><ele>467.0</ele><time>2026-04-19T15:12:06.2Z</time></trkpt><trkpt lat="44.0000816" lon="3.5997962"><ele>467.0</ele><time>2026-04-19T15:12:07.2Z</time></trkpt><trkpt lat="44.0002182" lon="3.5998185"><ele>467.0</ele><time>2026-04-19T15:12:08.2Z</time></trkpt><trkpt lat="44.0003386" lon="3.5998392"><ele>467.0</ele><time>2026-04-19T15:12:09.199Z</time></trkpt><trkpt lat="44.000442" lon="3.5998715"><ele>467.00000000000006</ele><time>2026-04-19T15:12:10.199Z</time></trkpt><trkpt lat="44.0005158" lon="3.5999412"><ele>467.00000000000006</ele><time>2026-04-19T15:12:11.199Z</time></trkpt><trkpt lat="44.0005838" lon="3.6000676"><ele>467.0</ele><time>2026-04-19T15:12:12.199Z</time></trkpt><trkpt lat="44.0006417" lon="3.6002181"><ele>467.0</ele><time>2026-04-19T15:12:13.199Z</time></trkpt><trkpt lat="44.0006723" lon="3.6004125"><ele>460.3333333333333</ele><time>2026-04-19T15:12:14.2Z</time></trkpt><trkpt lat="44.0006904" lon="3.6007182"><ele>453.66666666666663</ele><time>2026-04-19T15:12:15.199Z</time></trkpt><trkpt lat="44.0007103" lon="3.6010213"><ele>447.0</ele><time>2026-04-19T15:12:16.2Z</time></trkpt><trkpt lat="44.0007245" lon="3.6013023"><ele>447.33333333333337</ele><time>2026-04-19T15:12:17.199Z</time></trkpt><trkpt lat="44.000731" lon="3.6015681"><ele>447.6666666666667</ele><time>2026-04-19T15:12:18.199Z</time></trkpt><trkpt lat="44.0007281" lon="3.6017995"><ele>448.0</ele><time>2026-04-19T15:12:19.2Z</time></trkpt><trkpt lat="44.0007196" lon="3.6020145"><ele>448.0</ele><time>2026-04-19T15:12:20.199Z</time></trkpt><trkpt lat="44.0007097" lon="3.6021982"><ele>448.0</ele><time>2026-04-19T15:12:21.2Z</time></trkpt><trkpt lat="44.0007321" lon="3.6023677"><ele>448.0</ele><time>2026-04-19T15:12:22.2Z</time></trkpt><trkpt lat="44.0007901" lon="3.6025214"><ele>448.0</ele><time>2026-04-19T15:12:23.199Z</time></trkpt><trkpt lat="44.0008643" lon="3.6026708"><ele>454.75</ele><time>2026-04-19T15:12:24.199Z</time></trkpt><trkpt lat="44.000962" lon="3.602812"><ele>461.5</ele><time>2026-04-19T15:12:25.2Z</time></trkpt><trkpt lat="44.0010794" lon="3.6029387"><ele>468.25</ele><time>2026-04-19T15:12:26.2Z</time></trkpt><trkpt lat="44.0012119" lon="3.6030617"><ele>475.0</ele><time>2026-04-19T15:12:27.199Z</time></trkpt><trkpt lat="44.0013292" lon="3.6031794"><ele>475.0</ele><time>2026-04-19T15:12:28.199Z</time></trkpt><trkpt lat="44.0014391" lon="3.6032708"><ele>475.0</ele><time>2026-04-19T15:12:29.199Z</time></trkpt><trkpt lat="44.0015538" lon="3.6033306"><ele>475.0</ele><time>2026-04-19T15:12:30.199Z</time></trkpt><trkpt lat="44.0016799" lon="3.6033562"><ele>475.0</ele><time>2026-04-19T15:12:31.199Z</time></trkpt><trkpt lat="44.00179" lon="3.6033655"><ele>475.2</ele><time>2026-04-19T15:12:32.199Z</time></trkpt><trkpt lat="44.0018893" lon="3.6033642"><ele>475.4</ele><time>2026-04-19T15:12:33.199Z</time></trkpt><trkpt lat="44.0019868" lon="3.6034099"><ele>475.6</ele><time>2026-04-19T15:12:34.199Z</time></trkpt><trkpt lat="44.002085" lon="3.6034848"><ele>475.8</ele><time>2026-04-19T15:12:35.199Z</time></trkpt><trkpt lat="44.0021607" lon="3.6035924"><ele>476.0</ele><time>2026-04-19T15:12:36.199Z</time></trkpt><trkpt lat="44.0022054" lon="3.6037067"><ele>476.0</ele><time>2026-04-19T15:12:37.199Z</time></trkpt><trkpt lat="44.0022426" lon="3.6038242"><ele>476.0</ele><time>2026-04-19T15:12:38.199Z</time></trkpt><trkpt lat="44.0022853" lon="3.6039389"><ele>476.0</ele><time>2026-04-19T15:12:39.199Z</time></trkpt><trkpt lat="44.0023301" lon="3.6040433"><ele>476.0</ele><time>2026-04-19T15:12:40.199Z</time></trkpt><trkpt lat="44.0023768" lon="3.604149"><ele>476.0</ele><time>2026-04-19T15:12:41.199Z</time></trkpt><trkpt lat="44.0024375" lon="3.6042506"><ele>475.8</ele><time>2026-04-19T15:12:42.2Z</time></trkpt><trkpt lat="44.0025023" lon="3.6043438"><ele>475.6</ele><time>2026-04-19T15:12:43.199Z</time></trkpt><trkpt lat="44.002577" lon="3.6044173"><ele>475.4</ele><time>2026-04-19T15:12:44.199Z</time></trkpt><trkpt lat="44.0026673" lon="3.6044784"><ele>475.2</ele><time>2026-04-19T15:12:45.199Z</time></trkpt><trkpt lat="44.0027594" lon="3.6045081"><ele>475.0</ele><time>2026-04-19T15:12:46.199Z</time></trkpt><trkpt lat="44.0028522" lon="3.6045251"><ele>475.0</ele><time>2026-04-19T15:12:47.2Z</time></trkpt><trkpt lat="44.0029562" lon="3.6045452"><ele>475.0</ele><time>2026-04-19T15:12:48.2Z</time></trkpt><trkpt lat="44.0030642" lon="3.6045602"><ele>475.0</ele><time>2026-04-19T15:12:49.2Z</time></trkpt><trkpt lat="44.0031959" lon="3.6045865"><ele>475.0</ele><time>2026-04-19T15:12:50.2Z</time></trkpt><trkpt lat="44.0033632" lon="3.6045991"><ele>477.0</ele><time>2026-04-19T15:12:51.199Z</time></trkpt><trkpt lat="44.003527" lon="3.6046038"><ele>479.0</ele><time>2026-04-19T15:12:52.2Z</time></trkpt><trkpt lat="44.00367" lon="3.6045909"><ele>481.0</ele><time>2026-04-19T15:12:53.199Z</time></trkpt><trkpt lat="44.0037864" lon="3.6046165"><ele>483.0</ele><time>2026-04-19T15:12:54.199Z</time></trkpt><trkpt lat="44.0039164" lon="3.6047028"><ele>483.0</ele><time>2026-04-19T15:12:55.199Z</time></trkpt><trkpt lat="44.0040579" lon="3.6048208"><ele>483.0</ele><time>2026-04-19T15:12:56.199Z</time></trkpt><trkpt lat="44.004219" lon="3.6049482"><ele>483.0</ele><time>2026-04-19T15:12:57.2Z</time></trkpt><trkpt lat="44.0044094" lon="3.6050684"><ele>482.33333333333337</ele><time>2026-04-19T15:12:58.199Z</time></trkpt><trkpt lat="44.0045861" lon="3.6051807"><ele>481.6666666666667</ele><time>2026-04-19T15:12:59.2Z</time></trkpt><trkpt lat="44.0047566" lon="3.6053177"><ele>481.0</ele><time>2026-04-19T15:13:00.199Z</time></trkpt><trkpt lat="44.0049036" lon="3.6054632"><ele>489.33333333333337</ele><time>2026-04-19T15:13:01.2Z</time></trkpt><trkpt lat="44.0050476" lon="3.6056319"><ele>497.66666666666663</ele><time>2026-04-19T15:13:02.199Z</time></trkpt><trkpt lat="44.0051774" lon="3.6058103"><ele>506.0</ele><time>2026-04-19T15:13:03.199Z</time></trkpt><trkpt lat="44.0052969" lon="3.6060154"><ele>500.66666666666663</ele><time>2026-04-19T15:13:04.199Z</time></trkpt><trkpt lat="44.0054162" lon="3.6061977"><ele>495.33333333333337</ele><time>2026-04-19T15:13:05.199Z</time></trkpt><trkpt lat="44.0055172" lon="3.6063665"><ele>490.0</ele><time>2026-04-19T15:13:06.2Z</time></trkpt><trkpt lat="44.0056019" lon="3.6065219"><ele>490.0</ele><time>2026-04-19T15:13:07.199Z</time></trkpt><trkpt lat="44.0056619" lon="3.6066972"><ele>490.0</ele><time>2026-04-19T15:13:08.199Z</time></trkpt><trkpt lat="44.0056982" lon="3.60688"><ele>490.0</ele><time>2026-04-19T15:13:09.199Z</time></trkpt><trkpt lat="44.0057077" lon="3.6071053"><ele>490.0</ele><time>2026-04-19T15:13:10.199Z</time></trkpt><trkpt lat="44.0057223" lon="3.6072983"><ele>487.5</ele><time>2026-04-19T15:13:11.199Z</time></trkpt><trkpt lat="44.0057457" lon="3.6074679"><ele>485.0</ele><time>2026-04-19T15:13:12.199Z</time></trkpt><trkpt lat="44.0057926" lon="3.6076115"><ele>482.5</ele><time>2026-04-19T15:13:13.199Z</time></trkpt><trkpt lat="44.005847" lon="3.6077567"><ele>480.0</ele><time>2026-04-19T15:13:14.2Z</time></trkpt><trkpt lat="44.0059147" lon="3.6078896"><ele>486.0</ele><time>2026-04-19T15:13:15.2Z</time></trkpt><trkpt lat="44.005964" lon="3.608003"><ele>492.0</ele><time>2026-04-19T15:13:16.199Z</time></trkpt><trkpt lat="44.005995" lon="3.6081011"><ele>498.0</ele><time>2026-04-19T15:13:17.2Z</time></trkpt><trkpt lat="44.0060336" lon="3.6081808"><ele>504.0</ele><time>2026-04-19T15:13:18.2Z</time></trkpt><trkpt lat="44.0061119" lon="3.6082758"><ele>510.0</ele><time>2026-04-19T15:13:20.199Z</time></trkpt><trkpt lat="44.0062125" lon="3.6083604"><ele>510.0</ele><time>2026-04-19T15:13:22.199Z</time></trkpt><trkpt lat="44.00628" lon="3.6084067"><ele>510.0</ele><time>2026-04-19T15:13:23.199Z</time></trkpt><trkpt lat="44.0063546" lon="3.6084487"><ele>510.0</ele><time>2026-04-19T15:13:24.199Z</time></trkpt><trkpt lat="44.0064234" lon="3.6085102"><ele>510.0</ele><time>2026-04-19T15:13:25.2Z</time></trkpt><trkpt lat="44.0065044" lon="3.608591"><ele>510.0</ele><time>2026-04-19T15:13:26.2Z</time></trkpt><trkpt lat="44.0065814" lon="3.6087106"><ele>507.0</ele><time>2026-04-19T15:13:27.2Z</time></trkpt><trkpt lat="44.006649" lon="3.6088527"><ele>504.0</ele><time>2026-04-19T15:13:28.199Z</time></trkpt><trkpt lat="44.0067037" lon="3.6089901"><ele>501.0</ele><time>2026-04-19T15:13:29.2Z</time></trkpt><trkpt lat="44.0067685" lon="3.6091235"><ele>498.0</ele><time>2026-04-19T15:13:30.199Z</time></trkpt><trkpt lat="44.006857" lon="3.6092233"><ele>503.4</ele><time>2026-04-19T15:13:31.199Z</time></trkpt><trkpt lat="44.0069594" lon="3.609287"><ele>508.79999999999995</ele><time>2026-04-19T15:13:32.2Z</time></trkpt><trkpt lat="44.0070597" lon="3.6093221"><ele>514.2</ele><time>2026-04-19T15:13:33.2Z</time></trkpt><trkpt lat="44.0071403" lon="3.6093425"><ele>519.6</ele><time>2026-04-19T15:13:34.2Z</time></trkpt><trkpt lat="44.0072282" lon="3.6093789"><ele>525.0</ele><time>2026-04-19T15:13:36.2Z</time></trkpt><trkpt lat="44.0072731" lon="3.6093166"><ele>525.0</ele><time>2026-04-19T15:13:40.199Z</time></trkpt><trkpt lat="44.007193" lon="3.6093371"><ele>525.0</ele><time>2026-04-19T15:13:50.199Z</time></trkpt><trkpt lat="44.007116" lon="3.6093241"><ele>525.0</ele><time>2026-04-19T15:13:51.199Z</time></trkpt><trkpt lat="44.0070246" lon="3.6093019"><ele>525.0</ele><time>2026-04-19T15:13:52.2Z</time></trkpt><trkpt lat="44.0069189" lon="3.6092559"><ele>525.0</ele><time>2026-04-19T15:13:53.2Z</time></trkpt><trkpt lat="44.0068148" lon="3.6091561"><ele>525.0</ele><time>2026-04-19T15:13:54.199Z</time></trkpt><trkpt lat="44.0067328" lon="3.6090243"><ele>525.0</ele><time>2026-04-19T15:13:55.199Z</time></trkpt><trkpt lat="44.0066555" lon="3.6088693"><ele>525.0</ele><time>2026-04-19T15:13:56.199Z</time></trkpt><trkpt lat="44.0065699" lon="3.6087059"><ele>525.0</ele><time>2026-04-19T15:13:57.199Z</time></trkpt><trkpt lat="44.0064721" lon="3.6085483"><ele>521.25</ele><time>2026-04-19T15:13:58.199Z</time></trkpt><trkpt lat="44.0063662" lon="3.6084279"><ele>517.5</ele><time>2026-04-19T15:13:59.2Z</time></trkpt><trkpt lat="44.0062484" lon="3.6083295"><ele>513.75</ele><time>2026-04-19T15:14:00.199Z</time></trkpt><trkpt lat="44.0061239" lon="3.6082329"><ele>510.0</ele><time>2026-04-19T15:14:01.2Z</time></trkpt><trkpt lat="44.0060173" lon="3.6081141"><ele>510.0</ele><time>2026-04-19T15:14:02.199Z</time></trkpt><trkpt lat="44.0059212" lon="3.6079445"><ele>510.0</ele><time>2026-04-19T15:14:03.199Z</time></trkpt><trkpt lat="44.0058286" lon="3.6077746"><ele>510.0</ele><time>2026-04-19T15:14:04.199Z</time></trkpt><trkpt lat="44.0057453" lon="3.6076011"><ele>505.0</ele><time>2026-04-19T15:14:05.199Z</time></trkpt><trkpt lat="44.0056873" lon="3.6074252"><ele>500.0</ele><time>2026-04-19T15:14:06.199Z</time></trkpt><trkpt lat="44.0056577" lon="3.6072472"><ele>495.0</ele><time>2026-04-19T15:14:07.199Z</time></trkpt><trkpt lat="44.0056517" lon="3.6070655"><ele>490.0</ele><time>2026-04-19T15:14:08.199Z</time></trkpt><trkpt lat="44.0056514" lon="3.6068706"><ele>490.0</ele><time>2026-04-19T15:14:09.199Z</time></trkpt><trkpt lat="44.0056358" lon="3.6066767"><ele>490.0</ele><time>2026-04-19T15:14:10.2Z</time></trkpt><trkpt lat="44.0055804" lon="3.6064951"><ele>490.0</ele><time>2026-04-19T15:14:11.199Z</time></trkpt><trkpt lat="44.0054995" lon="3.6063327"><ele>490.0</ele><time>2026-04-19T15:14:12.199Z</time></trkpt><trkpt lat="44.0054026" lon="3.606177"><ele>495.33333333333337</ele><time>2026-04-19T15:14:13.199Z</time></trkpt><trkpt lat="44.0052827" lon="3.606016"><ele>500.66666666666663</ele><time>2026-04-19T15:14:14.199Z</time></trkpt><trkpt lat="44.0051558" lon="3.6058391"><ele>506.0</ele><time>2026-04-19T15:14:15.2Z</time></trkpt><trkpt lat="44.005009" lon="3.6056246"><ele>506.0</ele><time>2026-04-19T15:14:16.199Z</time></trkpt><trkpt lat="44.0048375" lon="3.6054306"><ele>506.0</ele><time>2026-04-19T15:14:17.199Z</time></trkpt><trkpt lat="44.0046674" lon="3.6052493"><ele>506.0</ele><time>2026-04-19T15:14:18.199Z</time></trkpt><trkpt lat="44.0044735" lon="3.605098"><ele>506.0</ele><time>2026-04-19T15:14:19.199Z</time></trkpt><trkpt lat="44.0042885" lon="3.604975"><ele>506.0</ele><time>2026-04-19T15:14:20.2Z</time></trkpt><trkpt lat="44.004115" lon="3.6048577"><ele>506.0</ele><time>2026-04-19T15:14:21.199Z</time></trkpt><trkpt lat="44.0039615" lon="3.6047591"><ele>498.3333333333333</ele><time>2026-04-19T15:14:22.199Z</time></trkpt><trkpt lat="44.0038303" lon="3.6046686"><ele>490.66666666666663</ele><time>2026-04-19T15:14:23.2Z</time></trkpt><trkpt lat="44.0036862" lon="3.6046052"><ele>483.0</ele><time>2026-04-19T15:14:24.199Z</time></trkpt><trkpt lat="44.0035152" lon="3.6045811"><ele>480.33333333333337</ele><time>2026-04-19T15:14:25.199Z</time></trkpt><trkpt lat="44.0033265" lon="3.6045914"><ele>477.6666666666667</ele><time>2026-04-19T15:14:26.2Z</time></trkpt><trkpt lat="44.0031403" lon="3.6045696"><ele>475.0</ele><time>2026-04-19T15:14:27.2Z</time></trkpt><trkpt lat="44.0029772" lon="3.6045211"><ele>482.6666666666667</ele><time>2026-04-19T15:14:28.199Z</time></trkpt><trkpt lat="44.0028188" lon="3.6044945"><ele>490.33333333333337</ele><time>2026-04-19T15:14:29.199Z</time></trkpt><trkpt lat="44.0026757" lon="3.6044563"><ele>498.0</ele><time>2026-04-19T15:14:30.199Z</time></trkpt><trkpt lat="44.0025431" lon="3.6043726"><ele>492.5</ele><time>2026-04-19T15:14:31.199Z</time></trkpt><trkpt lat="44.0024352" lon="3.6042664"><ele>487.0</ele><time>2026-04-19T15:14:32.199Z</time></trkpt><trkpt lat="44.002332" lon="3.6041196"><ele>481.5</ele><time>2026-04-19T15:14:33.2Z</time></trkpt><trkpt lat="44.0022541" lon="3.6039135"><ele>476.0</ele><time>2026-04-19T15:14:34.199Z</time></trkpt><trkpt lat="44.0021956" lon="3.603723"><ele>479.25</ele><time>2026-04-19T15:14:35.199Z</time></trkpt><trkpt lat="44.0021258" lon="3.6035681"><ele>482.5</ele><time>2026-04-19T15:14:36.199Z</time></trkpt><trkpt lat="44.0020372" lon="3.6034366"><ele>485.75</ele><time>2026-04-19T15:14:37.199Z</time></trkpt><trkpt lat="44.0019228" lon="3.6033738"><ele>489.0</ele><time>2026-04-19T15:14:38.2Z</time></trkpt><trkpt lat="44.0017739" lon="3.6033345"><ele>485.5</ele><time>2026-04-19T15:14:39.199Z</time></trkpt><trkpt lat="44.001626" lon="3.6033066"><ele>482.0</ele><time>2026-04-19T15:14:40.2Z</time></trkpt><trkpt lat="44.0014922" lon="3.603267"><ele>478.5</ele><time>2026-04-19T15:14:41.199Z</time></trkpt><trkpt lat="44.0013719" lon="3.6031954"><ele>475.0</ele><time>2026-04-19T15:14:42.2Z</time></trkpt><trkpt lat="44.0012655" lon="3.6031016"><ele>475.0</ele><time>2026-04-19T15:14:43.2Z</time></trkpt><trkpt lat="44.0011497" lon="3.6029871"><ele>475.0</ele><time>2026-04-19T15:14:44.199Z</time></trkpt><trkpt lat="44.0010286" lon="3.6028705"><ele>475.0</ele><time>2026-04-19T15:14:45.2Z</time></trkpt><trkpt lat="44.0009183" lon="3.6027259"><ele>475.0</ele><time>2026-04-19T15:14:46.2Z</time></trkpt><trkpt lat="44.0008227" lon="3.602574"><ele>468.25</ele><time>2026-04-19T15:14:47.199Z</time></trkpt><trkpt lat="44.0007502" lon="3.6023993"><ele>461.5</ele><time>2026-04-19T15:14:48.199Z</time></trkpt><trkpt lat="44.0007229" lon="3.6022175"><ele>454.75</ele><time>2026-04-19T15:14:49.199Z</time></trkpt><trkpt lat="44.0007181" lon="3.6020145"><ele>448.0</ele><time>2026-04-19T15:14:50.2Z</time></trkpt><trkpt lat="44.000733" lon="3.6017508"><ele>447.5</ele><time>2026-04-19T15:14:51.199Z</time></trkpt><trkpt lat="44.0007086" lon="3.601415"><ele>447.0</ele><time>2026-04-19T15:14:52.199Z</time></trkpt><trkpt lat="44.0007012" lon="3.6010907"><ele>447.0</ele><time>2026-04-19T15:14:53.199Z</time></trkpt><trkpt lat="44.0006844" lon="3.6007959"><ele>447.0</ele><time>2026-04-19T15:14:54.2Z</time></trkpt><trkpt lat="44.0006605" lon="3.60057"><ele>447.0</ele><time>2026-04-19T15:14:55.199Z</time></trkpt><trkpt lat="44.0006458" lon="3.6003708"><ele>451.0</ele><time>2026-04-19T15:14:56.199Z</time></trkpt><trkpt lat="44.0006293" lon="3.6002248"><ele>455.00000000000006</ele><time>2026-04-19T15:14:57.199Z</time></trkpt><trkpt lat="44.0005767" lon="3.6000867"><ele>459.00000000000006</ele><time>2026-04-19T15:14:58.199Z</time></trkpt><trkpt lat="44.0005017" lon="3.5999836"><ele>463.0</ele><time>2026-04-19T15:14:59.199Z</time></trkpt><trkpt lat="44.000391" lon="3.5999411"><ele>467.0</ele><time>2026-04-19T15:15:00.199Z</time></trkpt><trkpt lat="44.0002441" lon="3.5999127"><ele>467.0</ele><time>2026-04-19T15:15:01.199Z</time></trkpt><trkpt lat="44.0000938" lon="3.5998887"><ele>467.0</ele><time>2026-04-19T15:15:02.199Z</time></trkpt><trkpt lat="43.9999251" lon="3.5998709"><ele>467.0</ele><time>2026-04-19T15:15:03.199Z</time></trkpt><trkpt lat="43.9997143" lon="3.5998456"><ele>467.0</ele><time>2026-04-19T15:15:04.199Z</time></trkpt><trkpt lat="43.9994971" lon="3.5998581"><ele>467.0</ele><time>2026-04-19T15:15:05.2Z</time></trkpt><trkpt lat="43.9993109" lon="3.5998811"><ele>467.0</ele><time>2026-04-19T15:15:06.2Z</time></trkpt><trkpt lat="43.9991295" lon="3.5999048"><ele>465.0</ele><time>2026-04-19T15:15:07.199Z</time></trkpt><trkpt lat="43.9989612" lon="3.599932"><ele>463.0</ele><time>2026-04-19T15:15:08.199Z</time></trkpt><trkpt lat="43.9988125" lon="3.5999502"><ele>461.0</ele><time>2026-04-19T15:15:09.199Z</time></trkpt><trkpt lat="43.998653" lon="3.5999539"><ele>461.0</ele><time>2026-04-19T15:15:10.2Z</time></trkpt><trkpt lat="43.9984954" lon="3.5999305"><ele>461.0</ele><time>2026-04-19T15:15:11.199Z</time></trkpt><trkpt lat="43.9983321" lon="3.5998946"><ele>461.0</ele><time>2026-04-19T15:15:12.2Z</time></trkpt><trkpt lat="43.9981638" lon="3.5998461"><ele>459.0</ele><time>2026-04-19T15:15:13.199Z</time></trkpt><trkpt lat="43.9980069" lon="3.5997656"><ele>457.0</ele><time>2026-04-19T15:15:14.2Z</time></trkpt><trkpt lat="43.9978705" lon="3.599685"><ele>455.0</ele><time>2026-04-19T15:15:15.199Z</time></trkpt><trkpt lat="43.9977374" lon="3.5995971"><ele>454.25</ele><time>2026-04-19T15:15:16.199Z</time></trkpt><trkpt lat="43.9976213" lon="3.5994954"><ele>453.5</ele><time>2026-04-19T15:15:17.199Z</time></trkpt><trkpt lat="43.9975351" lon="3.5993585"><ele>452.75</ele><time>2026-04-19T15:15:18.199Z</time></trkpt><trkpt lat="43.9974592" lon="3.5992103"><ele>452.0</ele><time>2026-04-19T15:15:19.2Z</time></trkpt><trkpt lat="43.9973981" lon="3.5990647"><ele>452.0</ele><time>2026-04-19T15:15:20.2Z</time></trkpt><trkpt lat="43.9973737" lon="3.5989075"><ele>452.0</ele><time>2026-04-19T15:15:21.199Z</time></trkpt><trkpt lat="43.9973851" lon="3.5987339"><ele>452.0</ele><time>2026-04-19T15:15:22.199Z</time></trkpt><trkpt lat="43.9974249" lon="3.5985373"><ele>452.0</ele><time>2026-04-19T15:15:23.199Z</time></trkpt><trkpt lat="43.9974828" lon="3.5982537"><ele>461.0</ele><time>2026-04-19T15:15:24.199Z</time></trkpt><trkpt lat="43.9975465" lon="3.5979463"><ele>470.0</ele><time>2026-04-19T15:15:25.199Z</time></trkpt><trkpt lat="43.9976002" lon="3.5976798"><ele>479.0</ele><time>2026-04-19T15:15:26.2Z</time></trkpt><trkpt lat="43.9976343" lon="3.5974536"><ele>480.25</ele><time>2026-04-19T15:15:27.2Z</time></trkpt><trkpt lat="43.9976559" lon="3.5972288"><ele>481.5</ele><time>2026-04-19T15:15:28.199Z</time></trkpt><trkpt lat="43.9976613" lon="3.5970269"><ele>482.75</ele><time>2026-04-19T15:15:29.2Z</time></trkpt><trkpt lat="43.9976563" lon="3.5968601"><ele>484.0</ele><time>2026-04-19T15:15:30.199Z</time></trkpt><trkpt lat="43.9976149" lon="3.5967445"><ele>475.5</ele><time>2026-04-19T15:15:31.2Z</time></trkpt><trkpt lat="43.9975019" lon="3.5966491"><ele>467.0</ele><time>2026-04-19T15:15:32.199Z</time></trkpt><trkpt lat="43.9973694" lon="3.5965676"><ele>458.5</ele><time>2026-04-19T15:15:33.2Z</time></trkpt><trkpt lat="43.9972244" lon="3.5965019"><ele>450.0</ele><time>2026-04-19T15:15:34.199Z</time></trkpt><trkpt lat="43.9971011" lon="3.5964162"><ele>450.0</ele><time>2026-04-19T15:15:35.199Z</time></trkpt><trkpt lat="43.9970239" lon="3.5962978"><ele>450.0</ele><time>2026-04-19T15:15:36.199Z</time></trkpt><trkpt lat="43.9969772" lon="3.5961639"><ele>450.0</ele><time>2026-04-19T15:15:37.199Z</time></trkpt><trkpt lat="43.9969501" lon="3.595938"><ele>450.0</ele><time>2026-04-19T15:15:38.2Z</time></trkpt><trkpt lat="43.9969534" lon="3.5956827"><ele>453.5</ele><time>2026-04-19T15:15:39.199Z</time></trkpt><trkpt lat="43.9969508" lon="3.5953812"><ele>457.0</ele><time>2026-04-19T15:15:40.199Z</time></trkpt><trkpt lat="43.9969713" lon="3.59503"><ele>457.0</ele><time>2026-04-19T15:15:41.199Z</time></trkpt><trkpt lat="43.9969983" lon="3.5947223"><ele>457.0</ele><time>2026-04-19T15:15:42.199Z</time></trkpt><trkpt lat="43.9970156" lon="3.5944577"><ele>457.0</ele><time>2026-04-19T15:15:43.199Z</time></trkpt><trkpt lat="43.9970459" lon="3.594216"><ele>455.0</ele><time>2026-04-19T15:15:44.2Z</time></trkpt><trkpt lat="43.9970769" lon="3.5939966"><ele>453.0</ele><time>2026-04-19T15:15:45.2Z</time></trkpt><trkpt lat="43.9971109" lon="3.5938111"><ele>451.0</ele><time>2026-04-19T15:15:46.199Z</time></trkpt><trkpt lat="43.9971066" lon="3.5936493"><ele>449.0</ele><time>2026-04-19T15:15:47.199Z</time></trkpt><trkpt lat="43.9970651" lon="3.5935132"><ele>449.0</ele><time>2026-04-19T15:15:48.2Z</time></trkpt><trkpt lat="43.9969745" lon="3.5934024"><ele>449.0</ele><time>2026-04-19T15:15:49.2Z</time></trkpt><trkpt lat="43.9968375" lon="3.5933288"><ele>449.0</ele><time>2026-04-19T15:15:50.199Z</time></trkpt><trkpt lat="43.9966463" lon="3.5932671"><ele>435.0</ele><time>2026-04-19T15:15:51.199Z</time></trkpt><trkpt lat="43.9964291" lon="3.593179"><ele>421.0</ele><time>2026-04-19T15:15:52.199Z</time></trkpt><trkpt lat="43.9961793" lon="3.5931145"><ele>421.0</ele><time>2026-04-19T15:15:53.199Z</time></trkpt><trkpt lat="43.9959431" lon="3.5930464"><ele>421.0</ele><time>2026-04-19T15:15:54.2Z</time></trkpt><trkpt lat="43.995734" lon="3.593001"><ele>416.0</ele><time>2026-04-19T15:15:55.199Z</time></trkpt><trkpt lat="43.9955411" lon="3.5929491"><ele>411.0</ele><time>2026-04-19T15:15:56.199Z</time></trkpt><trkpt lat="43.9953841" lon="3.5929196"><ele>406.0</ele><time>2026-04-19T15:15:57.2Z</time></trkpt><trkpt lat="43.9952419" lon="3.592922"><ele>406.0</ele><time>2026-04-19T15:15:58.199Z</time></trkpt><trkpt lat="43.9951219" lon="3.5928895"><ele>406.0</ele><time>2026-04-19T15:15:59.2Z</time></trkpt><trkpt lat="43.9950249" lon="3.5928331"><ele>406.0</ele><time>2026-04-19T15:16:00.199Z</time></trkpt><trkpt lat="43.9949529" lon="3.5927653"><ele>406.0</ele><time>2026-04-19T15:16:01.199Z</time></trkpt><trkpt lat="43.9948957" lon="3.5926698"><ele>406.0</ele><time>2026-04-19T15:16:02.199Z</time></trkpt><trkpt lat="43.9948517" lon="3.5925567"><ele>407.20000000000005</ele><time>2026-04-19T15:16:03.2Z</time></trkpt><trkpt lat="43.9948225" lon="3.5924507"><ele>408.40000000000003</ele><time>2026-04-19T15:16:04.199Z</time></trkpt><trkpt lat="43.9947915" lon="3.5923421"><ele>409.6</ele><time>2026-04-19T15:16:05.199Z</time></trkpt><trkpt lat="43.9947532" lon="3.5922324"><ele>410.8</ele><time>2026-04-19T15:16:06.2Z</time></trkpt><trkpt lat="43.9946855" lon="3.5921281"><ele>412.0</ele><time>2026-04-19T15:16:07.199Z</time></trkpt><trkpt lat="43.9945697" lon="3.5920386"><ele>408.6666666666667</ele><time>2026-04-19T15:16:08.199Z</time></trkpt><trkpt lat="43.9944007" lon="3.5919847"><ele>405.33333333333337</ele><time>2026-04-19T15:16:09.199Z</time></trkpt><trkpt lat="43.9942" lon="3.5919662"><ele>402.0</ele><time>2026-04-19T15:16:10.199Z</time></trkpt><trkpt lat="43.9939394" lon="3.5919739"><ele>398.0</ele><time>2026-04-19T15:16:11.2Z</time></trkpt><trkpt lat="43.9936504" lon="3.5919678"><ele>394.0</ele><time>2026-04-19T15:16:12.199Z</time></trkpt><trkpt lat="43.9933736" lon="3.591961"><ele>394.0</ele><time>2026-04-19T15:16:13.199Z</time></trkpt><trkpt lat="43.993127" lon="3.5919515"><ele>394.0</ele><time>2026-04-19T15:16:14.2Z</time></trkpt><trkpt lat="43.9929028" lon="3.5919376"><ele>394.0</ele><time>2026-04-19T15:16:15.2Z</time></trkpt><trkpt lat="43.9926866" lon="3.5919075"><ele>394.0</ele><time>2026-04-19T15:16:16.199Z</time></trkpt><trkpt lat="43.9924668" lon="3.5918626"><ele>394.0</ele><time>2026-04-19T15:16:17.199Z</time></trkpt><trkpt lat="43.9922575" lon="3.5917933"><ele>394.33333333333337</ele><time>2026-04-19T15:16:18.199Z</time></trkpt><trkpt lat="43.9920556" lon="3.5917045"><ele>394.66666666666663</ele><time>2026-04-19T15:16:19.2Z</time></trkpt><trkpt lat="43.9918484" lon="3.591636"><ele>395.0</ele><time>2026-04-19T15:16:20.199Z</time></trkpt><trkpt lat="43.9916086" lon="3.5915971"><ele>396.0</ele><time>2026-04-19T15:16:21.199Z</time></trkpt><trkpt lat="43.991336" lon="3.5915889"><ele>397.0</ele><time>2026-04-19T15:16:22.2Z</time></trkpt><trkpt lat="43.9910556" lon="3.5915752"><ele>394.0</ele><time>2026-04-19T15:16:23.2Z</time></trkpt><trkpt lat="43.9907917" lon="3.5915529"><ele>391.0</ele><time>2026-04-19T15:16:24.199Z</time></trkpt><trkpt lat="43.9905458" lon="3.5915326"><ele>391.0</ele><time>2026-04-19T15:16:25.2Z</time></trkpt><trkpt lat="43.9903251" lon="3.5915037"><ele>391.0</ele><time>2026-04-19T15:16:26.2Z</time></trkpt><trkpt lat="43.9901331" lon="3.5914782"><ele>391.0</ele><time>2026-04-19T15:16:27.199Z</time></trkpt><trkpt lat="43.989944" lon="3.5914233"><ele>388.6666666666667</ele><time>2026-04-19T15:16:28.199Z</time></trkpt><trkpt lat="43.9897533" lon="3.5913645"><ele>386.33333333333337</ele><time>2026-04-19T15:16:29.2Z</time></trkpt><trkpt lat="43.9895608" lon="3.5912593"><ele>384.0</ele><time>2026-04-19T15:16:30.199Z</time></trkpt><trkpt lat="43.9893871" lon="3.5911276"><ele>380.6666666666667</ele><time>2026-04-19T15:16:31.199Z</time></trkpt><trkpt lat="43.9892274" lon="3.5909779"><ele>377.33333333333337</ele><time>2026-04-19T15:16:32.2Z</time></trkpt><trkpt lat="43.9890671" lon="3.5908247"><ele>374.0</ele><time>2026-04-19T15:16:33.2Z</time></trkpt><trkpt lat="43.9888825" lon="3.5906955"><ele>374.0</ele><time>2026-04-19T15:16:34.199Z</time></trkpt><trkpt lat="43.9886831" lon="3.5906035"><ele>374.0</ele><time>2026-04-19T15:16:35.199Z</time></trkpt><trkpt lat="43.988498" lon="3.5905083"><ele>374.0</ele><time>2026-04-19T15:16:36.2Z</time></trkpt><trkpt lat="43.9883488" lon="3.5903892"><ele>369.33333333333337</ele><time>2026-04-19T15:16:37.2Z</time></trkpt><trkpt lat="43.9882133" lon="3.5902691"><ele>364.6666666666667</ele><time>2026-04-19T15:16:38.199Z</time></trkpt><trkpt lat="43.9880697" lon="3.5901655"><ele>360.0</ele><time>2026-04-19T15:16:39.199Z</time></trkpt><trkpt lat="43.9878976" lon="3.5901198"><ele>360.0</ele><time>2026-04-19T15:16:40.199Z</time></trkpt><trkpt lat="43.9877364" lon="3.59008"><ele>360.0</ele><time>2026-04-19T15:16:41.199Z</time></trkpt><trkpt lat="43.9875763" lon="3.5900271"><ele>360.0</ele><time>2026-04-19T15:16:42.199Z</time></trkpt><trkpt lat="43.9874362" lon="3.5898983"><ele>363.3333333333333</ele><time>2026-04-19T15:16:43.199Z</time></trkpt><trkpt lat="43.9873182" lon="3.5897388"><ele>366.66666666666663</ele><time>2026-04-19T15:16:44.2Z</time></trkpt><trkpt lat="43.9871848" lon="3.589596"><ele>370.0</ele><time>2026-04-19T15:16:45.2Z</time></trkpt><trkpt lat="43.9870275" lon="3.589481"><ele>365.3333333333333</ele><time>2026-04-19T15:16:46.199Z</time></trkpt><trkpt lat="43.9868695" lon="3.5894087"><ele>360.6666666666667</ele><time>2026-04-19T15:16:47.2Z</time></trkpt><trkpt lat="43.9867118" lon="3.5893498"><ele>356.0</ele><time>2026-04-19T15:16:48.2Z</time></trkpt><trkpt lat="43.9865785" lon="3.5892797"><ele>356.0</ele><time>2026-04-19T15:16:49.2Z</time></trkpt><trkpt lat="43.9864653" lon="3.5891602"><ele>356.0</ele><time>2026-04-19T15:16:50.199Z</time></trkpt><trkpt lat="43.9863753" lon="3.5890093"><ele>356.0</ele><time>2026-04-19T15:16:51.2Z</time></trkpt><trkpt lat="43.9863008" lon="3.5888355"><ele>356.0</ele><time>2026-04-19T15:16:52.199Z</time></trkpt><trkpt lat="43.9862591" lon="3.5886458"><ele>351.25</ele><time>2026-04-19T15:16:53.199Z</time></trkpt><trkpt lat="43.9862392" lon="3.5884513"><ele>346.5</ele><time>2026-04-19T15:16:54.199Z</time></trkpt><trkpt lat="43.9862271" lon="3.588257"><ele>341.75</ele><time>2026-04-19T15:16:55.199Z</time></trkpt><trkpt lat="43.9862109" lon="3.5880673"><ele>337.0</ele><time>2026-04-19T15:16:56.199Z</time></trkpt><trkpt lat="43.9861782" lon="3.5879073"><ele>340.0</ele><time>2026-04-19T15:16:57.199Z</time></trkpt><trkpt lat="43.9860791" lon="3.5877539"><ele>343.0</ele><time>2026-04-19T15:16:58.2Z</time></trkpt><trkpt lat="43.9859493" lon="3.5876361"><ele>346.0</ele><time>2026-04-19T15:16:59.2Z</time></trkpt><trkpt lat="43.9857814" lon="3.587541"><ele>346.0</ele><time>2026-04-19T15:17:00.199Z</time></trkpt><trkpt lat="43.9855848" lon="3.5874586"><ele>346.0</ele><time>2026-04-19T15:17:01.2Z</time></trkpt><trkpt lat="43.9853747" lon="3.5873869"><ele>346.0</ele><time>2026-04-19T15:17:02.199Z</time></trkpt><trkpt lat="43.9851625" lon="3.5873436"><ele>349.66666666666663</ele><time>2026-04-19T15:17:03.198Z</time></trkpt><trkpt lat="43.9849563" lon="3.5873277"><ele>353.3333333333333</ele><time>2026-04-19T15:17:04.198Z</time></trkpt><trkpt lat="43.9847392" lon="3.5873521"><ele>357.0</ele><time>2026-04-19T15:17:05.199Z</time></trkpt><trkpt lat="43.9845374" lon="3.587401"><ele>357.0</ele><time>2026-04-19T15:17:06.198Z</time></trkpt><trkpt lat="43.9843575" lon="3.5874638"><ele>357.0</ele><time>2026-04-19T15:17:07.198Z</time></trkpt><trkpt lat="43.9842042" lon="3.5875608"><ele>357.0</ele><time>2026-04-19T15:17:08.199Z</time></trkpt><trkpt lat="43.984064" lon="3.5877224"><ele>360.6666666666667</ele><time>2026-04-19T15:17:09.199Z</time></trkpt><trkpt lat="43.9839369" lon="3.5878833"><ele>364.33333333333337</ele><time>2026-04-19T15:17:10.199Z</time></trkpt><trkpt lat="43.9838291" lon="3.5880411"><ele>368.0</ele><time>2026-04-19T15:17:11.199Z</time></trkpt><trkpt lat="43.9837396" lon="3.5881781"><ele>368.0</ele><time>2026-04-19T15:17:12.198Z</time></trkpt><trkpt lat="43.983658" lon="3.5882899"><ele>368.0</ele><time>2026-04-19T15:17:13.198Z</time></trkpt><trkpt lat="43.9835993" lon="3.5883767"><ele>368.0</ele><time>2026-04-19T15:17:14.198Z</time></trkpt><trkpt lat="43.9835459" lon="3.588444"><ele>368.0</ele><time>2026-04-19T15:17:15.198Z</time></trkpt><trkpt lat="43.9834939" lon="3.5885731"><ele>368.0</ele><time>2026-04-19T15:17:17.198Z</time></trkpt><trkpt lat="43.9834805" lon="3.5886603"><ele>368.0</ele><time>2026-04-19T15:17:18.198Z</time></trkpt><trkpt lat="43.983438" lon="3.5887566"><ele>370.5</ele><time>2026-04-19T15:17:19.199Z</time></trkpt><trkpt lat="43.9833969" lon="3.5888418"><ele>373.0</ele><time>2026-04-19T15:17:20.198Z</time></trkpt><trkpt lat="43.9833267" lon="3.5889391"><ele>375.5</ele><time>2026-04-19T15:17:22.198Z</time></trkpt><trkpt lat="43.983264" lon="3.5889926"><ele>378.0</ele><time>2026-04-19T15:17:26.199Z</time></trkpt><trkpt lat="43.9831892" lon="3.5890543"><ele>380.5</ele><time>2026-04-19T15:17:54.198Z</time></trkpt><trkpt lat="43.9831169" lon="3.5890713"><ele>383.0</ele><time>2026-04-19T15:17:56.198Z</time></trkpt><trkpt lat="43.983054" lon="3.589078"><ele>350.0</ele><time>2026-04-19T15:17:59.198Z</time></trkpt></trkseg></trk></gpx>